<?xml version="1.0" encoding="UTF-8" standalone="no" ?>
<gpx xmlns="http://www.topografix.com/GPX/1/1" xmlns:xsi="http://www.w3.org/2001/XMLSchema-instance" xsi:schemaLocation="http://www.topografix.com/GPX/1/1 http://www.topografix.com/GPX/1/1/gpx.xsd" version="1.1" creator="VisuGPX - https://www.visugpx.com">
  <metadata>
    <name>Bréançon &amp;#8211; Toit du Vexin &amp;#8211; Buttes de Rosne</name>
    <desc><![CDATA[Randonnée de 19 km en boucle à partir du parking de l’église de Bréançon]]></desc>
  </metadata>
  <trk>
    <name><![CDATA[Bréancon – Toit du Vexin – Buttes de Rosne _R]]></name>
    <trkseg>
      <trkpt lat="49.14288" lon="2.02168">
        <ele>140.72</ele>
        <time>2018-07-01T07:26:19Z</time>
      </trkpt>
      <trkpt lat="49.14288" lon="2.02168">
        <ele>140.72</ele>
        <time>2018-07-01T07:26:20Z</time>
      </trkpt>
      <trkpt lat="49.14288" lon="2.02168">
        <ele>153.25</ele>
        <time>2018-07-01T07:26:23Z</time>
      </trkpt>
      <trkpt lat="49.14288" lon="2.02168">
        <ele>153.25</ele>
        <time>2018-07-01T07:26:24Z</time>
      </trkpt>
      <trkpt lat="49.14289" lon="2.02168">
        <ele>152.02</ele>
        <time>2018-07-01T07:26:28Z</time>
      </trkpt>
      <trkpt lat="49.14289" lon="2.02168">
        <ele>152.5</ele>
        <time>2018-07-01T07:26:51Z</time>
      </trkpt>
      <trkpt lat="49.14289" lon="2.0217">
        <ele>151.99</ele>
        <time>2018-07-01T07:27:13Z</time>
      </trkpt>
      <trkpt lat="49.14287" lon="2.02172">
        <ele>152.48</ele>
        <time>2018-07-01T07:27:33Z</time>
      </trkpt>
      <trkpt lat="49.14287" lon="2.0217">
        <ele>152.32</ele>
        <time>2018-07-01T07:27:56Z</time>
      </trkpt>
      <trkpt lat="49.14287" lon="2.02169">
        <ele>152.26</ele>
        <time>2018-07-01T07:28:20Z</time>
      </trkpt>
      <trkpt lat="49.14286" lon="2.0217">
        <ele>152.52</ele>
        <time>2018-07-01T07:28:27Z</time>
      </trkpt>
      <trkpt lat="49.14284" lon="2.0217">
        <ele>152.43</ele>
        <time>2018-07-01T07:28:49Z</time>
      </trkpt>
      <trkpt lat="49.14285" lon="2.02169">
        <ele>152.93</ele>
        <time>2018-07-01T07:29:15Z</time>
      </trkpt>
      <trkpt lat="49.14285" lon="2.0217">
        <ele>151.81</ele>
        <time>2018-07-01T07:29:41Z</time>
      </trkpt>
      <trkpt lat="49.1428" lon="2.02164">
        <ele>152.21</ele>
        <time>2018-07-01T07:29:54Z</time>
      </trkpt>
      <trkpt lat="49.14281" lon="2.02165">
        <ele>152.48</ele>
        <time>2018-07-01T07:30:21Z</time>
      </trkpt>
      <trkpt lat="49.14285" lon="2.02165">
        <ele>152.56</ele>
        <time>2018-07-01T07:30:25Z</time>
      </trkpt>
      <trkpt lat="49.14287" lon="2.02163">
        <ele>152.56</ele>
        <time>2018-07-01T07:30:27Z</time>
      </trkpt>
      <trkpt lat="49.14293" lon="2.02147">
        <ele>151.69</ele>
        <time>2018-07-01T07:30:43Z</time>
      </trkpt>
      <trkpt lat="49.14301" lon="2.02137">
        <ele>151.42</ele>
        <time>2018-07-01T07:31:01Z</time>
      </trkpt>
      <trkpt lat="49.14315" lon="2.02118">
        <ele>150.31</ele>
        <time>2018-07-01T07:31:22Z</time>
      </trkpt>
      <trkpt lat="49.14318" lon="2.02115">
        <ele>149.62</ele>
        <time>2018-07-01T07:31:24Z</time>
      </trkpt>
      <trkpt lat="49.14329" lon="2.02094">
        <ele>147.74</ele>
        <time>2018-07-01T07:31:41Z</time>
      </trkpt>
      <trkpt lat="49.14344" lon="2.02081">
        <ele>144.74</ele>
        <time>2018-07-01T07:31:58Z</time>
      </trkpt>
      <trkpt lat="49.14359" lon="2.02069">
        <ele>142.8</ele>
        <time>2018-07-01T07:32:19Z</time>
      </trkpt>
      <trkpt lat="49.14363" lon="2.02063">
        <ele>142.52</ele>
        <time>2018-07-01T07:32:28Z</time>
      </trkpt>
      <trkpt lat="49.14374" lon="2.0205">
        <ele>142.57</ele>
        <time>2018-07-01T07:32:47Z</time>
      </trkpt>
      <trkpt lat="49.14375" lon="2.02049">
        <ele>142.94</ele>
        <time>2018-07-01T07:32:48Z</time>
      </trkpt>
      <trkpt lat="49.14377" lon="2.02045">
        <ele>143.23</ele>
        <time>2018-07-01T07:32:52Z</time>
      </trkpt>
      <trkpt lat="49.14382" lon="2.02019">
        <ele>143.48</ele>
        <time>2018-07-01T07:33:11Z</time>
      </trkpt>
      <trkpt lat="49.14387" lon="2.02002">
        <ele>144.2</ele>
        <time>2018-07-01T07:33:23Z</time>
      </trkpt>
      <trkpt lat="49.14404" lon="2.01983">
        <ele>145.91</ele>
        <time>2018-07-01T07:33:41Z</time>
      </trkpt>
      <trkpt lat="49.14418" lon="2.01974">
        <ele>145.9</ele>
        <time>2018-07-01T07:33:56Z</time>
      </trkpt>
      <trkpt lat="49.1442" lon="2.01976">
        <ele>145.53</ele>
        <time>2018-07-01T07:34:00Z</time>
      </trkpt>
      <trkpt lat="49.14435" lon="2.0199">
        <ele>144.56</ele>
        <time>2018-07-01T07:34:18Z</time>
      </trkpt>
      <trkpt lat="49.14437" lon="2.01992">
        <ele>144.01</ele>
        <time>2018-07-01T07:34:20Z</time>
      </trkpt>
      <trkpt lat="49.1445" lon="2.02002">
        <ele>143.48</ele>
        <time>2018-07-01T07:34:34Z</time>
      </trkpt>
      <trkpt lat="49.14461" lon="2.02018">
        <ele>143.21</ele>
        <time>2018-07-01T07:34:47Z</time>
      </trkpt>
      <trkpt lat="49.14474" lon="2.02034">
        <ele>141.59</ele>
        <time>2018-07-01T07:35:01Z</time>
      </trkpt>
      <trkpt lat="49.14492" lon="2.02049">
        <ele>141.49</ele>
        <time>2018-07-01T07:35:16Z</time>
      </trkpt>
      <trkpt lat="49.14514" lon="2.02065">
        <ele>140.77</ele>
        <time>2018-07-01T07:35:36Z</time>
      </trkpt>
      <trkpt lat="49.14539" lon="2.0208">
        <ele>139.38</ele>
        <time>2018-07-01T07:35:58Z</time>
      </trkpt>
      <trkpt lat="49.14557" lon="2.02094">
        <ele>138.24</ele>
        <time>2018-07-01T07:36:17Z</time>
      </trkpt>
      <trkpt lat="49.14571" lon="2.02114">
        <ele>136.8</ele>
        <time>2018-07-01T07:36:39Z</time>
      </trkpt>
      <trkpt lat="49.14578" lon="2.02132">
        <ele>135.95</ele>
        <time>2018-07-01T07:36:53Z</time>
      </trkpt>
      <trkpt lat="49.14593" lon="2.02188">
        <ele>133.96</ele>
        <time>2018-07-01T07:37:17Z</time>
      </trkpt>
      <trkpt lat="49.14604" lon="2.02221">
        <ele>133.12</ele>
        <time>2018-07-01T07:37:36Z</time>
      </trkpt>
      <trkpt lat="49.14625" lon="2.02246">
        <ele>132.47</ele>
        <time>2018-07-01T07:37:57Z</time>
      </trkpt>
      <trkpt lat="49.14651" lon="2.02266">
        <ele>130.93</ele>
        <time>2018-07-01T07:38:20Z</time>
      </trkpt>
      <trkpt lat="49.14675" lon="2.02284">
        <ele>129.14</ele>
        <time>2018-07-01T07:38:42Z</time>
      </trkpt>
      <trkpt lat="49.14695" lon="2.02298">
        <ele>128.03</ele>
        <time>2018-07-01T07:39:02Z</time>
      </trkpt>
      <trkpt lat="49.14719" lon="2.02316">
        <ele>126.18</ele>
        <time>2018-07-01T07:39:23Z</time>
      </trkpt>
      <trkpt lat="49.14732" lon="2.02329">
        <ele>125.77</ele>
        <time>2018-07-01T07:39:38Z</time>
      </trkpt>
      <trkpt lat="49.14736" lon="2.02332">
        <ele>124.82</ele>
        <time>2018-07-01T07:39:42Z</time>
      </trkpt>
      <trkpt lat="49.14739" lon="2.02335">
        <ele>125.93</ele>
        <time>2018-07-01T07:39:46Z</time>
      </trkpt>
      <trkpt lat="49.14744" lon="2.02339">
        <ele>124.36</ele>
        <time>2018-07-01T07:39:51Z</time>
      </trkpt>
      <trkpt lat="49.1476" lon="2.0235">
        <ele>123.62</ele>
        <time>2018-07-01T07:40:06Z</time>
      </trkpt>
      <trkpt lat="49.14776" lon="2.02368">
        <ele>122.14</ele>
        <time>2018-07-01T07:40:22Z</time>
      </trkpt>
      <trkpt lat="49.14778" lon="2.02371">
        <ele>122.14</ele>
        <time>2018-07-01T07:40:24Z</time>
      </trkpt>
      <trkpt lat="49.14783" lon="2.02378">
        <ele>121.37</ele>
        <time>2018-07-01T07:40:30Z</time>
      </trkpt>
      <trkpt lat="49.14801" lon="2.024">
        <ele>120.34</ele>
        <time>2018-07-01T07:40:48Z</time>
      </trkpt>
      <trkpt lat="49.14816" lon="2.0242">
        <ele>119.01</ele>
        <time>2018-07-01T07:41:06Z</time>
      </trkpt>
      <trkpt lat="49.14833" lon="2.02443">
        <ele>116.95</ele>
        <time>2018-07-01T07:41:24Z</time>
      </trkpt>
      <trkpt lat="49.14852" lon="2.02463">
        <ele>116.39</ele>
        <time>2018-07-01T07:41:43Z</time>
      </trkpt>
      <trkpt lat="49.14869" lon="2.02476">
        <ele>115.06</ele>
        <time>2018-07-01T07:41:59Z</time>
      </trkpt>
      <trkpt lat="49.14888" lon="2.02482">
        <ele>113.62</ele>
        <time>2018-07-01T07:42:15Z</time>
      </trkpt>
      <trkpt lat="49.14914" lon="2.02482">
        <ele>112.57</ele>
        <time>2018-07-01T07:42:36Z</time>
      </trkpt>
      <trkpt lat="49.1493" lon="2.02478">
        <ele>110.66</ele>
        <time>2018-07-01T07:42:50Z</time>
      </trkpt>
      <trkpt lat="49.14952" lon="2.02469">
        <ele>110.59</ele>
        <time>2018-07-01T07:43:10Z</time>
      </trkpt>
      <trkpt lat="49.14975" lon="2.02466">
        <ele>109.81</ele>
        <time>2018-07-01T07:43:28Z</time>
      </trkpt>
      <trkpt lat="49.15002" lon="2.02458">
        <ele>109.94</ele>
        <time>2018-07-01T07:43:50Z</time>
      </trkpt>
      <trkpt lat="49.15028" lon="2.02452">
        <ele>110.33</ele>
        <time>2018-07-01T07:44:13Z</time>
      </trkpt>
      <trkpt lat="49.15048" lon="2.02448">
        <ele>110.84</ele>
        <time>2018-07-01T07:44:31Z</time>
      </trkpt>
      <trkpt lat="49.15067" lon="2.02448">
        <ele>111.12</ele>
        <time>2018-07-01T07:44:47Z</time>
      </trkpt>
      <trkpt lat="49.15069" lon="2.02449">
        <ele>111.03</ele>
        <time>2018-07-01T07:44:49Z</time>
      </trkpt>
      <trkpt lat="49.15088" lon="2.02453">
        <ele>110.82</ele>
        <time>2018-07-01T07:45:05Z</time>
      </trkpt>
      <trkpt lat="49.15105" lon="2.02458">
        <ele>110.61</ele>
        <time>2018-07-01T07:45:19Z</time>
      </trkpt>
      <trkpt lat="49.15128" lon="2.02462">
        <ele>110.1</ele>
        <time>2018-07-01T07:45:39Z</time>
      </trkpt>
      <trkpt lat="49.1515" lon="2.02466">
        <ele>109.95</ele>
        <time>2018-07-01T07:45:58Z</time>
      </trkpt>
      <trkpt lat="49.15177" lon="2.02475">
        <ele>108.61</ele>
        <time>2018-07-01T07:46:20Z</time>
      </trkpt>
      <trkpt lat="49.15183" lon="2.02478">
        <ele>107.61</ele>
        <time>2018-07-01T07:46:25Z</time>
      </trkpt>
      <trkpt lat="49.15204" lon="2.02491">
        <ele>107.69</ele>
        <time>2018-07-01T07:46:45Z</time>
      </trkpt>
      <trkpt lat="49.15224" lon="2.02511">
        <ele>108.5</ele>
        <time>2018-07-01T07:47:04Z</time>
      </trkpt>
      <trkpt lat="49.15242" lon="2.02527">
        <ele>107.8</ele>
        <time>2018-07-01T07:47:21Z</time>
      </trkpt>
      <trkpt lat="49.15263" lon="2.02547">
        <ele>107.78</ele>
        <time>2018-07-01T07:47:41Z</time>
      </trkpt>
      <trkpt lat="49.15292" lon="2.02573">
        <ele>107.42</ele>
        <time>2018-07-01T07:48:08Z</time>
      </trkpt>
      <trkpt lat="49.15309" lon="2.02589">
        <ele>107.2</ele>
        <time>2018-07-01T07:48:25Z</time>
      </trkpt>
      <trkpt lat="49.15325" lon="2.02609">
        <ele>108.09</ele>
        <time>2018-07-01T07:48:42Z</time>
      </trkpt>
      <trkpt lat="49.15328" lon="2.02611">
        <ele>107.42</ele>
        <time>2018-07-01T07:48:44Z</time>
      </trkpt>
      <trkpt lat="49.15332" lon="2.0261">
        <ele>107.43</ele>
        <time>2018-07-01T07:48:48Z</time>
      </trkpt>
      <trkpt lat="49.15364" lon="2.02604">
        <ele>107.29</ele>
        <time>2018-07-01T07:49:15Z</time>
      </trkpt>
      <trkpt lat="49.15384" lon="2.026">
        <ele>107.85</ele>
        <time>2018-07-01T07:49:34Z</time>
      </trkpt>
      <trkpt lat="49.1539" lon="2.02589">
        <ele>108.67</ele>
        <time>2018-07-01T07:49:48Z</time>
      </trkpt>
      <trkpt lat="49.15389" lon="2.02579">
        <ele>108.27</ele>
        <time>2018-07-01T07:50:05Z</time>
      </trkpt>
      <trkpt lat="49.15391" lon="2.0257">
        <ele>108.38</ele>
        <time>2018-07-01T07:50:20Z</time>
      </trkpt>
      <trkpt lat="49.1539" lon="2.02565">
        <ele>108.64</ele>
        <time>2018-07-01T07:50:25Z</time>
      </trkpt>
      <trkpt lat="49.1539" lon="2.02538">
        <ele>108.53</ele>
        <time>2018-07-01T07:50:41Z</time>
      </trkpt>
      <trkpt lat="49.15389" lon="2.0251">
        <ele>108.18</ele>
        <time>2018-07-01T07:50:58Z</time>
      </trkpt>
      <trkpt lat="49.15388" lon="2.02487">
        <ele>108.74</ele>
        <time>2018-07-01T07:51:11Z</time>
      </trkpt>
      <trkpt lat="49.15385" lon="2.02457">
        <ele>108.89</ele>
        <time>2018-07-01T07:51:28Z</time>
      </trkpt>
      <trkpt lat="49.15383" lon="2.02443">
        <ele>109.2</ele>
        <time>2018-07-01T07:51:36Z</time>
      </trkpt>
      <trkpt lat="49.15376" lon="2.02411">
        <ele>109.62</ele>
        <time>2018-07-01T07:51:54Z</time>
      </trkpt>
      <trkpt lat="49.15367" lon="2.0238">
        <ele>110.9</ele>
        <time>2018-07-01T07:52:14Z</time>
      </trkpt>
      <trkpt lat="49.15362" lon="2.02362">
        <ele>111.13</ele>
        <time>2018-07-01T07:52:25Z</time>
      </trkpt>
      <trkpt lat="49.15353" lon="2.02337">
        <ele>111.86</ele>
        <time>2018-07-01T07:52:40Z</time>
      </trkpt>
      <trkpt lat="49.15345" lon="2.02309">
        <ele>113.01</ele>
        <time>2018-07-01T07:52:58Z</time>
      </trkpt>
      <trkpt lat="49.15339" lon="2.02284">
        <ele>113.39</ele>
        <time>2018-07-01T07:53:13Z</time>
      </trkpt>
      <trkpt lat="49.15335" lon="2.02254">
        <ele>114.3</ele>
        <time>2018-07-01T07:53:29Z</time>
      </trkpt>
      <trkpt lat="49.15332" lon="2.0223">
        <ele>114.41</ele>
        <time>2018-07-01T07:53:43Z</time>
      </trkpt>
      <trkpt lat="49.15331" lon="2.02222">
        <ele>114.91</ele>
        <time>2018-07-01T07:53:47Z</time>
      </trkpt>
      <trkpt lat="49.15328" lon="2.02193">
        <ele>115.87</ele>
        <time>2018-07-01T07:54:03Z</time>
      </trkpt>
      <trkpt lat="49.15328" lon="2.02177">
        <ele>116.26</ele>
        <time>2018-07-01T07:54:17Z</time>
      </trkpt>
      <trkpt lat="49.15331" lon="2.02174">
        <ele>116.21</ele>
        <time>2018-07-01T07:54:23Z</time>
      </trkpt>
      <trkpt lat="49.15338" lon="2.02165">
        <ele>116.72</ele>
        <time>2018-07-01T07:54:33Z</time>
      </trkpt>
      <trkpt lat="49.15342" lon="2.0216">
        <ele>116.81</ele>
        <time>2018-07-01T07:54:37Z</time>
      </trkpt>
      <trkpt lat="49.15353" lon="2.02147">
        <ele>117.44</ele>
        <time>2018-07-01T07:54:52Z</time>
      </trkpt>
      <trkpt lat="49.15358" lon="2.02142">
        <ele>118.08</ele>
        <time>2018-07-01T07:54:57Z</time>
      </trkpt>
      <trkpt lat="49.15372" lon="2.02121">
        <ele>119.06</ele>
        <time>2018-07-01T07:55:15Z</time>
      </trkpt>
      <trkpt lat="49.1538" lon="2.02108">
        <ele>119.07</ele>
        <time>2018-07-01T07:55:26Z</time>
      </trkpt>
      <trkpt lat="49.15385" lon="2.021">
        <ele>119.09</ele>
        <time>2018-07-01T07:55:32Z</time>
      </trkpt>
      <trkpt lat="49.1539" lon="2.02094">
        <ele>119.29</ele>
        <time>2018-07-01T07:55:37Z</time>
      </trkpt>
      <trkpt lat="49.15391" lon="2.02092">
        <ele>119.05</ele>
        <time>2018-07-01T07:55:39Z</time>
      </trkpt>
      <trkpt lat="49.15395" lon="2.02087">
        <ele>119.07</ele>
        <time>2018-07-01T07:55:43Z</time>
      </trkpt>
      <trkpt lat="49.15398" lon="2.02082">
        <ele>118.78</ele>
        <time>2018-07-01T07:55:47Z</time>
      </trkpt>
      <trkpt lat="49.15405" lon="2.0207">
        <ele>119.11</ele>
        <time>2018-07-01T07:55:56Z</time>
      </trkpt>
      <trkpt lat="49.15411" lon="2.02061">
        <ele>118.87</ele>
        <time>2018-07-01T07:56:03Z</time>
      </trkpt>
      <trkpt lat="49.15424" lon="2.02041">
        <ele>118.68</ele>
        <time>2018-07-01T07:56:18Z</time>
      </trkpt>
      <trkpt lat="49.15431" lon="2.0203">
        <ele>118.82</ele>
        <time>2018-07-01T07:56:27Z</time>
      </trkpt>
      <trkpt lat="49.15446" lon="2.02007">
        <ele>118.19</ele>
        <time>2018-07-01T07:56:45Z</time>
      </trkpt>
      <trkpt lat="49.15458" lon="2.01989">
        <ele>118.01</ele>
        <time>2018-07-01T07:56:59Z</time>
      </trkpt>
      <trkpt lat="49.15472" lon="2.01968">
        <ele>118.63</ele>
        <time>2018-07-01T07:57:15Z</time>
      </trkpt>
      <trkpt lat="49.15482" lon="2.01954">
        <ele>118.46</ele>
        <time>2018-07-01T07:57:28Z</time>
      </trkpt>
      <trkpt lat="49.15497" lon="2.01935">
        <ele>118.66</ele>
        <time>2018-07-01T07:57:45Z</time>
      </trkpt>
      <trkpt lat="49.15511" lon="2.01917">
        <ele>119.16</ele>
        <time>2018-07-01T07:57:59Z</time>
      </trkpt>
      <trkpt lat="49.15519" lon="2.01904">
        <ele>118.87</ele>
        <time>2018-07-01T07:58:09Z</time>
      </trkpt>
      <trkpt lat="49.15521" lon="2.01902">
        <ele>119.19</ele>
        <time>2018-07-01T07:58:11Z</time>
      </trkpt>
      <trkpt lat="49.15538" lon="2.01878">
        <ele>119.63</ele>
        <time>2018-07-01T07:58:30Z</time>
      </trkpt>
      <trkpt lat="49.15546" lon="2.01864">
        <ele>120.42</ele>
        <time>2018-07-01T07:58:42Z</time>
      </trkpt>
      <trkpt lat="49.15557" lon="2.01849">
        <ele>120.76</ele>
        <time>2018-07-01T07:58:54Z</time>
      </trkpt>
      <trkpt lat="49.15561" lon="2.01841">
        <ele>120.85</ele>
        <time>2018-07-01T07:59:00Z</time>
      </trkpt>
      <trkpt lat="49.15565" lon="2.01837">
        <ele>120.93</ele>
        <time>2018-07-01T07:59:04Z</time>
      </trkpt>
      <trkpt lat="49.15581" lon="2.01815">
        <ele>122.14</ele>
        <time>2018-07-01T07:59:22Z</time>
      </trkpt>
      <trkpt lat="49.15598" lon="2.01793">
        <ele>122.83</ele>
        <time>2018-07-01T07:59:40Z</time>
      </trkpt>
      <trkpt lat="49.15609" lon="2.01776">
        <ele>122.49</ele>
        <time>2018-07-01T07:59:53Z</time>
      </trkpt>
      <trkpt lat="49.15612" lon="2.01771">
        <ele>122.61</ele>
        <time>2018-07-01T07:59:57Z</time>
      </trkpt>
      <trkpt lat="49.15627" lon="2.01748">
        <ele>122.06</ele>
        <time>2018-07-01T08:00:14Z</time>
      </trkpt>
      <trkpt lat="49.1564" lon="2.01727">
        <ele>121.58</ele>
        <time>2018-07-01T08:00:30Z</time>
      </trkpt>
      <trkpt lat="49.15653" lon="2.01706">
        <ele>120.8</ele>
        <time>2018-07-01T08:00:47Z</time>
      </trkpt>
      <trkpt lat="49.15665" lon="2.01686">
        <ele>120.28</ele>
        <time>2018-07-01T08:01:01Z</time>
      </trkpt>
      <trkpt lat="49.15676" lon="2.01669">
        <ele>119.61</ele>
        <time>2018-07-01T08:01:16Z</time>
      </trkpt>
      <trkpt lat="49.15694" lon="2.0165">
        <ele>118.55</ele>
        <time>2018-07-01T08:01:34Z</time>
      </trkpt>
      <trkpt lat="49.15709" lon="2.01634">
        <ele>118.52</ele>
        <time>2018-07-01T08:01:50Z</time>
      </trkpt>
      <trkpt lat="49.15729" lon="2.01617">
        <ele>117.71</ele>
        <time>2018-07-01T08:02:09Z</time>
      </trkpt>
      <trkpt lat="49.1574" lon="2.01613">
        <ele>117.22</ele>
        <time>2018-07-01T08:02:21Z</time>
      </trkpt>
      <trkpt lat="49.15742" lon="2.01612">
        <ele>117.76</ele>
        <time>2018-07-01T08:02:23Z</time>
      </trkpt>
      <trkpt lat="49.15744" lon="2.0161">
        <ele>117.6</ele>
        <time>2018-07-01T08:02:25Z</time>
      </trkpt>
      <trkpt lat="49.15754" lon="2.01606">
        <ele>117.6</ele>
        <time>2018-07-01T08:02:39Z</time>
      </trkpt>
      <trkpt lat="49.15758" lon="2.01601">
        <ele>117.09</ele>
        <time>2018-07-01T08:03:02Z</time>
      </trkpt>
      <trkpt lat="49.15761" lon="2.01597">
        <ele>117.07</ele>
        <time>2018-07-01T08:03:19Z</time>
      </trkpt>
      <trkpt lat="49.15765" lon="2.01594">
        <ele>117.18</ele>
        <time>2018-07-01T08:03:43Z</time>
      </trkpt>
      <trkpt lat="49.15771" lon="2.01586">
        <ele>116.99</ele>
        <time>2018-07-01T08:03:59Z</time>
      </trkpt>
      <trkpt lat="49.15777" lon="2.01581">
        <ele>116.94</ele>
        <time>2018-07-01T08:04:19Z</time>
      </trkpt>
      <trkpt lat="49.15785" lon="2.01575">
        <ele>116.32</ele>
        <time>2018-07-01T08:04:32Z</time>
      </trkpt>
      <trkpt lat="49.15789" lon="2.01569">
        <ele>116.39</ele>
        <time>2018-07-01T08:04:38Z</time>
      </trkpt>
      <trkpt lat="49.15805" lon="2.01552">
        <ele>116.16</ele>
        <time>2018-07-01T08:04:54Z</time>
      </trkpt>
      <trkpt lat="49.15809" lon="2.01543">
        <ele>116.13</ele>
        <time>2018-07-01T08:05:01Z</time>
      </trkpt>
      <trkpt lat="49.15818" lon="2.01522">
        <ele>115</ele>
        <time>2018-07-01T08:05:14Z</time>
      </trkpt>
      <trkpt lat="49.15834" lon="2.01503">
        <ele>114.39</ele>
        <time>2018-07-01T08:05:30Z</time>
      </trkpt>
      <trkpt lat="49.15851" lon="2.01488">
        <ele>113.24</ele>
        <time>2018-07-01T08:05:46Z</time>
      </trkpt>
      <trkpt lat="49.1586" lon="2.01478">
        <ele>113.38</ele>
        <time>2018-07-01T08:05:55Z</time>
      </trkpt>
      <trkpt lat="49.15868" lon="2.01469">
        <ele>113.43</ele>
        <time>2018-07-01T08:06:07Z</time>
      </trkpt>
      <trkpt lat="49.15883" lon="2.01455">
        <ele>113.58</ele>
        <time>2018-07-01T08:06:22Z</time>
      </trkpt>
      <trkpt lat="49.15896" lon="2.01443">
        <ele>113</ele>
        <time>2018-07-01T08:06:36Z</time>
      </trkpt>
      <trkpt lat="49.15913" lon="2.01425">
        <ele>113.79</ele>
        <time>2018-07-01T08:06:54Z</time>
      </trkpt>
      <trkpt lat="49.15928" lon="2.01411">
        <ele>114.58</ele>
        <time>2018-07-01T08:07:11Z</time>
      </trkpt>
      <trkpt lat="49.15939" lon="2.01399">
        <ele>115.08</ele>
        <time>2018-07-01T08:07:25Z</time>
      </trkpt>
      <trkpt lat="49.15955" lon="2.01386">
        <ele>116.76</ele>
        <time>2018-07-01T08:07:41Z</time>
      </trkpt>
      <trkpt lat="49.15974" lon="2.01369">
        <ele>117.52</ele>
        <time>2018-07-01T08:08:00Z</time>
      </trkpt>
      <trkpt lat="49.15993" lon="2.01354">
        <ele>118.1</ele>
        <time>2018-07-01T08:08:20Z</time>
      </trkpt>
      <trkpt lat="49.15994" lon="2.01353">
        <ele>118.1</ele>
        <time>2018-07-01T08:08:21Z</time>
      </trkpt>
      <trkpt lat="49.15999" lon="2.01349">
        <ele>118.53</ele>
        <time>2018-07-01T08:08:26Z</time>
      </trkpt>
      <trkpt lat="49.16001" lon="2.01347">
        <ele>119.15</ele>
        <time>2018-07-01T08:08:28Z</time>
      </trkpt>
      <trkpt lat="49.16014" lon="2.01329">
        <ele>120.14</ele>
        <time>2018-07-01T08:08:45Z</time>
      </trkpt>
      <trkpt lat="49.16021" lon="2.01315">
        <ele>120.15</ele>
        <time>2018-07-01T08:08:59Z</time>
      </trkpt>
      <trkpt lat="49.16025" lon="2.01308">
        <ele>120.43</ele>
        <time>2018-07-01T08:09:04Z</time>
      </trkpt>
      <trkpt lat="49.16033" lon="2.01288">
        <ele>120.4</ele>
        <time>2018-07-01T08:09:18Z</time>
      </trkpt>
      <trkpt lat="49.16037" lon="2.01276">
        <ele>120.09</ele>
        <time>2018-07-01T08:09:28Z</time>
      </trkpt>
      <trkpt lat="49.16044" lon="2.01269">
        <ele>119.61</ele>
        <time>2018-07-01T08:09:34Z</time>
      </trkpt>
      <trkpt lat="49.16048" lon="2.01263">
        <ele>119.11</ele>
        <time>2018-07-01T08:09:39Z</time>
      </trkpt>
      <trkpt lat="49.16054" lon="2.01248">
        <ele>117.61</ele>
        <time>2018-07-01T08:09:53Z</time>
      </trkpt>
      <trkpt lat="49.16054" lon="2.01245">
        <ele>117.06</ele>
        <time>2018-07-01T08:09:56Z</time>
      </trkpt>
      <trkpt lat="49.16059" lon="2.01224">
        <ele>115.89</ele>
        <time>2018-07-01T08:10:11Z</time>
      </trkpt>
      <trkpt lat="49.16069" lon="2.01201">
        <ele>113.96</ele>
        <time>2018-07-01T08:10:27Z</time>
      </trkpt>
      <trkpt lat="49.16074" lon="2.01187">
        <ele>113.57</ele>
        <time>2018-07-01T08:10:37Z</time>
      </trkpt>
      <trkpt lat="49.1608" lon="2.01169">
        <ele>111.96</ele>
        <time>2018-07-01T08:10:52Z</time>
      </trkpt>
      <trkpt lat="49.16088" lon="2.0114">
        <ele>111.86</ele>
        <time>2018-07-01T08:11:07Z</time>
      </trkpt>
      <trkpt lat="49.16094" lon="2.01128">
        <ele>112.03</ele>
        <time>2018-07-01T08:11:15Z</time>
      </trkpt>
      <trkpt lat="49.16098" lon="2.01124">
        <ele>112.05</ele>
        <time>2018-07-01T08:11:19Z</time>
      </trkpt>
      <trkpt lat="49.16119" lon="2.01104">
        <ele>112.16</ele>
        <time>2018-07-01T08:11:38Z</time>
      </trkpt>
      <trkpt lat="49.16133" lon="2.01092">
        <ele>112.25</ele>
        <time>2018-07-01T08:11:51Z</time>
      </trkpt>
      <trkpt lat="49.16153" lon="2.01072">
        <ele>113.39</ele>
        <time>2018-07-01T08:12:12Z</time>
      </trkpt>
      <trkpt lat="49.16166" lon="2.01058">
        <ele>114.31</ele>
        <time>2018-07-01T08:12:28Z</time>
      </trkpt>
      <trkpt lat="49.1618" lon="2.01047">
        <ele>115.57</ele>
        <time>2018-07-01T08:12:43Z</time>
      </trkpt>
      <trkpt lat="49.16199" lon="2.01026">
        <ele>116.84</ele>
        <time>2018-07-01T08:13:04Z</time>
      </trkpt>
      <trkpt lat="49.1621" lon="2.01017">
        <ele>118.02</ele>
        <time>2018-07-01T08:13:17Z</time>
      </trkpt>
      <trkpt lat="49.1622" lon="2.01008">
        <ele>118.38</ele>
        <time>2018-07-01T08:13:29Z</time>
      </trkpt>
      <trkpt lat="49.16221" lon="2.01006">
        <ele>118.92</ele>
        <time>2018-07-01T08:13:31Z</time>
      </trkpt>
      <trkpt lat="49.16235" lon="2.00996">
        <ele>120.38</ele>
        <time>2018-07-01T08:13:45Z</time>
      </trkpt>
      <trkpt lat="49.16251" lon="2.00982">
        <ele>120.54</ele>
        <time>2018-07-01T08:14:01Z</time>
      </trkpt>
      <trkpt lat="49.16261" lon="2.00971">
        <ele>121.13</ele>
        <time>2018-07-01T08:14:14Z</time>
      </trkpt>
      <trkpt lat="49.16274" lon="2.00953">
        <ele>122.22</ele>
        <time>2018-07-01T08:14:29Z</time>
      </trkpt>
      <trkpt lat="49.16286" lon="2.00936">
        <ele>123.18</ele>
        <time>2018-07-01T08:14:44Z</time>
      </trkpt>
      <trkpt lat="49.16298" lon="2.00916">
        <ele>124.29</ele>
        <time>2018-07-01T08:15:01Z</time>
      </trkpt>
      <trkpt lat="49.16309" lon="2.00896">
        <ele>124.99</ele>
        <time>2018-07-01T08:15:16Z</time>
      </trkpt>
      <trkpt lat="49.16319" lon="2.00879">
        <ele>125.16</ele>
        <time>2018-07-01T08:15:30Z</time>
      </trkpt>
      <trkpt lat="49.16327" lon="2.00865">
        <ele>126.03</ele>
        <time>2018-07-01T08:15:41Z</time>
      </trkpt>
      <trkpt lat="49.16335" lon="2.00854">
        <ele>126.58</ele>
        <time>2018-07-01T08:15:54Z</time>
      </trkpt>
      <trkpt lat="49.16349" lon="2.00831">
        <ele>127.3</ele>
        <time>2018-07-01T08:16:14Z</time>
      </trkpt>
      <trkpt lat="49.16351" lon="2.00823">
        <ele>127.83</ele>
        <time>2018-07-01T08:16:28Z</time>
      </trkpt>
      <trkpt lat="49.1635" lon="2.00822">
        <ele>128.13</ele>
        <time>2018-07-01T08:16:42Z</time>
      </trkpt>
      <trkpt lat="49.16358" lon="2.00816">
        <ele>127.57</ele>
        <time>2018-07-01T08:16:58Z</time>
      </trkpt>
      <trkpt lat="49.16362" lon="2.00811">
        <ele>128.11</ele>
        <time>2018-07-01T08:17:04Z</time>
      </trkpt>
      <trkpt lat="49.1638" lon="2.00783">
        <ele>128.45</ele>
        <time>2018-07-01T08:17:28Z</time>
      </trkpt>
      <trkpt lat="49.16392" lon="2.00762">
        <ele>128.37</ele>
        <time>2018-07-01T08:17:45Z</time>
      </trkpt>
      <trkpt lat="49.16407" lon="2.00736">
        <ele>127.89</ele>
        <time>2018-07-01T08:18:05Z</time>
      </trkpt>
      <trkpt lat="49.16425" lon="2.00704">
        <ele>127.23</ele>
        <time>2018-07-01T08:18:29Z</time>
      </trkpt>
      <trkpt lat="49.16439" lon="2.00672">
        <ele>126.6</ele>
        <time>2018-07-01T08:18:51Z</time>
      </trkpt>
      <trkpt lat="49.16448" lon="2.00644">
        <ele>126.07</ele>
        <time>2018-07-01T08:19:09Z</time>
      </trkpt>
      <trkpt lat="49.16456" lon="2.00622">
        <ele>125.77</ele>
        <time>2018-07-01T08:19:25Z</time>
      </trkpt>
      <trkpt lat="49.16465" lon="2.00597">
        <ele>125.92</ele>
        <time>2018-07-01T08:19:41Z</time>
      </trkpt>
      <trkpt lat="49.16473" lon="2.0058">
        <ele>125.77</ele>
        <time>2018-07-01T08:19:52Z</time>
      </trkpt>
      <trkpt lat="49.16479" lon="2.00568">
        <ele>125.94</ele>
        <time>2018-07-01T08:20:09Z</time>
      </trkpt>
      <trkpt lat="49.16484" lon="2.00564">
        <ele>125.67</ele>
        <time>2018-07-01T08:20:25Z</time>
      </trkpt>
      <trkpt lat="49.16488" lon="2.00562">
        <ele>125.35</ele>
        <time>2018-07-01T08:20:37Z</time>
      </trkpt>
      <trkpt lat="49.16492" lon="2.0056">
        <ele>125.52</ele>
        <time>2018-07-01T08:20:41Z</time>
      </trkpt>
      <trkpt lat="49.16496" lon="2.00558">
        <ele>125.63</ele>
        <time>2018-07-01T08:20:45Z</time>
      </trkpt>
      <trkpt lat="49.16514" lon="2.00554">
        <ele>125.92</ele>
        <time>2018-07-01T08:21:01Z</time>
      </trkpt>
      <trkpt lat="49.16519" lon="2.0055">
        <ele>125.93</ele>
        <time>2018-07-01T08:21:06Z</time>
      </trkpt>
      <trkpt lat="49.16531" lon="2.0055">
        <ele>126.23</ele>
        <time>2018-07-01T08:21:18Z</time>
      </trkpt>
      <trkpt lat="49.1655" lon="2.00537">
        <ele>125.59</ele>
        <time>2018-07-01T08:21:35Z</time>
      </trkpt>
      <trkpt lat="49.16563" lon="2.00535">
        <ele>126.28</ele>
        <time>2018-07-01T08:21:49Z</time>
      </trkpt>
      <trkpt lat="49.16578" lon="2.00543">
        <ele>125.5</ele>
        <time>2018-07-01T08:22:03Z</time>
      </trkpt>
      <trkpt lat="49.16591" lon="2.00549">
        <ele>125.66</ele>
        <time>2018-07-01T08:22:16Z</time>
      </trkpt>
      <trkpt lat="49.16607" lon="2.00551">
        <ele>126.4</ele>
        <time>2018-07-01T08:22:33Z</time>
      </trkpt>
      <trkpt lat="49.16611" lon="2.00547">
        <ele>126.82</ele>
        <time>2018-07-01T08:22:48Z</time>
      </trkpt>
      <trkpt lat="49.16614" lon="2.00546">
        <ele>126.13</ele>
        <time>2018-07-01T08:23:13Z</time>
      </trkpt>
      <trkpt lat="49.16614" lon="2.0055">
        <ele>126.77</ele>
        <time>2018-07-01T08:23:41Z</time>
      </trkpt>
      <trkpt lat="49.16615" lon="2.00548">
        <ele>127.1</ele>
        <time>2018-07-01T08:24:06Z</time>
      </trkpt>
      <trkpt lat="49.16617" lon="2.00551">
        <ele>127.07</ele>
        <time>2018-07-01T08:24:31Z</time>
      </trkpt>
      <trkpt lat="49.16619" lon="2.00562">
        <ele>127.38</ele>
        <time>2018-07-01T08:24:46Z</time>
      </trkpt>
      <trkpt lat="49.1662" lon="2.00564">
        <ele>127.27</ele>
        <time>2018-07-01T08:25:02Z</time>
      </trkpt>
      <trkpt lat="49.16626" lon="2.00571">
        <ele>126.96</ele>
        <time>2018-07-01T08:25:16Z</time>
      </trkpt>
      <trkpt lat="49.16629" lon="2.00572">
        <ele>126.87</ele>
        <time>2018-07-01T08:25:19Z</time>
      </trkpt>
      <trkpt lat="49.16648" lon="2.00578">
        <ele>126.79</ele>
        <time>2018-07-01T08:25:36Z</time>
      </trkpt>
      <trkpt lat="49.16667" lon="2.00584">
        <ele>127.61</ele>
        <time>2018-07-01T08:25:52Z</time>
      </trkpt>
      <trkpt lat="49.16686" lon="2.00592">
        <ele>127.83</ele>
        <time>2018-07-01T08:26:09Z</time>
      </trkpt>
      <trkpt lat="49.16707" lon="2.00592">
        <ele>128.62</ele>
        <time>2018-07-01T08:26:28Z</time>
      </trkpt>
      <trkpt lat="49.16723" lon="2.0059">
        <ele>129.5</ele>
        <time>2018-07-01T08:26:45Z</time>
      </trkpt>
      <trkpt lat="49.16741" lon="2.00585">
        <ele>129.92</ele>
        <time>2018-07-01T08:27:02Z</time>
      </trkpt>
      <trkpt lat="49.16755" lon="2.00577">
        <ele>130.66</ele>
        <time>2018-07-01T08:27:19Z</time>
      </trkpt>
      <trkpt lat="49.1677" lon="2.00565">
        <ele>131.34</ele>
        <time>2018-07-01T08:27:37Z</time>
      </trkpt>
      <trkpt lat="49.16772" lon="2.00563">
        <ele>131.33</ele>
        <time>2018-07-01T08:27:39Z</time>
      </trkpt>
      <trkpt lat="49.16786" lon="2.00546">
        <ele>131.9</ele>
        <time>2018-07-01T08:28:00Z</time>
      </trkpt>
      <trkpt lat="49.16805" lon="2.00522">
        <ele>133.11</ele>
        <time>2018-07-01T08:28:24Z</time>
      </trkpt>
      <trkpt lat="49.16819" lon="2.00506">
        <ele>133.82</ele>
        <time>2018-07-01T08:28:42Z</time>
      </trkpt>
      <trkpt lat="49.16833" lon="2.00492">
        <ele>135.19</ele>
        <time>2018-07-01T08:29:00Z</time>
      </trkpt>
      <trkpt lat="49.16848" lon="2.00479">
        <ele>135.68</ele>
        <time>2018-07-01T08:29:17Z</time>
      </trkpt>
      <trkpt lat="49.16857" lon="2.00473">
        <ele>136.14</ele>
        <time>2018-07-01T08:29:26Z</time>
      </trkpt>
      <trkpt lat="49.16876" lon="2.00458">
        <ele>137.79</ele>
        <time>2018-07-01T08:29:49Z</time>
      </trkpt>
      <trkpt lat="49.16891" lon="2.00445">
        <ele>139.38</ele>
        <time>2018-07-01T08:30:11Z</time>
      </trkpt>
      <trkpt lat="49.16911" lon="2.00436">
        <ele>140.03</ele>
        <time>2018-07-01T08:30:34Z</time>
      </trkpt>
      <trkpt lat="49.16919" lon="2.0043">
        <ele>140.77</ele>
        <time>2018-07-01T08:30:54Z</time>
      </trkpt>
      <trkpt lat="49.16939" lon="2.00414">
        <ele>141.94</ele>
        <time>2018-07-01T08:31:15Z</time>
      </trkpt>
      <trkpt lat="49.16964" lon="2.004">
        <ele>142</ele>
        <time>2018-07-01T08:31:36Z</time>
      </trkpt>
      <trkpt lat="49.16971" lon="2.00384">
        <ele>143.38</ele>
        <time>2018-07-01T08:31:57Z</time>
      </trkpt>
      <trkpt lat="49.16988" lon="2.00381">
        <ele>144.01</ele>
        <time>2018-07-01T08:32:14Z</time>
      </trkpt>
      <trkpt lat="49.17003" lon="2.00372">
        <ele>145.22</ele>
        <time>2018-07-01T08:32:32Z</time>
      </trkpt>
      <trkpt lat="49.17015" lon="2.00362">
        <ele>146.81</ele>
        <time>2018-07-01T08:32:52Z</time>
      </trkpt>
      <trkpt lat="49.17022" lon="2.00355">
        <ele>147.28</ele>
        <time>2018-07-01T08:33:07Z</time>
      </trkpt>
      <trkpt lat="49.17034" lon="2.00344">
        <ele>148.58</ele>
        <time>2018-07-01T08:33:23Z</time>
      </trkpt>
      <trkpt lat="49.17049" lon="2.00332">
        <ele>149.46</ele>
        <time>2018-07-01T08:33:41Z</time>
      </trkpt>
      <trkpt lat="49.17065" lon="2.00318">
        <ele>151.11</ele>
        <time>2018-07-01T08:33:59Z</time>
      </trkpt>
      <trkpt lat="49.17072" lon="2.00308">
        <ele>152.13</ele>
        <time>2018-07-01T08:34:11Z</time>
      </trkpt>
      <trkpt lat="49.17087" lon="2.00301">
        <ele>152.97</ele>
        <time>2018-07-01T08:34:34Z</time>
      </trkpt>
      <trkpt lat="49.17086" lon="2.00302">
        <ele>152.67</ele>
        <time>2018-07-01T08:35:05Z</time>
      </trkpt>
      <trkpt lat="49.17091" lon="2.00302">
        <ele>152.33</ele>
        <time>2018-07-01T08:35:32Z</time>
      </trkpt>
      <trkpt lat="49.17095" lon="2.00304">
        <ele>152.21</ele>
        <time>2018-07-01T08:35:57Z</time>
      </trkpt>
      <trkpt lat="49.17094" lon="2.00299">
        <ele>152.33</ele>
        <time>2018-07-01T08:36:22Z</time>
      </trkpt>
      <trkpt lat="49.17099" lon="2.00302">
        <ele>151.77</ele>
        <time>2018-07-01T08:36:49Z</time>
      </trkpt>
      <trkpt lat="49.17105" lon="2.00299">
        <ele>151.9</ele>
        <time>2018-07-01T08:37:17Z</time>
      </trkpt>
      <trkpt lat="49.17104" lon="2.00301">
        <ele>151.39</ele>
        <time>2018-07-01T08:37:46Z</time>
      </trkpt>
      <trkpt lat="49.17102" lon="2.00306">
        <ele>151.36</ele>
        <time>2018-07-01T08:38:15Z</time>
      </trkpt>
      <trkpt lat="49.17105" lon="2.00304">
        <ele>151.31</ele>
        <time>2018-07-01T08:38:43Z</time>
      </trkpt>
      <trkpt lat="49.17106" lon="2.00303">
        <ele>151.49</ele>
        <time>2018-07-01T08:39:10Z</time>
      </trkpt>
      <trkpt lat="49.17104" lon="2.003">
        <ele>151.68</ele>
        <time>2018-07-01T08:39:34Z</time>
      </trkpt>
      <trkpt lat="49.17107" lon="2.00305">
        <ele>151.07</ele>
        <time>2018-07-01T08:39:56Z</time>
      </trkpt>
      <trkpt lat="49.17111" lon="2.00317">
        <ele>152.13</ele>
        <time>2018-07-01T08:40:15Z</time>
      </trkpt>
      <trkpt lat="49.17117" lon="2.0034">
        <ele>151.11</ele>
        <time>2018-07-01T08:40:34Z</time>
      </trkpt>
      <trkpt lat="49.17117" lon="2.0035">
        <ele>150.16</ele>
        <time>2018-07-01T08:40:39Z</time>
      </trkpt>
      <trkpt lat="49.1712" lon="2.00382">
        <ele>148.51</ele>
        <time>2018-07-01T08:40:58Z</time>
      </trkpt>
      <trkpt lat="49.17121" lon="2.00404">
        <ele>147.94</ele>
        <time>2018-07-01T08:41:15Z</time>
      </trkpt>
      <trkpt lat="49.17121" lon="2.00431">
        <ele>147.23</ele>
        <time>2018-07-01T08:41:36Z</time>
      </trkpt>
      <trkpt lat="49.17121" lon="2.00454">
        <ele>146.05</ele>
        <time>2018-07-01T08:41:54Z</time>
      </trkpt>
      <trkpt lat="49.17129" lon="2.0047">
        <ele>146.42</ele>
        <time>2018-07-01T08:42:11Z</time>
      </trkpt>
      <trkpt lat="49.1714" lon="2.00505">
        <ele>147.13</ele>
        <time>2018-07-01T08:42:32Z</time>
      </trkpt>
      <trkpt lat="49.17152" lon="2.00542">
        <ele>147.67</ele>
        <time>2018-07-01T08:42:50Z</time>
      </trkpt>
      <trkpt lat="49.17166" lon="2.00572">
        <ele>147.94</ele>
        <time>2018-07-01T08:43:07Z</time>
      </trkpt>
      <trkpt lat="49.17179" lon="2.0059">
        <ele>148.97</ele>
        <time>2018-07-01T08:43:28Z</time>
      </trkpt>
      <trkpt lat="49.17194" lon="2.00602">
        <ele>149.26</ele>
        <time>2018-07-01T08:43:44Z</time>
      </trkpt>
      <trkpt lat="49.17206" lon="2.00618">
        <ele>150.8</ele>
        <time>2018-07-01T08:44:02Z</time>
      </trkpt>
      <trkpt lat="49.17213" lon="2.00642">
        <ele>152.01</ele>
        <time>2018-07-01T08:44:20Z</time>
      </trkpt>
      <trkpt lat="49.17224" lon="2.00669">
        <ele>152.5</ele>
        <time>2018-07-01T08:44:39Z</time>
      </trkpt>
      <trkpt lat="49.17232" lon="2.00689">
        <ele>153.22</ele>
        <time>2018-07-01T08:44:55Z</time>
      </trkpt>
      <trkpt lat="49.17244" lon="2.00714">
        <ele>155.03</ele>
        <time>2018-07-01T08:45:14Z</time>
      </trkpt>
      <trkpt lat="49.17254" lon="2.00732">
        <ele>157.32</ele>
        <time>2018-07-01T08:45:30Z</time>
      </trkpt>
      <trkpt lat="49.17264" lon="2.00757">
        <ele>158.91</ele>
        <time>2018-07-01T08:45:51Z</time>
      </trkpt>
      <trkpt lat="49.17273" lon="2.00771">
        <ele>162.12</ele>
        <time>2018-07-01T08:46:13Z</time>
      </trkpt>
      <trkpt lat="49.17275" lon="2.00782">
        <ele>163.35</ele>
        <time>2018-07-01T08:46:30Z</time>
      </trkpt>
      <trkpt lat="49.17288" lon="2.00799">
        <ele>163.71</ele>
        <time>2018-07-01T08:46:50Z</time>
      </trkpt>
      <trkpt lat="49.17289" lon="2.00799">
        <ele>163.66</ele>
        <time>2018-07-01T08:46:56Z</time>
      </trkpt>
      <trkpt lat="49.17298" lon="2.00797">
        <ele>162.68</ele>
        <time>2018-07-01T08:47:23Z</time>
      </trkpt>
      <trkpt lat="49.17307" lon="2.00805">
        <ele>161.79</ele>
        <time>2018-07-01T08:47:43Z</time>
      </trkpt>
      <trkpt lat="49.17309" lon="2.00812">
        <ele>161.95</ele>
        <time>2018-07-01T08:47:57Z</time>
      </trkpt>
      <trkpt lat="49.1732" lon="2.00821">
        <ele>159.45</ele>
        <time>2018-07-01T08:48:16Z</time>
      </trkpt>
      <trkpt lat="49.17332" lon="2.0084">
        <ele>156.09</ele>
        <time>2018-07-01T08:48:31Z</time>
      </trkpt>
      <trkpt lat="49.17344" lon="2.00859">
        <ele>154.05</ele>
        <time>2018-07-01T08:48:44Z</time>
      </trkpt>
      <trkpt lat="49.17357" lon="2.00879">
        <ele>152.59</ele>
        <time>2018-07-01T08:49:02Z</time>
      </trkpt>
      <trkpt lat="49.17359" lon="2.00886">
        <ele>152.58</ele>
        <time>2018-07-01T08:49:09Z</time>
      </trkpt>
      <trkpt lat="49.17371" lon="2.00902">
        <ele>152.21</ele>
        <time>2018-07-01T08:49:28Z</time>
      </trkpt>
      <trkpt lat="49.17382" lon="2.00915">
        <ele>152.03</ele>
        <time>2018-07-01T08:49:41Z</time>
      </trkpt>
      <trkpt lat="49.17395" lon="2.00933">
        <ele>154.23</ele>
        <time>2018-07-01T08:50:02Z</time>
      </trkpt>
      <trkpt lat="49.17404" lon="2.00953">
        <ele>156.09</ele>
        <time>2018-07-01T08:50:17Z</time>
      </trkpt>
      <trkpt lat="49.17417" lon="2.00976">
        <ele>157.71</ele>
        <time>2018-07-01T08:50:38Z</time>
      </trkpt>
      <trkpt lat="49.17425" lon="2.00989">
        <ele>157.37</ele>
        <time>2018-07-01T08:50:49Z</time>
      </trkpt>
      <trkpt lat="49.17423" lon="2.00992">
        <ele>156.85</ele>
        <time>2018-07-01T08:50:51Z</time>
      </trkpt>
      <trkpt lat="49.17426" lon="2.01016">
        <ele>155.07</ele>
        <time>2018-07-01T08:51:12Z</time>
      </trkpt>
      <trkpt lat="49.17431" lon="2.01046">
        <ele>152.73</ele>
        <time>2018-07-01T08:51:33Z</time>
      </trkpt>
      <trkpt lat="49.17436" lon="2.01073">
        <ele>151.06</ele>
        <time>2018-07-01T08:51:51Z</time>
      </trkpt>
      <trkpt lat="49.17451" lon="2.01086">
        <ele>147.98</ele>
        <time>2018-07-01T08:52:12Z</time>
      </trkpt>
      <trkpt lat="49.17469" lon="2.01099">
        <ele>146.8</ele>
        <time>2018-07-01T08:52:36Z</time>
      </trkpt>
      <trkpt lat="49.17483" lon="2.01109">
        <ele>145.4</ele>
        <time>2018-07-01T08:52:56Z</time>
      </trkpt>
      <trkpt lat="49.17495" lon="2.01133">
        <ele>142.86</ele>
        <time>2018-07-01T08:53:19Z</time>
      </trkpt>
      <trkpt lat="49.17491" lon="2.01134">
        <ele>141.63</ele>
        <time>2018-07-01T08:53:25Z</time>
      </trkpt>
      <trkpt lat="49.17497" lon="2.01137">
        <ele>140.41</ele>
        <time>2018-07-01T08:53:36Z</time>
      </trkpt>
      <trkpt lat="49.17503" lon="2.01147">
        <ele>138.83</ele>
        <time>2018-07-01T08:53:46Z</time>
      </trkpt>
      <trkpt lat="49.17534" lon="2.0115">
        <ele>137.66</ele>
        <time>2018-07-01T08:54:05Z</time>
      </trkpt>
      <trkpt lat="49.17572" lon="2.01163">
        <ele>136.07</ele>
        <time>2018-07-01T08:54:25Z</time>
      </trkpt>
      <trkpt lat="49.17593" lon="2.01186">
        <ele>135.51</ele>
        <time>2018-07-01T08:54:45Z</time>
      </trkpt>
      <trkpt lat="49.17604" lon="2.01216">
        <ele>135.7</ele>
        <time>2018-07-01T08:55:05Z</time>
      </trkpt>
      <trkpt lat="49.17605" lon="2.01238">
        <ele>135.73</ele>
        <time>2018-07-01T08:55:15Z</time>
      </trkpt>
      <trkpt lat="49.17607" lon="2.01265">
        <ele>135.76</ele>
        <time>2018-07-01T08:55:30Z</time>
      </trkpt>
      <trkpt lat="49.17613" lon="2.01302">
        <ele>135.94</ele>
        <time>2018-07-01T08:55:43Z</time>
      </trkpt>
      <trkpt lat="49.17622" lon="2.01318">
        <ele>136.68</ele>
        <time>2018-07-01T08:56:01Z</time>
      </trkpt>
      <trkpt lat="49.17644" lon="2.01349">
        <ele>136.57</ele>
        <time>2018-07-01T08:56:22Z</time>
      </trkpt>
      <trkpt lat="49.17649" lon="2.01372">
        <ele>139.27</ele>
        <time>2018-07-01T08:56:44Z</time>
      </trkpt>
      <trkpt lat="49.17654" lon="2.0141">
        <ele>139.2</ele>
        <time>2018-07-01T08:57:01Z</time>
      </trkpt>
      <trkpt lat="49.1766" lon="2.01425">
        <ele>136.05</ele>
        <time>2018-07-01T08:57:22Z</time>
      </trkpt>
      <trkpt lat="49.17667" lon="2.01441">
        <ele>134.79</ele>
        <time>2018-07-01T08:57:41Z</time>
      </trkpt>
      <trkpt lat="49.17668" lon="2.01469">
        <ele>133.65</ele>
        <time>2018-07-01T08:58:01Z</time>
      </trkpt>
      <trkpt lat="49.17671" lon="2.01499">
        <ele>131.82</ele>
        <time>2018-07-01T08:58:20Z</time>
      </trkpt>
      <trkpt lat="49.17683" lon="2.01524">
        <ele>129.87</ele>
        <time>2018-07-01T08:58:39Z</time>
      </trkpt>
      <trkpt lat="49.17686" lon="2.01547">
        <ele>128.55</ele>
        <time>2018-07-01T08:58:58Z</time>
      </trkpt>
      <trkpt lat="49.17692" lon="2.0158">
        <ele>128.01</ele>
        <time>2018-07-01T08:59:18Z</time>
      </trkpt>
      <trkpt lat="49.17689" lon="2.01616">
        <ele>125.58</ele>
        <time>2018-07-01T08:59:39Z</time>
      </trkpt>
      <trkpt lat="49.17691" lon="2.01626">
        <ele>124.61</ele>
        <time>2018-07-01T08:59:59Z</time>
      </trkpt>
      <trkpt lat="49.17689" lon="2.01651">
        <ele>123.82</ele>
        <time>2018-07-01T09:00:16Z</time>
      </trkpt>
      <trkpt lat="49.17686" lon="2.01686">
        <ele>124.4</ele>
        <time>2018-07-01T09:00:34Z</time>
      </trkpt>
      <trkpt lat="49.17694" lon="2.01739">
        <ele>124.85</ele>
        <time>2018-07-01T09:00:54Z</time>
      </trkpt>
      <trkpt lat="49.17691" lon="2.01774">
        <ele>125.8</ele>
        <time>2018-07-01T09:01:10Z</time>
      </trkpt>
      <trkpt lat="49.1769" lon="2.0178">
        <ele>125.9</ele>
        <time>2018-07-01T09:01:11Z</time>
      </trkpt>
      <trkpt lat="49.177" lon="2.01801">
        <ele>125.87</ele>
        <time>2018-07-01T09:01:30Z</time>
      </trkpt>
      <trkpt lat="49.17711" lon="2.0184">
        <ele>126.52</ele>
        <time>2018-07-01T09:01:53Z</time>
      </trkpt>
      <trkpt lat="49.17716" lon="2.01846">
        <ele>126.86</ele>
        <time>2018-07-01T09:02:00Z</time>
      </trkpt>
      <trkpt lat="49.17719" lon="2.0188">
        <ele>128.18</ele>
        <time>2018-07-01T09:02:19Z</time>
      </trkpt>
      <trkpt lat="49.17724" lon="2.01913">
        <ele>129.04</ele>
        <time>2018-07-01T09:02:40Z</time>
      </trkpt>
      <trkpt lat="49.17733" lon="2.01943">
        <ele>130.99</ele>
        <time>2018-07-01T09:02:59Z</time>
      </trkpt>
      <trkpt lat="49.17745" lon="2.01973">
        <ele>132.67</ele>
        <time>2018-07-01T09:03:19Z</time>
      </trkpt>
      <trkpt lat="49.17749" lon="2.01979">
        <ele>132.46</ele>
        <time>2018-07-01T09:03:40Z</time>
      </trkpt>
      <trkpt lat="49.17754" lon="2.0197">
        <ele>134.15</ele>
        <time>2018-07-01T09:03:59Z</time>
      </trkpt>
      <trkpt lat="49.17764" lon="2.01954">
        <ele>136.4</ele>
        <time>2018-07-01T09:04:15Z</time>
      </trkpt>
      <trkpt lat="49.17777" lon="2.01932">
        <ele>138.55</ele>
        <time>2018-07-01T09:04:38Z</time>
      </trkpt>
      <trkpt lat="49.17795" lon="2.01918">
        <ele>141.09</ele>
        <time>2018-07-01T09:04:57Z</time>
      </trkpt>
      <trkpt lat="49.17797" lon="2.01914">
        <ele>141.84</ele>
        <time>2018-07-01T09:05:01Z</time>
      </trkpt>
      <trkpt lat="49.17799" lon="2.01911">
        <ele>142.12</ele>
        <time>2018-07-01T09:05:07Z</time>
      </trkpt>
      <trkpt lat="49.17801" lon="2.01908">
        <ele>141.87</ele>
        <time>2018-07-01T09:05:16Z</time>
      </trkpt>
      <trkpt lat="49.17801" lon="2.01897">
        <ele>141.91</ele>
        <time>2018-07-01T09:05:39Z</time>
      </trkpt>
      <trkpt lat="49.17809" lon="2.01883">
        <ele>142.98</ele>
        <time>2018-07-01T09:06:02Z</time>
      </trkpt>
      <trkpt lat="49.17808" lon="2.01861">
        <ele>143.55</ele>
        <time>2018-07-01T09:06:20Z</time>
      </trkpt>
      <trkpt lat="49.17808" lon="2.01829">
        <ele>144.92</ele>
        <time>2018-07-01T09:06:40Z</time>
      </trkpt>
      <trkpt lat="49.17808" lon="2.01799">
        <ele>146.32</ele>
        <time>2018-07-01T09:06:57Z</time>
      </trkpt>
      <trkpt lat="49.17812" lon="2.0177">
        <ele>146.67</ele>
        <time>2018-07-01T09:07:17Z</time>
      </trkpt>
      <trkpt lat="49.17816" lon="2.01745">
        <ele>147.64</ele>
        <time>2018-07-01T09:07:34Z</time>
      </trkpt>
      <trkpt lat="49.1782" lon="2.01732">
        <ele>148.17</ele>
        <time>2018-07-01T09:07:42Z</time>
      </trkpt>
      <trkpt lat="49.17826" lon="2.01714">
        <ele>149.07</ele>
        <time>2018-07-01T09:08:00Z</time>
      </trkpt>
      <trkpt lat="49.1783" lon="2.0169">
        <ele>151.36</ele>
        <time>2018-07-01T09:08:20Z</time>
      </trkpt>
      <trkpt lat="49.17832" lon="2.01666">
        <ele>152.73</ele>
        <time>2018-07-01T09:08:37Z</time>
      </trkpt>
      <trkpt lat="49.17838" lon="2.01648">
        <ele>154.46</ele>
        <time>2018-07-01T09:08:56Z</time>
      </trkpt>
      <trkpt lat="49.17844" lon="2.01626">
        <ele>156.54</ele>
        <time>2018-07-01T09:09:19Z</time>
      </trkpt>
      <trkpt lat="49.17846" lon="2.01603">
        <ele>157.62</ele>
        <time>2018-07-01T09:09:40Z</time>
      </trkpt>
      <trkpt lat="49.17845" lon="2.01587">
        <ele>158.54</ele>
        <time>2018-07-01T09:09:52Z</time>
      </trkpt>
      <trkpt lat="49.1785" lon="2.01558">
        <ele>160.02</ele>
        <time>2018-07-01T09:10:09Z</time>
      </trkpt>
      <trkpt lat="49.17853" lon="2.01545">
        <ele>161.37</ele>
        <time>2018-07-01T09:10:27Z</time>
      </trkpt>
      <trkpt lat="49.17853" lon="2.01542">
        <ele>161.07</ele>
        <time>2018-07-01T09:10:45Z</time>
      </trkpt>
      <trkpt lat="49.17856" lon="2.01543">
        <ele>160.93</ele>
        <time>2018-07-01T09:11:12Z</time>
      </trkpt>
      <trkpt lat="49.17861" lon="2.01542">
        <ele>161.02</ele>
        <time>2018-07-01T09:11:40Z</time>
      </trkpt>
      <trkpt lat="49.17861" lon="2.01539">
        <ele>161.92</ele>
        <time>2018-07-01T09:11:59Z</time>
      </trkpt>
      <trkpt lat="49.17857" lon="2.01538">
        <ele>161.88</ele>
        <time>2018-07-01T09:12:20Z</time>
      </trkpt>
      <trkpt lat="49.17854" lon="2.01536">
        <ele>161.74</ele>
        <time>2018-07-01T09:12:47Z</time>
      </trkpt>
      <trkpt lat="49.17856" lon="2.01533">
        <ele>162.58</ele>
        <time>2018-07-01T09:13:10Z</time>
      </trkpt>
      <trkpt lat="49.17855" lon="2.01535">
        <ele>163.02</ele>
        <time>2018-07-01T09:13:34Z</time>
      </trkpt>
      <trkpt lat="49.17858" lon="2.01533">
        <ele>163.28</ele>
        <time>2018-07-01T09:13:53Z</time>
      </trkpt>
      <trkpt lat="49.1786" lon="2.01531">
        <ele>163.65</ele>
        <time>2018-07-01T09:14:19Z</time>
      </trkpt>
      <trkpt lat="49.1786" lon="2.01527">
        <ele>163.54</ele>
        <time>2018-07-01T09:14:32Z</time>
      </trkpt>
      <trkpt lat="49.17868" lon="2.01514">
        <ele>165.02</ele>
        <time>2018-07-01T09:14:50Z</time>
      </trkpt>
      <trkpt lat="49.1787" lon="2.0151">
        <ele>165.37</ele>
        <time>2018-07-01T09:14:53Z</time>
      </trkpt>
      <trkpt lat="49.17878" lon="2.01491">
        <ele>165.85</ele>
        <time>2018-07-01T09:15:11Z</time>
      </trkpt>
      <trkpt lat="49.1788" lon="2.01489">
        <ele>165.57</ele>
        <time>2018-07-01T09:15:13Z</time>
      </trkpt>
      <trkpt lat="49.17888" lon="2.01474">
        <ele>166.47</ele>
        <time>2018-07-01T09:15:29Z</time>
      </trkpt>
      <trkpt lat="49.17897" lon="2.01462">
        <ele>166.99</ele>
        <time>2018-07-01T09:15:44Z</time>
      </trkpt>
      <trkpt lat="49.17912" lon="2.01453">
        <ele>167.94</ele>
        <time>2018-07-01T09:16:01Z</time>
      </trkpt>
      <trkpt lat="49.1792" lon="2.01472">
        <ele>167.6</ele>
        <time>2018-07-01T09:16:22Z</time>
      </trkpt>
      <trkpt lat="49.17927" lon="2.01504">
        <ele>168.62</ele>
        <time>2018-07-01T09:16:45Z</time>
      </trkpt>
      <trkpt lat="49.1794" lon="2.01531">
        <ele>168.83</ele>
        <time>2018-07-01T09:17:07Z</time>
      </trkpt>
      <trkpt lat="49.17952" lon="2.01539">
        <ele>168.45</ele>
        <time>2018-07-01T09:17:19Z</time>
      </trkpt>
      <trkpt lat="49.17966" lon="2.01548">
        <ele>168.05</ele>
        <time>2018-07-01T09:17:37Z</time>
      </trkpt>
      <trkpt lat="49.17979" lon="2.0156">
        <ele>167.67</ele>
        <time>2018-07-01T09:17:57Z</time>
      </trkpt>
      <trkpt lat="49.17992" lon="2.01571">
        <ele>167.56</ele>
        <time>2018-07-01T09:18:12Z</time>
      </trkpt>
      <trkpt lat="49.1801" lon="2.01581">
        <ele>167.52</ele>
        <time>2018-07-01T09:18:28Z</time>
      </trkpt>
      <trkpt lat="49.18025" lon="2.016">
        <ele>167.77</ele>
        <time>2018-07-01T09:18:49Z</time>
      </trkpt>
      <trkpt lat="49.18043" lon="2.01617">
        <ele>167.89</ele>
        <time>2018-07-01T09:19:09Z</time>
      </trkpt>
      <trkpt lat="49.18067" lon="2.0163">
        <ele>167.21</ele>
        <time>2018-07-01T09:19:30Z</time>
      </trkpt>
      <trkpt lat="49.18079" lon="2.01642">
        <ele>167.51</ele>
        <time>2018-07-01T09:19:42Z</time>
      </trkpt>
      <trkpt lat="49.18095" lon="2.01658">
        <ele>166.88</ele>
        <time>2018-07-01T09:19:56Z</time>
      </trkpt>
      <trkpt lat="49.18106" lon="2.01675">
        <ele>166.48</ele>
        <time>2018-07-01T09:20:11Z</time>
      </trkpt>
      <trkpt lat="49.18117" lon="2.0169">
        <ele>167.05</ele>
        <time>2018-07-01T09:20:26Z</time>
      </trkpt>
      <trkpt lat="49.18132" lon="2.01707">
        <ele>166.96</ele>
        <time>2018-07-01T09:20:44Z</time>
      </trkpt>
      <trkpt lat="49.18144" lon="2.01723">
        <ele>166.29</ele>
        <time>2018-07-01T09:21:01Z</time>
      </trkpt>
      <trkpt lat="49.18157" lon="2.01754">
        <ele>166.35</ele>
        <time>2018-07-01T09:21:21Z</time>
      </trkpt>
      <trkpt lat="49.18172" lon="2.01775">
        <ele>166.5</ele>
        <time>2018-07-01T09:21:42Z</time>
      </trkpt>
      <trkpt lat="49.18176" lon="2.01789">
        <ele>166.85</ele>
        <time>2018-07-01T09:21:50Z</time>
      </trkpt>
      <trkpt lat="49.18183" lon="2.018">
        <ele>166.41</ele>
        <time>2018-07-01T09:21:58Z</time>
      </trkpt>
      <trkpt lat="49.18191" lon="2.01819">
        <ele>166.5</ele>
        <time>2018-07-01T09:22:08Z</time>
      </trkpt>
      <trkpt lat="49.18201" lon="2.01833">
        <ele>166.04</ele>
        <time>2018-07-01T09:22:23Z</time>
      </trkpt>
      <trkpt lat="49.18205" lon="2.01839">
        <ele>166.13</ele>
        <time>2018-07-01T09:22:29Z</time>
      </trkpt>
      <trkpt lat="49.18221" lon="2.01862">
        <ele>165.71</ele>
        <time>2018-07-01T09:22:49Z</time>
      </trkpt>
      <trkpt lat="49.18231" lon="2.01881">
        <ele>165.42</ele>
        <time>2018-07-01T09:23:02Z</time>
      </trkpt>
      <trkpt lat="49.18241" lon="2.01904">
        <ele>165.96</ele>
        <time>2018-07-01T09:23:21Z</time>
      </trkpt>
      <trkpt lat="49.18252" lon="2.01932">
        <ele>165.86</ele>
        <time>2018-07-01T09:23:42Z</time>
      </trkpt>
      <trkpt lat="49.18253" lon="2.01934">
        <ele>165.7</ele>
        <time>2018-07-01T09:23:44Z</time>
      </trkpt>
      <trkpt lat="49.1827" lon="2.01961">
        <ele>165.57</ele>
        <time>2018-07-01T09:24:03Z</time>
      </trkpt>
      <trkpt lat="49.18285" lon="2.01979">
        <ele>165.25</ele>
        <time>2018-07-01T09:24:23Z</time>
      </trkpt>
      <trkpt lat="49.18297" lon="2.02002">
        <ele>165.2</ele>
        <time>2018-07-01T09:24:43Z</time>
      </trkpt>
      <trkpt lat="49.1831" lon="2.02021">
        <ele>164.97</ele>
        <time>2018-07-01T09:24:58Z</time>
      </trkpt>
      <trkpt lat="49.18328" lon="2.02047">
        <ele>164.73</ele>
        <time>2018-07-01T09:25:19Z</time>
      </trkpt>
      <trkpt lat="49.18339" lon="2.02075">
        <ele>163.66</ele>
        <time>2018-07-01T09:25:38Z</time>
      </trkpt>
      <trkpt lat="49.18351" lon="2.021">
        <ele>163.83</ele>
        <time>2018-07-01T09:25:58Z</time>
      </trkpt>
      <trkpt lat="49.18367" lon="2.02131">
        <ele>163.13</ele>
        <time>2018-07-01T09:26:17Z</time>
      </trkpt>
      <trkpt lat="49.18388" lon="2.0215">
        <ele>162.81</ele>
        <time>2018-07-01T09:26:39Z</time>
      </trkpt>
      <trkpt lat="49.18412" lon="2.02163">
        <ele>162.05</ele>
        <time>2018-07-01T09:26:58Z</time>
      </trkpt>
      <trkpt lat="49.18431" lon="2.0217">
        <ele>161.89</ele>
        <time>2018-07-01T09:27:17Z</time>
      </trkpt>
      <trkpt lat="49.18449" lon="2.02173">
        <ele>161.84</ele>
        <time>2018-07-01T09:27:37Z</time>
      </trkpt>
      <trkpt lat="49.1846" lon="2.02178">
        <ele>160.9</ele>
        <time>2018-07-01T09:28:02Z</time>
      </trkpt>
      <trkpt lat="49.18495" lon="2.02186">
        <ele>160.92</ele>
        <time>2018-07-01T09:28:19Z</time>
      </trkpt>
      <trkpt lat="49.18515" lon="2.02185">
        <ele>161.09</ele>
        <time>2018-07-01T09:28:43Z</time>
      </trkpt>
      <trkpt lat="49.18536" lon="2.02199">
        <ele>160.54</ele>
        <time>2018-07-01T09:29:06Z</time>
      </trkpt>
      <trkpt lat="49.18558" lon="2.02205">
        <ele>160.25</ele>
        <time>2018-07-01T09:29:26Z</time>
      </trkpt>
      <trkpt lat="49.18566" lon="2.02207">
        <ele>160.65</ele>
        <time>2018-07-01T09:29:33Z</time>
      </trkpt>
      <trkpt lat="49.18598" lon="2.0222">
        <ele>159.97</ele>
        <time>2018-07-01T09:29:49Z</time>
      </trkpt>
      <trkpt lat="49.18615" lon="2.02225">
        <ele>160.39</ele>
        <time>2018-07-01T09:30:05Z</time>
      </trkpt>
      <trkpt lat="49.18629" lon="2.02229">
        <ele>159.53</ele>
        <time>2018-07-01T09:30:24Z</time>
      </trkpt>
      <trkpt lat="49.18653" lon="2.02228">
        <ele>159.55</ele>
        <time>2018-07-01T09:30:47Z</time>
      </trkpt>
      <trkpt lat="49.1867" lon="2.0223">
        <ele>159.53</ele>
        <time>2018-07-01T09:31:05Z</time>
      </trkpt>
      <trkpt lat="49.18677" lon="2.02229">
        <ele>159.54</ele>
        <time>2018-07-01T09:31:14Z</time>
      </trkpt>
      <trkpt lat="49.18696" lon="2.02234">
        <ele>159.56</ele>
        <time>2018-07-01T09:31:35Z</time>
      </trkpt>
      <trkpt lat="49.18713" lon="2.02241">
        <ele>158.72</ele>
        <time>2018-07-01T09:31:50Z</time>
      </trkpt>
      <trkpt lat="49.18736" lon="2.02247">
        <ele>158.92</ele>
        <time>2018-07-01T09:32:08Z</time>
      </trkpt>
      <trkpt lat="49.18753" lon="2.02246">
        <ele>159.13</ele>
        <time>2018-07-01T09:32:27Z</time>
      </trkpt>
      <trkpt lat="49.18758" lon="2.02243">
        <ele>158.41</ele>
        <time>2018-07-01T09:32:32Z</time>
      </trkpt>
      <trkpt lat="49.18781" lon="2.02241">
        <ele>158.66</ele>
        <time>2018-07-01T09:32:49Z</time>
      </trkpt>
      <trkpt lat="49.18802" lon="2.02237">
        <ele>159.01</ele>
        <time>2018-07-01T09:33:00Z</time>
      </trkpt>
      <trkpt lat="49.18817" lon="2.02234">
        <ele>159.45</ele>
        <time>2018-07-01T09:33:07Z</time>
      </trkpt>
      <trkpt lat="49.18828" lon="2.02225">
        <ele>159.74</ele>
        <time>2018-07-01T09:33:21Z</time>
      </trkpt>
      <trkpt lat="49.1884" lon="2.02214">
        <ele>160.15</ele>
        <time>2018-07-01T09:33:40Z</time>
      </trkpt>
      <trkpt lat="49.1886" lon="2.022">
        <ele>159.33</ele>
        <time>2018-07-01T09:33:54Z</time>
      </trkpt>
      <trkpt lat="49.18874" lon="2.02185">
        <ele>159.9</ele>
        <time>2018-07-01T09:34:11Z</time>
      </trkpt>
      <trkpt lat="49.18898" lon="2.0217">
        <ele>160.94</ele>
        <time>2018-07-01T09:34:33Z</time>
      </trkpt>
      <trkpt lat="49.18914" lon="2.02154">
        <ele>162.27</ele>
        <time>2018-07-01T09:34:49Z</time>
      </trkpt>
      <trkpt lat="49.18926" lon="2.02141">
        <ele>163.04</ele>
        <time>2018-07-01T09:35:06Z</time>
      </trkpt>
      <trkpt lat="49.18937" lon="2.02135">
        <ele>162.49</ele>
        <time>2018-07-01T09:35:24Z</time>
      </trkpt>
      <trkpt lat="49.18953" lon="2.02123">
        <ele>162.75</ele>
        <time>2018-07-01T09:35:45Z</time>
      </trkpt>
      <trkpt lat="49.18959" lon="2.0212">
        <ele>162.39</ele>
        <time>2018-07-01T09:35:49Z</time>
      </trkpt>
      <trkpt lat="49.18973" lon="2.02098">
        <ele>162.4</ele>
        <time>2018-07-01T09:36:05Z</time>
      </trkpt>
      <trkpt lat="49.1898" lon="2.02085">
        <ele>162.4</ele>
        <time>2018-07-01T09:36:15Z</time>
      </trkpt>
      <trkpt lat="49.18989" lon="2.02064">
        <ele>162.81</ele>
        <time>2018-07-01T09:36:31Z</time>
      </trkpt>
      <trkpt lat="49.18998" lon="2.02045">
        <ele>163.35</ele>
        <time>2018-07-01T09:36:47Z</time>
      </trkpt>
      <trkpt lat="49.1901" lon="2.02023">
        <ele>163.29</ele>
        <time>2018-07-01T09:37:07Z</time>
      </trkpt>
      <trkpt lat="49.19023" lon="2.01999">
        <ele>163.59</ele>
        <time>2018-07-01T09:37:27Z</time>
      </trkpt>
      <trkpt lat="49.1903" lon="2.01982">
        <ele>164.37</ele>
        <time>2018-07-01T09:37:37Z</time>
      </trkpt>
      <trkpt lat="49.19036" lon="2.01969">
        <ele>164.34</ele>
        <time>2018-07-01T09:37:50Z</time>
      </trkpt>
      <trkpt lat="49.19047" lon="2.01943">
        <ele>164.7</ele>
        <time>2018-07-01T09:38:09Z</time>
      </trkpt>
      <trkpt lat="49.19056" lon="2.01908">
        <ele>164.98</ele>
        <time>2018-07-01T09:38:31Z</time>
      </trkpt>
      <trkpt lat="49.19064" lon="2.01878">
        <ele>163.77</ele>
        <time>2018-07-01T09:38:53Z</time>
      </trkpt>
      <trkpt lat="49.1908" lon="2.01832">
        <ele>164.02</ele>
        <time>2018-07-01T09:39:15Z</time>
      </trkpt>
      <trkpt lat="49.19084" lon="2.01793">
        <ele>164.22</ele>
        <time>2018-07-01T09:39:37Z</time>
      </trkpt>
      <trkpt lat="49.19093" lon="2.0176">
        <ele>163.92</ele>
        <time>2018-07-01T09:39:56Z</time>
      </trkpt>
      <trkpt lat="49.19105" lon="2.01722">
        <ele>163.71</ele>
        <time>2018-07-01T09:40:20Z</time>
      </trkpt>
      <trkpt lat="49.19113" lon="2.01683">
        <ele>163.58</ele>
        <time>2018-07-01T09:40:42Z</time>
      </trkpt>
      <trkpt lat="49.19119" lon="2.01651">
        <ele>163.74</ele>
        <time>2018-07-01T09:41:01Z</time>
      </trkpt>
      <trkpt lat="49.19115" lon="2.01633">
        <ele>163.74</ele>
        <time>2018-07-01T09:41:14Z</time>
      </trkpt>
      <trkpt lat="49.19108" lon="2.01635">
        <ele>163.97</ele>
        <time>2018-07-01T09:41:30Z</time>
      </trkpt>
      <trkpt lat="49.19105" lon="2.01637">
        <ele>164.35</ele>
        <time>2018-07-01T09:41:33Z</time>
      </trkpt>
      <trkpt lat="49.19102" lon="2.01638">
        <ele>163.97</ele>
        <time>2018-07-01T09:41:38Z</time>
      </trkpt>
      <trkpt lat="49.19093" lon="2.0164">
        <ele>164.22</ele>
        <time>2018-07-01T09:42:00Z</time>
      </trkpt>
      <trkpt lat="49.19103" lon="2.01621">
        <ele>164.91</ele>
        <time>2018-07-01T09:42:20Z</time>
      </trkpt>
      <trkpt lat="49.19104" lon="2.01618">
        <ele>165.13</ele>
        <time>2018-07-01T09:42:23Z</time>
      </trkpt>
      <trkpt lat="49.19112" lon="2.01608">
        <ele>165.23</ele>
        <time>2018-07-01T09:42:48Z</time>
      </trkpt>
      <trkpt lat="49.19113" lon="2.01606">
        <ele>165.13</ele>
        <time>2018-07-01T09:42:50Z</time>
      </trkpt>
      <trkpt lat="49.1912" lon="2.01587">
        <ele>165.37</ele>
        <time>2018-07-01T09:43:09Z</time>
      </trkpt>
      <trkpt lat="49.19124" lon="2.01572">
        <ele>165.34</ele>
        <time>2018-07-01T09:43:30Z</time>
      </trkpt>
      <trkpt lat="49.19121" lon="2.0155">
        <ele>165.37</ele>
        <time>2018-07-01T09:43:49Z</time>
      </trkpt>
      <trkpt lat="49.19124" lon="2.01525">
        <ele>166.04</ele>
        <time>2018-07-01T09:44:11Z</time>
      </trkpt>
      <trkpt lat="49.19125" lon="2.015">
        <ele>166.86</ele>
        <time>2018-07-01T09:44:30Z</time>
      </trkpt>
      <trkpt lat="49.19127" lon="2.01469">
        <ele>167.16</ele>
        <time>2018-07-01T09:44:49Z</time>
      </trkpt>
      <trkpt lat="49.19131" lon="2.01445">
        <ele>168.39</ele>
        <time>2018-07-01T09:45:08Z</time>
      </trkpt>
      <trkpt lat="49.1914" lon="2.01412">
        <ele>169.22</ele>
        <time>2018-07-01T09:45:31Z</time>
      </trkpt>
      <trkpt lat="49.19144" lon="2.0138">
        <ele>169.82</ele>
        <time>2018-07-01T09:45:48Z</time>
      </trkpt>
      <trkpt lat="49.19145" lon="2.01366">
        <ele>170.3</ele>
        <time>2018-07-01T09:45:57Z</time>
      </trkpt>
      <trkpt lat="49.19146" lon="2.01362">
        <ele>170.6</ele>
        <time>2018-07-01T09:46:00Z</time>
      </trkpt>
      <trkpt lat="49.19153" lon="2.01346">
        <ele>170.88</ele>
        <time>2018-07-01T09:46:10Z</time>
      </trkpt>
      <trkpt lat="49.19155" lon="2.01336">
        <ele>170.68</ele>
        <time>2018-07-01T09:46:17Z</time>
      </trkpt>
      <trkpt lat="49.19157" lon="2.01313">
        <ele>171.13</ele>
        <time>2018-07-01T09:46:32Z</time>
      </trkpt>
      <trkpt lat="49.19164" lon="2.01288">
        <ele>171.82</ele>
        <time>2018-07-01T09:46:50Z</time>
      </trkpt>
      <trkpt lat="49.19173" lon="2.01265">
        <ele>171.37</ele>
        <time>2018-07-01T09:47:02Z</time>
      </trkpt>
      <trkpt lat="49.19175" lon="2.01258">
        <ele>172.08</ele>
        <time>2018-07-01T09:47:05Z</time>
      </trkpt>
      <trkpt lat="49.19177" lon="2.01232">
        <ele>171.72</ele>
        <time>2018-07-01T09:47:19Z</time>
      </trkpt>
      <trkpt lat="49.19181" lon="2.01212">
        <ele>172.29</ele>
        <time>2018-07-01T09:47:36Z</time>
      </trkpt>
      <trkpt lat="49.1919" lon="2.01187">
        <ele>172.59</ele>
        <time>2018-07-01T09:47:55Z</time>
      </trkpt>
      <trkpt lat="49.19197" lon="2.01161">
        <ele>172.83</ele>
        <time>2018-07-01T09:48:14Z</time>
      </trkpt>
      <trkpt lat="49.19197" lon="2.0116">
        <ele>172.99</ele>
        <time>2018-07-01T09:48:15Z</time>
      </trkpt>
      <trkpt lat="49.19198" lon="2.01137">
        <ele>173.3</ele>
        <time>2018-07-01T09:48:33Z</time>
      </trkpt>
      <trkpt lat="49.19204" lon="2.01121">
        <ele>173.05</ele>
        <time>2018-07-01T09:48:51Z</time>
      </trkpt>
      <trkpt lat="49.19215" lon="2.01095">
        <ele>172.38</ele>
        <time>2018-07-01T09:49:09Z</time>
      </trkpt>
      <trkpt lat="49.19219" lon="2.01077">
        <ele>172.75</ele>
        <time>2018-07-01T09:49:24Z</time>
      </trkpt>
      <trkpt lat="49.19222" lon="2.01072">
        <ele>172.54</ele>
        <time>2018-07-01T09:49:32Z</time>
      </trkpt>
      <trkpt lat="49.19225" lon="2.01064">
        <ele>172.25</ele>
        <time>2018-07-01T09:49:40Z</time>
      </trkpt>
      <trkpt lat="49.19244" lon="2.01036">
        <ele>171.79</ele>
        <time>2018-07-01T09:50:01Z</time>
      </trkpt>
      <trkpt lat="49.19246" lon="2.01029">
        <ele>171.56</ele>
        <time>2018-07-01T09:50:05Z</time>
      </trkpt>
      <trkpt lat="49.19248" lon="2.01021">
        <ele>171.39</ele>
        <time>2018-07-01T09:50:11Z</time>
      </trkpt>
      <trkpt lat="49.19257" lon="2.01003">
        <ele>171.19</ele>
        <time>2018-07-01T09:50:24Z</time>
      </trkpt>
      <trkpt lat="49.19266" lon="2.00986">
        <ele>170.58</ele>
        <time>2018-07-01T09:50:35Z</time>
      </trkpt>
      <trkpt lat="49.19279" lon="2.0097">
        <ele>170.61</ele>
        <time>2018-07-01T09:50:46Z</time>
      </trkpt>
      <trkpt lat="49.1928" lon="2.00966">
        <ele>170.57</ele>
        <time>2018-07-01T09:50:49Z</time>
      </trkpt>
      <trkpt lat="49.19296" lon="2.00941">
        <ele>170.26</ele>
        <time>2018-07-01T09:51:01Z</time>
      </trkpt>
      <trkpt lat="49.19299" lon="2.00932">
        <ele>169.65</ele>
        <time>2018-07-01T09:51:07Z</time>
      </trkpt>
      <trkpt lat="49.19323" lon="2.00912">
        <ele>168.27</ele>
        <time>2018-07-01T09:51:27Z</time>
      </trkpt>
      <trkpt lat="49.1934" lon="2.0089">
        <ele>166.55</ele>
        <time>2018-07-01T09:51:46Z</time>
      </trkpt>
      <trkpt lat="49.19352" lon="2.00862">
        <ele>165.61</ele>
        <time>2018-07-01T09:52:06Z</time>
      </trkpt>
      <trkpt lat="49.19365" lon="2.00832">
        <ele>165.61</ele>
        <time>2018-07-01T09:52:30Z</time>
      </trkpt>
      <trkpt lat="49.19368" lon="2.00825">
        <ele>165.45</ele>
        <time>2018-07-01T09:52:50Z</time>
      </trkpt>
      <trkpt lat="49.19372" lon="2.00811">
        <ele>165.62</ele>
        <time>2018-07-01T09:53:12Z</time>
      </trkpt>
      <trkpt lat="49.19381" lon="2.0081">
        <ele>165.06</ele>
        <time>2018-07-01T09:53:33Z</time>
      </trkpt>
      <trkpt lat="49.19386" lon="2.00801">
        <ele>165.04</ele>
        <time>2018-07-01T09:53:53Z</time>
      </trkpt>
      <trkpt lat="49.19397" lon="2.00788">
        <ele>164.63</ele>
        <time>2018-07-01T09:54:11Z</time>
      </trkpt>
      <trkpt lat="49.19399" lon="2.00786">
        <ele>164.65</ele>
        <time>2018-07-01T09:54:12Z</time>
      </trkpt>
      <trkpt lat="49.19417" lon="2.00761">
        <ele>164.08</ele>
        <time>2018-07-01T09:54:31Z</time>
      </trkpt>
      <trkpt lat="49.19425" lon="2.00741">
        <ele>163.82</ele>
        <time>2018-07-01T09:54:50Z</time>
      </trkpt>
      <trkpt lat="49.19429" lon="2.00718">
        <ele>164.02</ele>
        <time>2018-07-01T09:55:11Z</time>
      </trkpt>
      <trkpt lat="49.19433" lon="2.00699">
        <ele>164.1</ele>
        <time>2018-07-01T09:55:25Z</time>
      </trkpt>
      <trkpt lat="49.19438" lon="2.00666">
        <ele>164.92</ele>
        <time>2018-07-01T09:55:41Z</time>
      </trkpt>
      <trkpt lat="49.19445" lon="2.00636">
        <ele>165.54</ele>
        <time>2018-07-01T09:56:02Z</time>
      </trkpt>
      <trkpt lat="49.19452" lon="2.00612">
        <ele>166.6</ele>
        <time>2018-07-01T09:56:21Z</time>
      </trkpt>
      <trkpt lat="49.19465" lon="2.00585">
        <ele>167.67</ele>
        <time>2018-07-01T09:56:39Z</time>
      </trkpt>
      <trkpt lat="49.19476" lon="2.00557">
        <ele>168.01</ele>
        <time>2018-07-01T09:56:58Z</time>
      </trkpt>
      <trkpt lat="49.19486" lon="2.00534">
        <ele>170.24</ele>
        <time>2018-07-01T09:57:17Z</time>
      </trkpt>
      <trkpt lat="49.195" lon="2.00504">
        <ele>171.93</ele>
        <time>2018-07-01T09:57:40Z</time>
      </trkpt>
      <trkpt lat="49.19503" lon="2.00492">
        <ele>172.89</ele>
        <time>2018-07-01T09:57:50Z</time>
      </trkpt>
      <trkpt lat="49.19503" lon="2.00487">
        <ele>172.99</ele>
        <time>2018-07-01T09:57:54Z</time>
      </trkpt>
      <trkpt lat="49.19506" lon="2.00482">
        <ele>173.19</ele>
        <time>2018-07-01T09:58:19Z</time>
      </trkpt>
      <trkpt lat="49.19504" lon="2.00485">
        <ele>172.65</ele>
        <time>2018-07-01T09:58:47Z</time>
      </trkpt>
      <trkpt lat="49.19501" lon="2.00481">
        <ele>172.92</ele>
        <time>2018-07-01T09:58:51Z</time>
      </trkpt>
      <trkpt lat="49.19505" lon="2.00483">
        <ele>173.18</ele>
        <time>2018-07-01T09:58:58Z</time>
      </trkpt>
      <trkpt lat="49.19512" lon="2.0047">
        <ele>173.8</ele>
        <time>2018-07-01T09:59:19Z</time>
      </trkpt>
      <trkpt lat="49.19514" lon="2.00459">
        <ele>174.06</ele>
        <time>2018-07-01T09:59:37Z</time>
      </trkpt>
      <trkpt lat="49.19513" lon="2.00455">
        <ele>173.88</ele>
        <time>2018-07-01T09:59:42Z</time>
      </trkpt>
      <trkpt lat="49.19508" lon="2.00457">
        <ele>173.89</ele>
        <time>2018-07-01T10:00:03Z</time>
      </trkpt>
      <trkpt lat="49.19506" lon="2.00445">
        <ele>174.48</ele>
        <time>2018-07-01T10:00:24Z</time>
      </trkpt>
      <trkpt lat="49.19503" lon="2.00424">
        <ele>174.04</ele>
        <time>2018-07-01T10:00:43Z</time>
      </trkpt>
      <trkpt lat="49.19504" lon="2.00416">
        <ele>173.72</ele>
        <time>2018-07-01T10:00:49Z</time>
      </trkpt>
      <trkpt lat="49.19502" lon="2.00403">
        <ele>173.31</ele>
        <time>2018-07-01T10:01:03Z</time>
      </trkpt>
      <trkpt lat="49.195" lon="2.00381">
        <ele>172.82</ele>
        <time>2018-07-01T10:01:19Z</time>
      </trkpt>
      <trkpt lat="49.19497" lon="2.00347">
        <ele>173.87</ele>
        <time>2018-07-01T10:01:39Z</time>
      </trkpt>
      <trkpt lat="49.19492" lon="2.00318">
        <ele>175.1</ele>
        <time>2018-07-01T10:01:58Z</time>
      </trkpt>
      <trkpt lat="49.19477" lon="2.00287">
        <ele>176.09</ele>
        <time>2018-07-01T10:02:21Z</time>
      </trkpt>
      <trkpt lat="49.19466" lon="2.00273">
        <ele>175.52</ele>
        <time>2018-07-01T10:02:37Z</time>
      </trkpt>
      <trkpt lat="49.19458" lon="2.00251">
        <ele>175.95</ele>
        <time>2018-07-01T10:02:57Z</time>
      </trkpt>
      <trkpt lat="49.19444" lon="2.00232">
        <ele>175.16</ele>
        <time>2018-07-01T10:03:17Z</time>
      </trkpt>
      <trkpt lat="49.19444" lon="2.00229">
        <ele>174.98</ele>
        <time>2018-07-01T10:03:18Z</time>
      </trkpt>
      <trkpt lat="49.19433" lon="2.00201">
        <ele>173.38</ele>
        <time>2018-07-01T10:03:38Z</time>
      </trkpt>
      <trkpt lat="49.19421" lon="2.00178">
        <ele>171.65</ele>
        <time>2018-07-01T10:03:57Z</time>
      </trkpt>
      <trkpt lat="49.1941" lon="2.00155">
        <ele>171.19</ele>
        <time>2018-07-01T10:04:17Z</time>
      </trkpt>
      <trkpt lat="49.19393" lon="2.00139">
        <ele>169.8</ele>
        <time>2018-07-01T10:04:38Z</time>
      </trkpt>
      <trkpt lat="49.19386" lon="2.0013">
        <ele>168.47</ele>
        <time>2018-07-01T10:04:46Z</time>
      </trkpt>
      <trkpt lat="49.19372" lon="2.00112">
        <ele>167.35</ele>
        <time>2018-07-01T10:05:05Z</time>
      </trkpt>
      <trkpt lat="49.1937" lon="2.00107">
        <ele>165.68</ele>
        <time>2018-07-01T10:05:09Z</time>
      </trkpt>
      <trkpt lat="49.19341" lon="2.00114">
        <ele>164.06</ele>
        <time>2018-07-01T10:05:14Z</time>
      </trkpt>
      <trkpt lat="49.19297" lon="2.00085">
        <ele>162.87</ele>
        <time>2018-07-01T10:05:35Z</time>
      </trkpt>
      <trkpt lat="49.19292" lon="2.0008">
        <ele>162.79</ele>
        <time>2018-07-01T10:05:41Z</time>
      </trkpt>
      <trkpt lat="49.19284" lon="2.00077">
        <ele>162.88</ele>
        <time>2018-07-01T10:06:09Z</time>
      </trkpt>
      <trkpt lat="49.19282" lon="2.00073">
        <ele>162.79</ele>
        <time>2018-07-01T10:06:37Z</time>
      </trkpt>
      <trkpt lat="49.19293" lon="2.00057">
        <ele>159.66</ele>
        <time>2018-07-01T10:06:56Z</time>
      </trkpt>
      <trkpt lat="49.19293" lon="2.00056">
        <ele>159.48</ele>
        <time>2018-07-01T10:06:57Z</time>
      </trkpt>
      <trkpt lat="49.19299" lon="2.00042">
        <ele>158.86</ele>
        <time>2018-07-01T10:07:06Z</time>
      </trkpt>
      <trkpt lat="49.19312" lon="2.00012">
        <ele>155.57</ele>
        <time>2018-07-01T10:07:29Z</time>
      </trkpt>
      <trkpt lat="49.19316" lon="1.99979">
        <ele>153.77</ele>
        <time>2018-07-01T10:07:49Z</time>
      </trkpt>
      <trkpt lat="49.19322" lon="1.99948">
        <ele>153.1</ele>
        <time>2018-07-01T10:08:09Z</time>
      </trkpt>
      <trkpt lat="49.19329" lon="1.99925">
        <ele>151.29</ele>
        <time>2018-07-01T10:08:29Z</time>
      </trkpt>
      <trkpt lat="49.19331" lon="1.99908">
        <ele>150.92</ele>
        <time>2018-07-01T10:08:40Z</time>
      </trkpt>
      <trkpt lat="49.19338" lon="1.99891">
        <ele>150.71</ele>
        <time>2018-07-01T10:08:54Z</time>
      </trkpt>
      <trkpt lat="49.1935" lon="1.99871">
        <ele>148.94</ele>
        <time>2018-07-01T10:09:14Z</time>
      </trkpt>
      <trkpt lat="49.19362" lon="1.99848">
        <ele>147.85</ele>
        <time>2018-07-01T10:09:35Z</time>
      </trkpt>
      <trkpt lat="49.19361" lon="1.99826">
        <ele>146.27</ele>
        <time>2018-07-01T10:09:59Z</time>
      </trkpt>
      <trkpt lat="49.19361" lon="1.99825">
        <ele>146.49</ele>
        <time>2018-07-01T10:10:02Z</time>
      </trkpt>
      <trkpt lat="49.19358" lon="1.99821">
        <ele>146.67</ele>
        <time>2018-07-01T10:10:10Z</time>
      </trkpt>
      <trkpt lat="49.19354" lon="1.99822">
        <ele>146.72</ele>
        <time>2018-07-01T10:10:17Z</time>
      </trkpt>
      <trkpt lat="49.19356" lon="1.99814">
        <ele>145.94</ele>
        <time>2018-07-01T10:10:24Z</time>
      </trkpt>
      <trkpt lat="49.19355" lon="1.99802">
        <ele>146.26</ele>
        <time>2018-07-01T10:10:37Z</time>
      </trkpt>
      <trkpt lat="49.19352" lon="1.99813">
        <ele>146.57</ele>
        <time>2018-07-01T10:11:03Z</time>
      </trkpt>
      <trkpt lat="49.19353" lon="1.99806">
        <ele>146.2</ele>
        <time>2018-07-01T10:11:21Z</time>
      </trkpt>
      <trkpt lat="49.19349" lon="1.99807">
        <ele>146.49</ele>
        <time>2018-07-01T10:11:24Z</time>
      </trkpt>
      <trkpt lat="49.19345" lon="1.99808">
        <ele>146.94</ele>
        <time>2018-07-01T10:11:44Z</time>
      </trkpt>
      <trkpt lat="49.19351" lon="1.99801">
        <ele>146.91</ele>
        <time>2018-07-01T10:12:05Z</time>
      </trkpt>
      <trkpt lat="49.1935" lon="1.99795">
        <ele>147.41</ele>
        <time>2018-07-01T10:12:18Z</time>
      </trkpt>
      <trkpt lat="49.19349" lon="1.99792">
        <ele>147.25</ele>
        <time>2018-07-01T10:12:43Z</time>
      </trkpt>
      <trkpt lat="49.19357" lon="1.99789">
        <ele>148.31</ele>
        <time>2018-07-01T10:13:19Z</time>
      </trkpt>
      <trkpt lat="49.19358" lon="1.99796">
        <ele>148.47</ele>
        <time>2018-07-01T10:13:43Z</time>
      </trkpt>
      <trkpt lat="49.19357" lon="1.99796">
        <ele>148.53</ele>
        <time>2018-07-01T10:13:46Z</time>
      </trkpt>
      <trkpt lat="49.19364" lon="1.99786">
        <ele>149.09</ele>
        <time>2018-07-01T10:14:12Z</time>
      </trkpt>
      <trkpt lat="49.19359" lon="1.99782">
        <ele>149.31</ele>
        <time>2018-07-01T10:14:24Z</time>
      </trkpt>
      <trkpt lat="49.19356" lon="1.99763">
        <ele>148.41</ele>
        <time>2018-07-01T10:14:43Z</time>
      </trkpt>
      <trkpt lat="49.19353" lon="1.9974">
        <ele>147.39</ele>
        <time>2018-07-01T10:15:01Z</time>
      </trkpt>
      <trkpt lat="49.19353" lon="1.99721">
        <ele>146.92</ele>
        <time>2018-07-01T10:15:20Z</time>
      </trkpt>
      <trkpt lat="49.19354" lon="1.99704">
        <ele>146.46</ele>
        <time>2018-07-01T10:15:33Z</time>
      </trkpt>
      <trkpt lat="49.19352" lon="1.99688">
        <ele>145.34</ele>
        <time>2018-07-01T10:15:45Z</time>
      </trkpt>
      <trkpt lat="49.19353" lon="1.99658">
        <ele>144.43</ele>
        <time>2018-07-01T10:16:04Z</time>
      </trkpt>
      <trkpt lat="49.19352" lon="1.99646">
        <ele>144.14</ele>
        <time>2018-07-01T10:16:13Z</time>
      </trkpt>
      <trkpt lat="49.1935" lon="1.99617">
        <ele>142.58</ele>
        <time>2018-07-01T10:16:32Z</time>
      </trkpt>
      <trkpt lat="49.19355" lon="1.99596">
        <ele>141.71</ele>
        <time>2018-07-01T10:16:52Z</time>
      </trkpt>
      <trkpt lat="49.1936" lon="1.99575">
        <ele>139.85</ele>
        <time>2018-07-01T10:17:09Z</time>
      </trkpt>
      <trkpt lat="49.19374" lon="1.99545">
        <ele>139.01</ele>
        <time>2018-07-01T10:17:30Z</time>
      </trkpt>
      <trkpt lat="49.1938" lon="1.99515">
        <ele>137.78</ele>
        <time>2018-07-01T10:17:50Z</time>
      </trkpt>
      <trkpt lat="49.19382" lon="1.99496">
        <ele>137.38</ele>
        <time>2018-07-01T10:18:02Z</time>
      </trkpt>
      <trkpt lat="49.19386" lon="1.99489">
        <ele>137.46</ele>
        <time>2018-07-01T10:18:09Z</time>
      </trkpt>
      <trkpt lat="49.19388" lon="1.99486">
        <ele>136.96</ele>
        <time>2018-07-01T10:18:11Z</time>
      </trkpt>
      <trkpt lat="49.19388" lon="1.99482">
        <ele>137.2</ele>
        <time>2018-07-01T10:18:14Z</time>
      </trkpt>
      <trkpt lat="49.19389" lon="1.99459">
        <ele>136.47</ele>
        <time>2018-07-01T10:18:34Z</time>
      </trkpt>
      <trkpt lat="49.19395" lon="1.99426">
        <ele>135.8</ele>
        <time>2018-07-01T10:18:53Z</time>
      </trkpt>
      <trkpt lat="49.19395" lon="1.99413">
        <ele>135.83</ele>
        <time>2018-07-01T10:18:59Z</time>
      </trkpt>
      <trkpt lat="49.19391" lon="1.99377">
        <ele>134.91</ele>
        <time>2018-07-01T10:19:18Z</time>
      </trkpt>
      <trkpt lat="49.19391" lon="1.99348">
        <ele>134</ele>
        <time>2018-07-01T10:19:38Z</time>
      </trkpt>
      <trkpt lat="49.19383" lon="1.99319">
        <ele>133.79</ele>
        <time>2018-07-01T10:19:57Z</time>
      </trkpt>
      <trkpt lat="49.19381" lon="1.99287">
        <ele>132.57</ele>
        <time>2018-07-01T10:20:18Z</time>
      </trkpt>
      <trkpt lat="49.19378" lon="1.99278">
        <ele>132.15</ele>
        <time>2018-07-01T10:20:27Z</time>
      </trkpt>
      <trkpt lat="49.19377" lon="1.99277">
        <ele>131.95</ele>
        <time>2018-07-01T10:20:30Z</time>
      </trkpt>
      <trkpt lat="49.19377" lon="1.99272">
        <ele>131.56</ele>
        <time>2018-07-01T10:20:33Z</time>
      </trkpt>
      <trkpt lat="49.19376" lon="1.99265">
        <ele>131.25</ele>
        <time>2018-07-01T10:20:37Z</time>
      </trkpt>
      <trkpt lat="49.19372" lon="1.99246">
        <ele>130.56</ele>
        <time>2018-07-01T10:20:53Z</time>
      </trkpt>
      <trkpt lat="49.19368" lon="1.99229">
        <ele>129.87</ele>
        <time>2018-07-01T10:21:05Z</time>
      </trkpt>
      <trkpt lat="49.19367" lon="1.99221">
        <ele>129.91</ele>
        <time>2018-07-01T10:21:11Z</time>
      </trkpt>
      <trkpt lat="49.19366" lon="1.99217">
        <ele>129.3</ele>
        <time>2018-07-01T10:21:14Z</time>
      </trkpt>
      <trkpt lat="49.19365" lon="1.9921">
        <ele>129.35</ele>
        <time>2018-07-01T10:21:18Z</time>
      </trkpt>
      <trkpt lat="49.19361" lon="1.99201">
        <ele>129.1</ele>
        <time>2018-07-01T10:21:25Z</time>
      </trkpt>
      <trkpt lat="49.19357" lon="1.99195">
        <ele>129.44</ele>
        <time>2018-07-01T10:21:29Z</time>
      </trkpt>
      <trkpt lat="49.19357" lon="1.99188">
        <ele>128.55</ele>
        <time>2018-07-01T10:21:33Z</time>
      </trkpt>
      <trkpt lat="49.19353" lon="1.99174">
        <ele>128.67</ele>
        <time>2018-07-01T10:21:42Z</time>
      </trkpt>
      <trkpt lat="49.19344" lon="1.99142">
        <ele>128.47</ele>
        <time>2018-07-01T10:22:04Z</time>
      </trkpt>
      <trkpt lat="49.19337" lon="1.99119">
        <ele>128.56</ele>
        <time>2018-07-01T10:22:22Z</time>
      </trkpt>
      <trkpt lat="49.19338" lon="1.99128">
        <ele>127.64</ele>
        <time>2018-07-01T10:22:42Z</time>
      </trkpt>
      <trkpt lat="49.19339" lon="1.99127">
        <ele>128.62</ele>
        <time>2018-07-01T10:23:07Z</time>
      </trkpt>
      <trkpt lat="49.19336" lon="1.99123">
        <ele>128.76</ele>
        <time>2018-07-01T10:23:30Z</time>
      </trkpt>
      <trkpt lat="49.19337" lon="1.99122">
        <ele>128.05</ele>
        <time>2018-07-01T10:23:32Z</time>
      </trkpt>
      <trkpt lat="49.19343" lon="1.99121">
        <ele>128.72</ele>
        <time>2018-07-01T10:24:00Z</time>
      </trkpt>
      <trkpt lat="49.19333" lon="1.99119">
        <ele>128.95</ele>
        <time>2018-07-01T10:24:23Z</time>
      </trkpt>
      <trkpt lat="49.19319" lon="1.99119">
        <ele>129.04</ele>
        <time>2018-07-01T10:24:38Z</time>
      </trkpt>
      <trkpt lat="49.19297" lon="1.99121">
        <ele>127.67</ele>
        <time>2018-07-01T10:24:56Z</time>
      </trkpt>
      <trkpt lat="49.19278" lon="1.9912">
        <ele>125.68</ele>
        <time>2018-07-01T10:25:12Z</time>
      </trkpt>
      <trkpt lat="49.1925" lon="1.99115">
        <ele>124.38</ele>
        <time>2018-07-01T10:25:30Z</time>
      </trkpt>
      <trkpt lat="49.19241" lon="1.99115">
        <ele>123.79</ele>
        <time>2018-07-01T10:25:46Z</time>
      </trkpt>
      <trkpt lat="49.1924" lon="1.99115">
        <ele>123.86</ele>
        <time>2018-07-01T10:25:47Z</time>
      </trkpt>
      <trkpt lat="49.19235" lon="1.99113">
        <ele>123.11</ele>
        <time>2018-07-01T10:25:51Z</time>
      </trkpt>
      <trkpt lat="49.19219" lon="1.9911">
        <ele>122.66</ele>
        <time>2018-07-01T10:26:05Z</time>
      </trkpt>
      <trkpt lat="49.19214" lon="1.9911">
        <ele>122.33</ele>
        <time>2018-07-01T10:26:11Z</time>
      </trkpt>
      <trkpt lat="49.19199" lon="1.99103">
        <ele>121.89</ele>
        <time>2018-07-01T10:26:23Z</time>
      </trkpt>
      <trkpt lat="49.19198" lon="1.99102">
        <ele>121.53</ele>
        <time>2018-07-01T10:26:24Z</time>
      </trkpt>
      <trkpt lat="49.19192" lon="1.99099">
        <ele>121.43</ele>
        <time>2018-07-01T10:26:29Z</time>
      </trkpt>
      <trkpt lat="49.19175" lon="1.99088">
        <ele>120.89</ele>
        <time>2018-07-01T10:26:45Z</time>
      </trkpt>
      <trkpt lat="49.19154" lon="1.99075">
        <ele>121.49</ele>
        <time>2018-07-01T10:27:04Z</time>
      </trkpt>
      <trkpt lat="49.19125" lon="1.99055">
        <ele>121.91</ele>
        <time>2018-07-01T10:27:30Z</time>
      </trkpt>
      <trkpt lat="49.19114" lon="1.9904">
        <ele>122.6</ele>
        <time>2018-07-01T10:27:43Z</time>
      </trkpt>
      <trkpt lat="49.19108" lon="1.99031">
        <ele>123.64</ele>
        <time>2018-07-01T10:27:50Z</time>
      </trkpt>
      <trkpt lat="49.19081" lon="1.99006">
        <ele>124.87</ele>
        <time>2018-07-01T10:28:16Z</time>
      </trkpt>
      <trkpt lat="49.19047" lon="1.99013">
        <ele>125.72</ele>
        <time>2018-07-01T10:28:45Z</time>
      </trkpt>
      <trkpt lat="49.19036" lon="1.9902">
        <ele>125.4</ele>
        <time>2018-07-01T10:28:55Z</time>
      </trkpt>
      <trkpt lat="49.19013" lon="1.99037">
        <ele>125.05</ele>
        <time>2018-07-01T10:29:17Z</time>
      </trkpt>
      <trkpt lat="49.18996" lon="1.99051">
        <ele>125</ele>
        <time>2018-07-01T10:29:34Z</time>
      </trkpt>
      <trkpt lat="49.18978" lon="1.99065">
        <ele>125.91</ele>
        <time>2018-07-01T10:29:51Z</time>
      </trkpt>
      <trkpt lat="49.18973" lon="1.99071">
        <ele>125.61</ele>
        <time>2018-07-01T10:30:00Z</time>
      </trkpt>
      <trkpt lat="49.18962" lon="1.99085">
        <ele>125.55</ele>
        <time>2018-07-01T10:30:12Z</time>
      </trkpt>
      <trkpt lat="49.18956" lon="1.99092">
        <ele>125.1</ele>
        <time>2018-07-01T10:30:26Z</time>
      </trkpt>
      <trkpt lat="49.18954" lon="1.99095">
        <ele>124.81</ele>
        <time>2018-07-01T10:30:29Z</time>
      </trkpt>
      <trkpt lat="49.18941" lon="1.99109">
        <ele>125.52</ele>
        <time>2018-07-01T10:30:44Z</time>
      </trkpt>
      <trkpt lat="49.18937" lon="1.99113">
        <ele>124.99</ele>
        <time>2018-07-01T10:30:53Z</time>
      </trkpt>
      <trkpt lat="49.18927" lon="1.99133">
        <ele>125.47</ele>
        <time>2018-07-01T10:31:09Z</time>
      </trkpt>
      <trkpt lat="49.18922" lon="1.99145">
        <ele>125.23</ele>
        <time>2018-07-01T10:31:28Z</time>
      </trkpt>
      <trkpt lat="49.18918" lon="1.99154">
        <ele>125.59</ele>
        <time>2018-07-01T10:31:36Z</time>
      </trkpt>
      <trkpt lat="49.18917" lon="1.99168">
        <ele>125.09</ele>
        <time>2018-07-01T10:31:49Z</time>
      </trkpt>
      <trkpt lat="49.18917" lon="1.99176">
        <ele>125.13</ele>
        <time>2018-07-01T10:32:11Z</time>
      </trkpt>
      <trkpt lat="49.1891" lon="1.99178">
        <ele>125.41</ele>
        <time>2018-07-01T10:32:29Z</time>
      </trkpt>
      <trkpt lat="49.18912" lon="1.99177">
        <ele>125.47</ele>
        <time>2018-07-01T10:32:47Z</time>
      </trkpt>
      <trkpt lat="49.18913" lon="1.99175">
        <ele>125.46</ele>
        <time>2018-07-01T10:33:05Z</time>
      </trkpt>
      <trkpt lat="49.18914" lon="1.99178">
        <ele>125.4</ele>
        <time>2018-07-01T10:33:22Z</time>
      </trkpt>
      <trkpt lat="49.18909" lon="1.99191">
        <ele>125.48</ele>
        <time>2018-07-01T10:33:36Z</time>
      </trkpt>
      <trkpt lat="49.18908" lon="1.99202">
        <ele>125.35</ele>
        <time>2018-07-01T10:33:48Z</time>
      </trkpt>
      <trkpt lat="49.18908" lon="1.99205">
        <ele>125.58</ele>
        <time>2018-07-01T10:33:50Z</time>
      </trkpt>
      <trkpt lat="49.18905" lon="1.99216">
        <ele>125.8</ele>
        <time>2018-07-01T10:33:57Z</time>
      </trkpt>
      <trkpt lat="49.18896" lon="1.99243">
        <ele>126.69</ele>
        <time>2018-07-01T10:34:13Z</time>
      </trkpt>
      <trkpt lat="49.18882" lon="1.99269">
        <ele>126.45</ele>
        <time>2018-07-01T10:34:30Z</time>
      </trkpt>
      <trkpt lat="49.18864" lon="1.99298">
        <ele>126.81</ele>
        <time>2018-07-01T10:34:52Z</time>
      </trkpt>
      <trkpt lat="49.18851" lon="1.99323">
        <ele>127.56</ele>
        <time>2018-07-01T10:35:11Z</time>
      </trkpt>
      <trkpt lat="49.18849" lon="1.99326">
        <ele>127.45</ele>
        <time>2018-07-01T10:35:12Z</time>
      </trkpt>
      <trkpt lat="49.18848" lon="1.99328">
        <ele>127.19</ele>
        <time>2018-07-01T10:35:14Z</time>
      </trkpt>
      <trkpt lat="49.18845" lon="1.99333">
        <ele>127.41</ele>
        <time>2018-07-01T10:35:18Z</time>
      </trkpt>
      <trkpt lat="49.1884" lon="1.99345">
        <ele>127.59</ele>
        <time>2018-07-01T10:35:27Z</time>
      </trkpt>
      <trkpt lat="49.18827" lon="1.99358">
        <ele>128.27</ele>
        <time>2018-07-01T10:35:43Z</time>
      </trkpt>
      <trkpt lat="49.1881" lon="1.99371">
        <ele>128.53</ele>
        <time>2018-07-01T10:36:01Z</time>
      </trkpt>
      <trkpt lat="49.18787" lon="1.99381">
        <ele>126.78</ele>
        <time>2018-07-01T10:36:20Z</time>
      </trkpt>
      <trkpt lat="49.18784" lon="1.99383">
        <ele>126.68</ele>
        <time>2018-07-01T10:36:23Z</time>
      </trkpt>
      <trkpt lat="49.18775" lon="1.99387">
        <ele>125.91</ele>
        <time>2018-07-01T10:36:36Z</time>
      </trkpt>
      <trkpt lat="49.18772" lon="1.99388">
        <ele>125.88</ele>
        <time>2018-07-01T10:36:39Z</time>
      </trkpt>
      <trkpt lat="49.18769" lon="1.99388">
        <ele>126.22</ele>
        <time>2018-07-01T10:36:42Z</time>
      </trkpt>
      <trkpt lat="49.18764" lon="1.99385">
        <ele>125.44</ele>
        <time>2018-07-01T10:36:46Z</time>
      </trkpt>
      <trkpt lat="49.18754" lon="1.99378">
        <ele>124.75</ele>
        <time>2018-07-01T10:37:01Z</time>
      </trkpt>
      <trkpt lat="49.18757" lon="1.99381">
        <ele>124.94</ele>
        <time>2018-07-01T10:37:05Z</time>
      </trkpt>
      <trkpt lat="49.18776" lon="1.99386">
        <ele>126.45</ele>
        <time>2018-07-01T10:37:22Z</time>
      </trkpt>
      <trkpt lat="49.18791" lon="1.99376">
        <ele>127.94</ele>
        <time>2018-07-01T10:37:41Z</time>
      </trkpt>
      <trkpt lat="49.18788" lon="1.99375">
        <ele>128.51</ele>
        <time>2018-07-01T10:37:46Z</time>
      </trkpt>
      <trkpt lat="49.18768" lon="1.99371">
        <ele>130.64</ele>
        <time>2018-07-01T10:38:05Z</time>
      </trkpt>
      <trkpt lat="49.18759" lon="1.99357">
        <ele>132.65</ele>
        <time>2018-07-01T10:38:19Z</time>
      </trkpt>
      <trkpt lat="49.18759" lon="1.99352">
        <ele>132.67</ele>
        <time>2018-07-01T10:38:25Z</time>
      </trkpt>
      <trkpt lat="49.1876" lon="1.9933">
        <ele>133.31</ele>
        <time>2018-07-01T10:38:41Z</time>
      </trkpt>
      <trkpt lat="49.18762" lon="1.99328">
        <ele>133.82</ele>
        <time>2018-07-01T10:38:58Z</time>
      </trkpt>
      <trkpt lat="49.18752" lon="1.99318">
        <ele>132.43</ele>
        <time>2018-07-01T10:39:09Z</time>
      </trkpt>
      <trkpt lat="49.18743" lon="1.99322">
        <ele>132.61</ele>
        <time>2018-07-01T10:39:21Z</time>
      </trkpt>
      <trkpt lat="49.18741" lon="1.99333">
        <ele>130.43</ele>
        <time>2018-07-01T10:39:35Z</time>
      </trkpt>
      <trkpt lat="49.1874" lon="1.99335">
        <ele>131.23</ele>
        <time>2018-07-01T10:39:41Z</time>
      </trkpt>
      <trkpt lat="49.1875" lon="1.99342">
        <ele>130.28</ele>
        <time>2018-07-01T10:40:01Z</time>
      </trkpt>
      <trkpt lat="49.18757" lon="1.99354">
        <ele>129.66</ele>
        <time>2018-07-01T10:40:16Z</time>
      </trkpt>
      <trkpt lat="49.18756" lon="1.99356">
        <ele>129.78</ele>
        <time>2018-07-01T10:40:35Z</time>
      </trkpt>
      <trkpt lat="49.18754" lon="1.99353">
        <ele>130.63</ele>
        <time>2018-07-01T10:40:49Z</time>
      </trkpt>
      <trkpt lat="49.18752" lon="1.99342">
        <ele>130.77</ele>
        <time>2018-07-01T10:40:57Z</time>
      </trkpt>
      <trkpt lat="49.18742" lon="1.99332">
        <ele>132.99</ele>
        <time>2018-07-01T10:41:13Z</time>
      </trkpt>
      <trkpt lat="49.18759" lon="1.99329">
        <ele>133.77</ele>
        <time>2018-07-01T10:41:31Z</time>
      </trkpt>
      <trkpt lat="49.18763" lon="1.9933">
        <ele>134.52</ele>
        <time>2018-07-01T10:41:46Z</time>
      </trkpt>
      <trkpt lat="49.18759" lon="1.99329">
        <ele>133.58</ele>
        <time>2018-07-01T10:42:03Z</time>
      </trkpt>
      <trkpt lat="49.18759" lon="1.99331">
        <ele>133.74</ele>
        <time>2018-07-01T10:42:05Z</time>
      </trkpt>
      <trkpt lat="49.18759" lon="1.9936">
        <ele>132.68</ele>
        <time>2018-07-01T10:42:23Z</time>
      </trkpt>
      <trkpt lat="49.18762" lon="1.99363">
        <ele>132.21</ele>
        <time>2018-07-01T10:42:26Z</time>
      </trkpt>
      <trkpt lat="49.18767" lon="1.99369">
        <ele>131.7</ele>
        <time>2018-07-01T10:42:30Z</time>
      </trkpt>
      <trkpt lat="49.18773" lon="1.99373">
        <ele>131.19</ele>
        <time>2018-07-01T10:42:35Z</time>
      </trkpt>
      <trkpt lat="49.18787" lon="1.99374">
        <ele>130.47</ele>
        <time>2018-07-01T10:42:49Z</time>
      </trkpt>
      <trkpt lat="49.18796" lon="1.9937">
        <ele>129.44</ele>
        <time>2018-07-01T10:43:00Z</time>
      </trkpt>
      <trkpt lat="49.1879" lon="1.99385">
        <ele>128.34</ele>
        <time>2018-07-01T10:43:13Z</time>
      </trkpt>
      <trkpt lat="49.18767" lon="1.99382">
        <ele>127.96</ele>
        <time>2018-07-01T10:43:33Z</time>
      </trkpt>
      <trkpt lat="49.18748" lon="1.99377">
        <ele>127.32</ele>
        <time>2018-07-01T10:43:49Z</time>
      </trkpt>
      <trkpt lat="49.18739" lon="1.99381">
        <ele>126.99</ele>
        <time>2018-07-01T10:43:59Z</time>
      </trkpt>
      <trkpt lat="49.1873" lon="1.99374">
        <ele>127.76</ele>
        <time>2018-07-01T10:44:13Z</time>
      </trkpt>
      <trkpt lat="49.18697" lon="1.99341">
        <ele>129.77</ele>
        <time>2018-07-01T10:46:00Z</time>
      </trkpt>
      <trkpt lat="49.1869" lon="1.99334">
        <ele>138.74</ele>
        <time>2018-07-01T11:24:14Z</time>
      </trkpt>
      <trkpt lat="49.18678" lon="1.99328">
        <ele>138.75</ele>
        <time>2018-07-01T11:24:34Z</time>
      </trkpt>
      <trkpt lat="49.18668" lon="1.99323">
        <ele>138.37</ele>
        <time>2018-07-01T11:24:53Z</time>
      </trkpt>
      <trkpt lat="49.18656" lon="1.99313">
        <ele>136.96</ele>
        <time>2018-07-01T11:25:16Z</time>
      </trkpt>
      <trkpt lat="49.18642" lon="1.99305">
        <ele>135.06</ele>
        <time>2018-07-01T11:25:36Z</time>
      </trkpt>
      <trkpt lat="49.18629" lon="1.99297">
        <ele>133.65</ele>
        <time>2018-07-01T11:25:55Z</time>
      </trkpt>
      <trkpt lat="49.18619" lon="1.99288">
        <ele>131.85</ele>
        <time>2018-07-01T11:26:15Z</time>
      </trkpt>
      <trkpt lat="49.18595" lon="1.99285">
        <ele>128.87</ele>
        <time>2018-07-01T11:26:39Z</time>
      </trkpt>
      <trkpt lat="49.18577" lon="1.99285">
        <ele>127.59</ele>
        <time>2018-07-01T11:26:57Z</time>
      </trkpt>
      <trkpt lat="49.18564" lon="1.99285">
        <ele>126.09</ele>
        <time>2018-07-01T11:27:13Z</time>
      </trkpt>
      <trkpt lat="49.18556" lon="1.99283">
        <ele>126.16</ele>
        <time>2018-07-01T11:27:21Z</time>
      </trkpt>
      <trkpt lat="49.18543" lon="1.9928">
        <ele>125.26</ele>
        <time>2018-07-01T11:27:36Z</time>
      </trkpt>
      <trkpt lat="49.18532" lon="1.99275">
        <ele>124.63</ele>
        <time>2018-07-01T11:27:49Z</time>
      </trkpt>
      <trkpt lat="49.18512" lon="1.99277">
        <ele>123.38</ele>
        <time>2018-07-01T11:28:07Z</time>
      </trkpt>
      <trkpt lat="49.18505" lon="1.99272">
        <ele>122.62</ele>
        <time>2018-07-01T11:28:13Z</time>
      </trkpt>
      <trkpt lat="49.18501" lon="1.99268">
        <ele>123.11</ele>
        <time>2018-07-01T11:28:15Z</time>
      </trkpt>
      <trkpt lat="49.18491" lon="1.99248">
        <ele>122.39</ele>
        <time>2018-07-01T11:28:24Z</time>
      </trkpt>
      <trkpt lat="49.18474" lon="1.99248">
        <ele>122.12</ele>
        <time>2018-07-01T11:28:40Z</time>
      </trkpt>
      <trkpt lat="49.18474" lon="1.99251">
        <ele>121.19</ele>
        <time>2018-07-01T11:28:50Z</time>
      </trkpt>
      <trkpt lat="49.18474" lon="1.99252">
        <ele>121.32</ele>
        <time>2018-07-01T11:29:16Z</time>
      </trkpt>
      <trkpt lat="49.18472" lon="1.99252">
        <ele>120.87</ele>
        <time>2018-07-01T11:29:43Z</time>
      </trkpt>
      <trkpt lat="49.18472" lon="1.99254">
        <ele>120.85</ele>
        <time>2018-07-01T11:30:08Z</time>
      </trkpt>
      <trkpt lat="49.18475" lon="1.99254">
        <ele>120.97</ele>
        <time>2018-07-01T11:30:36Z</time>
      </trkpt>
      <trkpt lat="49.18473" lon="1.99254">
        <ele>120.99</ele>
        <time>2018-07-01T11:31:02Z</time>
      </trkpt>
      <trkpt lat="49.18472" lon="1.99254">
        <ele>120.75</ele>
        <time>2018-07-01T11:31:28Z</time>
      </trkpt>
      <trkpt lat="49.18468" lon="1.99259">
        <ele>119.89</ele>
        <time>2018-07-01T11:31:50Z</time>
      </trkpt>
      <trkpt lat="49.18466" lon="1.99261">
        <ele>119.95</ele>
        <time>2018-07-01T11:31:54Z</time>
      </trkpt>
      <trkpt lat="49.18464" lon="1.99262">
        <ele>119.89</ele>
        <time>2018-07-01T11:31:56Z</time>
      </trkpt>
      <trkpt lat="49.18456" lon="1.99269">
        <ele>119.57</ele>
        <time>2018-07-01T11:32:06Z</time>
      </trkpt>
      <trkpt lat="49.18441" lon="1.9928">
        <ele>118.97</ele>
        <time>2018-07-01T11:32:25Z</time>
      </trkpt>
      <trkpt lat="49.18429" lon="1.99293">
        <ele>118.66</ele>
        <time>2018-07-01T11:32:41Z</time>
      </trkpt>
      <trkpt lat="49.18417" lon="1.99308">
        <ele>118.15</ele>
        <time>2018-07-01T11:32:56Z</time>
      </trkpt>
      <trkpt lat="49.18409" lon="1.99317">
        <ele>117.57</ele>
        <time>2018-07-01T11:33:05Z</time>
      </trkpt>
      <trkpt lat="49.18397" lon="1.99331">
        <ele>117.8</ele>
        <time>2018-07-01T11:33:20Z</time>
      </trkpt>
      <trkpt lat="49.18393" lon="1.99335">
        <ele>118.1</ele>
        <time>2018-07-01T11:33:24Z</time>
      </trkpt>
      <trkpt lat="49.18389" lon="1.99339">
        <ele>117.95</ele>
        <time>2018-07-01T11:33:28Z</time>
      </trkpt>
      <trkpt lat="49.18385" lon="1.99343">
        <ele>118.25</ele>
        <time>2018-07-01T11:33:32Z</time>
      </trkpt>
      <trkpt lat="49.18375" lon="1.99356">
        <ele>116.9</ele>
        <time>2018-07-01T11:33:52Z</time>
      </trkpt>
      <trkpt lat="49.18373" lon="1.9936">
        <ele>118.33</ele>
        <time>2018-07-01T11:34:02Z</time>
      </trkpt>
      <trkpt lat="49.18368" lon="1.99366">
        <ele>117.04</ele>
        <time>2018-07-01T11:34:09Z</time>
      </trkpt>
      <trkpt lat="49.18354" lon="1.9938">
        <ele>116.92</ele>
        <time>2018-07-01T11:34:24Z</time>
      </trkpt>
      <trkpt lat="49.1834" lon="1.99394">
        <ele>117.51</ele>
        <time>2018-07-01T11:34:43Z</time>
      </trkpt>
      <trkpt lat="49.18325" lon="1.9941">
        <ele>118.38</ele>
        <time>2018-07-01T11:35:02Z</time>
      </trkpt>
      <trkpt lat="49.18314" lon="1.99423">
        <ele>119.36</ele>
        <time>2018-07-01T11:35:15Z</time>
      </trkpt>
      <trkpt lat="49.18305" lon="1.99433">
        <ele>119.77</ele>
        <time>2018-07-01T11:35:26Z</time>
      </trkpt>
      <trkpt lat="49.18291" lon="1.99448">
        <ele>120.64</ele>
        <time>2018-07-01T11:35:41Z</time>
      </trkpt>
      <trkpt lat="49.18276" lon="1.99465">
        <ele>121.49</ele>
        <time>2018-07-01T11:35:58Z</time>
      </trkpt>
      <trkpt lat="49.18275" lon="1.99466">
        <ele>121.41</ele>
        <time>2018-07-01T11:35:59Z</time>
      </trkpt>
      <trkpt lat="49.18261" lon="1.99482">
        <ele>122.62</ele>
        <time>2018-07-01T11:36:15Z</time>
      </trkpt>
      <trkpt lat="49.18248" lon="1.99496">
        <ele>123.15</ele>
        <time>2018-07-01T11:36:30Z</time>
      </trkpt>
      <trkpt lat="49.18239" lon="1.99505">
        <ele>124.4</ele>
        <time>2018-07-01T11:36:39Z</time>
      </trkpt>
      <trkpt lat="49.18222" lon="1.99522">
        <ele>124.46</ele>
        <time>2018-07-01T11:36:59Z</time>
      </trkpt>
      <trkpt lat="49.18217" lon="1.9953">
        <ele>124.57</ele>
        <time>2018-07-01T11:37:06Z</time>
      </trkpt>
      <trkpt lat="49.18206" lon="1.99546">
        <ele>126.85</ele>
        <time>2018-07-01T11:37:21Z</time>
      </trkpt>
      <trkpt lat="49.18187" lon="1.99565">
        <ele>127.06</ele>
        <time>2018-07-01T11:37:41Z</time>
      </trkpt>
      <trkpt lat="49.18185" lon="1.99568">
        <ele>128.3</ele>
        <time>2018-07-01T11:37:44Z</time>
      </trkpt>
      <trkpt lat="49.18161" lon="1.99587">
        <ele>129.89</ele>
        <time>2018-07-01T11:38:07Z</time>
      </trkpt>
      <trkpt lat="49.18142" lon="1.99604">
        <ele>130.13</ele>
        <time>2018-07-01T11:38:26Z</time>
      </trkpt>
      <trkpt lat="49.18127" lon="1.99617">
        <ele>131.58</ele>
        <time>2018-07-01T11:38:42Z</time>
      </trkpt>
      <trkpt lat="49.18112" lon="1.9963">
        <ele>132.98</ele>
        <time>2018-07-01T11:38:58Z</time>
      </trkpt>
      <trkpt lat="49.18097" lon="1.99645">
        <ele>133.57</ele>
        <time>2018-07-01T11:39:16Z</time>
      </trkpt>
      <trkpt lat="49.18082" lon="1.99659">
        <ele>134.92</ele>
        <time>2018-07-01T11:39:33Z</time>
      </trkpt>
      <trkpt lat="49.18064" lon="1.99674">
        <ele>136.24</ele>
        <time>2018-07-01T11:39:51Z</time>
      </trkpt>
      <trkpt lat="49.18049" lon="1.99682">
        <ele>136.78</ele>
        <time>2018-07-01T11:40:10Z</time>
      </trkpt>
      <trkpt lat="49.18038" lon="1.99695">
        <ele>137.63</ele>
        <time>2018-07-01T11:40:24Z</time>
      </trkpt>
      <trkpt lat="49.18027" lon="1.99709">
        <ele>137.97</ele>
        <time>2018-07-01T11:40:38Z</time>
      </trkpt>
      <trkpt lat="49.18016" lon="1.99724">
        <ele>139.31</ele>
        <time>2018-07-01T11:40:55Z</time>
      </trkpt>
      <trkpt lat="49.18002" lon="1.9974">
        <ele>140.14</ele>
        <time>2018-07-01T11:41:09Z</time>
      </trkpt>
      <trkpt lat="49.17989" lon="1.99761">
        <ele>141.04</ele>
        <time>2018-07-01T11:41:26Z</time>
      </trkpt>
      <trkpt lat="49.17978" lon="1.99774">
        <ele>141.4</ele>
        <time>2018-07-01T11:41:41Z</time>
      </trkpt>
      <trkpt lat="49.17968" lon="1.99789">
        <ele>142.28</ele>
        <time>2018-07-01T11:42:00Z</time>
      </trkpt>
      <trkpt lat="49.17964" lon="1.99794">
        <ele>142.62</ele>
        <time>2018-07-01T11:42:03Z</time>
      </trkpt>
      <trkpt lat="49.17952" lon="1.99815">
        <ele>143.68</ele>
        <time>2018-07-01T11:42:17Z</time>
      </trkpt>
      <trkpt lat="49.17937" lon="1.99837">
        <ele>144.26</ele>
        <time>2018-07-01T11:42:34Z</time>
      </trkpt>
      <trkpt lat="49.17927" lon="1.99845">
        <ele>144.78</ele>
        <time>2018-07-01T11:42:50Z</time>
      </trkpt>
      <trkpt lat="49.17911" lon="1.99864">
        <ele>146.04</ele>
        <time>2018-07-01T11:43:09Z</time>
      </trkpt>
      <trkpt lat="49.17895" lon="1.99878">
        <ele>147.33</ele>
        <time>2018-07-01T11:43:31Z</time>
      </trkpt>
      <trkpt lat="49.17884" lon="1.99891">
        <ele>147.67</ele>
        <time>2018-07-01T11:43:47Z</time>
      </trkpt>
      <trkpt lat="49.17879" lon="1.99898">
        <ele>148.61</ele>
        <time>2018-07-01T11:44:02Z</time>
      </trkpt>
      <trkpt lat="49.17859" lon="1.99907">
        <ele>148.96</ele>
        <time>2018-07-01T11:44:27Z</time>
      </trkpt>
      <trkpt lat="49.17839" lon="1.99923">
        <ele>149.48</ele>
        <time>2018-07-01T11:44:48Z</time>
      </trkpt>
      <trkpt lat="49.17816" lon="1.99943">
        <ele>150.37</ele>
        <time>2018-07-01T11:45:08Z</time>
      </trkpt>
      <trkpt lat="49.178" lon="1.99957">
        <ele>150.47</ele>
        <time>2018-07-01T11:45:22Z</time>
      </trkpt>
      <trkpt lat="49.17791" lon="1.99967">
        <ele>151.01</ele>
        <time>2018-07-01T11:45:42Z</time>
      </trkpt>
      <trkpt lat="49.1778" lon="1.99998">
        <ele>151.95</ele>
        <time>2018-07-01T11:46:03Z</time>
      </trkpt>
      <trkpt lat="49.17774" lon="2.00034">
        <ele>152.23</ele>
        <time>2018-07-01T11:46:23Z</time>
      </trkpt>
      <trkpt lat="49.17771" lon="2.00056">
        <ele>152.63</ele>
        <time>2018-07-01T11:46:43Z</time>
      </trkpt>
      <trkpt lat="49.17778" lon="2.0006">
        <ele>152.46</ele>
        <time>2018-07-01T11:46:56Z</time>
      </trkpt>
      <trkpt lat="49.17778" lon="2.00067">
        <ele>152.07</ele>
        <time>2018-07-01T11:47:10Z</time>
      </trkpt>
      <trkpt lat="49.17777" lon="2.00058">
        <ele>151.95</ele>
        <time>2018-07-01T11:47:36Z</time>
      </trkpt>
      <trkpt lat="49.17772" lon="2.00069">
        <ele>151.85</ele>
        <time>2018-07-01T11:48:01Z</time>
      </trkpt>
      <trkpt lat="49.17772" lon="2.00066">
        <ele>151.72</ele>
        <time>2018-07-01T11:48:30Z</time>
      </trkpt>
      <trkpt lat="49.17772" lon="2.00074">
        <ele>151.27</ele>
        <time>2018-07-01T11:48:53Z</time>
      </trkpt>
      <trkpt lat="49.17773" lon="2.00079">
        <ele>150.84</ele>
        <time>2018-07-01T11:49:19Z</time>
      </trkpt>
      <trkpt lat="49.17774" lon="2.00088">
        <ele>151.68</ele>
        <time>2018-07-01T11:49:46Z</time>
      </trkpt>
      <trkpt lat="49.1777" lon="2.00111">
        <ele>152.57</ele>
        <time>2018-07-01T11:50:05Z</time>
      </trkpt>
      <trkpt lat="49.17759" lon="2.00122">
        <ele>154.16</ele>
        <time>2018-07-01T11:50:25Z</time>
      </trkpt>
      <trkpt lat="49.1774" lon="2.0013">
        <ele>155.37</ele>
        <time>2018-07-01T11:50:43Z</time>
      </trkpt>
      <trkpt lat="49.17715" lon="2.00133">
        <ele>156.82</ele>
        <time>2018-07-01T11:51:00Z</time>
      </trkpt>
      <trkpt lat="49.17707" lon="2.00109">
        <ele>157.1</ele>
        <time>2018-07-01T11:51:21Z</time>
      </trkpt>
      <trkpt lat="49.17709" lon="2.0007">
        <ele>158.04</ele>
        <time>2018-07-01T11:51:41Z</time>
      </trkpt>
      <trkpt lat="49.17711" lon="2.00042">
        <ele>159.4</ele>
        <time>2018-07-01T11:51:59Z</time>
      </trkpt>
      <trkpt lat="49.1771" lon="2.00025">
        <ele>159.71</ele>
        <time>2018-07-01T11:52:18Z</time>
      </trkpt>
      <trkpt lat="49.17711" lon="1.99991">
        <ele>161.1</ele>
        <time>2018-07-01T11:52:39Z</time>
      </trkpt>
      <trkpt lat="49.17714" lon="1.99967">
        <ele>161.8</ele>
        <time>2018-07-01T11:52:56Z</time>
      </trkpt>
      <trkpt lat="49.17714" lon="1.99933">
        <ele>163.14</ele>
        <time>2018-07-01T11:53:16Z</time>
      </trkpt>
      <trkpt lat="49.17703" lon="1.9992">
        <ele>164.29</ele>
        <time>2018-07-01T11:53:32Z</time>
      </trkpt>
      <trkpt lat="49.17684" lon="1.99915">
        <ele>164.84</ele>
        <time>2018-07-01T11:53:51Z</time>
      </trkpt>
      <trkpt lat="49.17672" lon="1.99918">
        <ele>165.57</ele>
        <time>2018-07-01T11:54:08Z</time>
      </trkpt>
      <trkpt lat="49.17653" lon="1.99923">
        <ele>166.34</ele>
        <time>2018-07-01T11:54:25Z</time>
      </trkpt>
      <trkpt lat="49.17634" lon="1.99925">
        <ele>167.24</ele>
        <time>2018-07-01T11:54:40Z</time>
      </trkpt>
      <trkpt lat="49.1763" lon="1.99927">
        <ele>167.88</ele>
        <time>2018-07-01T11:54:44Z</time>
      </trkpt>
      <trkpt lat="49.17612" lon="1.9993">
        <ele>169.04</ele>
        <time>2018-07-01T11:55:02Z</time>
      </trkpt>
      <trkpt lat="49.17593" lon="1.99933">
        <ele>170.04</ele>
        <time>2018-07-01T11:55:19Z</time>
      </trkpt>
      <trkpt lat="49.17569" lon="1.99939">
        <ele>170.8</ele>
        <time>2018-07-01T11:55:39Z</time>
      </trkpt>
      <trkpt lat="49.17557" lon="1.99932">
        <ele>171.53</ele>
        <time>2018-07-01T11:55:57Z</time>
      </trkpt>
      <trkpt lat="49.17539" lon="1.99916">
        <ele>173.74</ele>
        <time>2018-07-01T11:56:19Z</time>
      </trkpt>
      <trkpt lat="49.17524" lon="1.99903">
        <ele>175.23</ele>
        <time>2018-07-01T11:56:42Z</time>
      </trkpt>
      <trkpt lat="49.1752" lon="1.99901">
        <ele>176.76</ele>
        <time>2018-07-01T11:56:49Z</time>
      </trkpt>
      <trkpt lat="49.17518" lon="1.99896">
        <ele>176.52</ele>
        <time>2018-07-01T11:56:58Z</time>
      </trkpt>
      <trkpt lat="49.17519" lon="1.99897">
        <ele>177.59</ele>
        <time>2018-07-01T11:57:03Z</time>
      </trkpt>
      <trkpt lat="49.1751" lon="1.99896">
        <ele>176.87</ele>
        <time>2018-07-01T11:57:25Z</time>
      </trkpt>
      <trkpt lat="49.17509" lon="1.99899">
        <ele>176.7</ele>
        <time>2018-07-01T11:57:51Z</time>
      </trkpt>
      <trkpt lat="49.17515" lon="1.99899">
        <ele>176.82</ele>
        <time>2018-07-01T11:58:05Z</time>
      </trkpt>
      <trkpt lat="49.17521" lon="1.99899">
        <ele>176.62</ele>
        <time>2018-07-01T11:58:30Z</time>
      </trkpt>
      <trkpt lat="49.17513" lon="1.99897">
        <ele>176.53</ele>
        <time>2018-07-01T11:58:56Z</time>
      </trkpt>
      <trkpt lat="49.17491" lon="1.99902">
        <ele>175.76</ele>
        <time>2018-07-01T11:59:13Z</time>
      </trkpt>
      <trkpt lat="49.17478" lon="1.99911">
        <ele>175.52</ele>
        <time>2018-07-01T11:59:31Z</time>
      </trkpt>
      <trkpt lat="49.17476" lon="1.99913">
        <ele>175.56</ele>
        <time>2018-07-01T11:59:33Z</time>
      </trkpt>
      <trkpt lat="49.17461" lon="1.99932">
        <ele>175.08</ele>
        <time>2018-07-01T11:59:54Z</time>
      </trkpt>
      <trkpt lat="49.17445" lon="1.99949">
        <ele>174.81</ele>
        <time>2018-07-01T12:00:12Z</time>
      </trkpt>
      <trkpt lat="49.17431" lon="1.99966">
        <ele>175.51</ele>
        <time>2018-07-01T12:00:33Z</time>
      </trkpt>
      <trkpt lat="49.17426" lon="1.9997">
        <ele>175.77</ele>
        <time>2018-07-01T12:00:46Z</time>
      </trkpt>
      <trkpt lat="49.17423" lon="1.99974">
        <ele>175.23</ele>
        <time>2018-07-01T12:00:53Z</time>
      </trkpt>
      <trkpt lat="49.17418" lon="1.99979">
        <ele>174.15</ele>
        <time>2018-07-01T12:01:08Z</time>
      </trkpt>
      <trkpt lat="49.17417" lon="1.99981">
        <ele>174.23</ele>
        <time>2018-07-01T12:01:11Z</time>
      </trkpt>
      <trkpt lat="49.17415" lon="1.99987">
        <ele>173.75</ele>
        <time>2018-07-01T12:01:16Z</time>
      </trkpt>
      <trkpt lat="49.17414" lon="1.99986">
        <ele>174.21</ele>
        <time>2018-07-01T12:01:18Z</time>
      </trkpt>
      <trkpt lat="49.17411" lon="1.99989">
        <ele>174.16</ele>
        <time>2018-07-01T12:01:22Z</time>
      </trkpt>
      <trkpt lat="49.17403" lon="2.00004">
        <ele>172.85</ele>
        <time>2018-07-01T12:01:49Z</time>
      </trkpt>
      <trkpt lat="49.1739" lon="2.0002">
        <ele>170.9</ele>
        <time>2018-07-01T12:02:11Z</time>
      </trkpt>
      <trkpt lat="49.17388" lon="2.00022">
        <ele>170.87</ele>
        <time>2018-07-01T12:02:16Z</time>
      </trkpt>
      <trkpt lat="49.17382" lon="2.0003">
        <ele>169.75</ele>
        <time>2018-07-01T12:02:25Z</time>
      </trkpt>
      <trkpt lat="49.1738" lon="2.00034">
        <ele>169.29</ele>
        <time>2018-07-01T12:02:29Z</time>
      </trkpt>
      <trkpt lat="49.1737" lon="2.00047">
        <ele>168.9</ele>
        <time>2018-07-01T12:02:44Z</time>
      </trkpt>
      <trkpt lat="49.17366" lon="2.00054">
        <ele>169.28</ele>
        <time>2018-07-01T12:02:53Z</time>
      </trkpt>
      <trkpt lat="49.17363" lon="2.00062">
        <ele>168.71</ele>
        <time>2018-07-01T12:03:03Z</time>
      </trkpt>
      <trkpt lat="49.17349" lon="2.00086">
        <ele>166.72</ele>
        <time>2018-07-01T12:03:24Z</time>
      </trkpt>
      <trkpt lat="49.17344" lon="2.00096">
        <ele>167.19</ele>
        <time>2018-07-01T12:03:31Z</time>
      </trkpt>
      <trkpt lat="49.17343" lon="2.00099">
        <ele>167.07</ele>
        <time>2018-07-01T12:03:34Z</time>
      </trkpt>
      <trkpt lat="49.17324" lon="2.00118">
        <ele>166.15</ele>
        <time>2018-07-01T12:03:53Z</time>
      </trkpt>
      <trkpt lat="49.17322" lon="2.00119">
        <ele>166.14</ele>
        <time>2018-07-01T12:03:55Z</time>
      </trkpt>
      <trkpt lat="49.17299" lon="2.00142">
        <ele>166.08</ele>
        <time>2018-07-01T12:04:15Z</time>
      </trkpt>
      <trkpt lat="49.17278" lon="2.00156">
        <ele>165.61</ele>
        <time>2018-07-01T12:04:35Z</time>
      </trkpt>
      <trkpt lat="49.17264" lon="2.00162">
        <ele>164.68</ele>
        <time>2018-07-01T12:04:54Z</time>
      </trkpt>
      <trkpt lat="49.17253" lon="2.00168">
        <ele>164.49</ele>
        <time>2018-07-01T12:05:08Z</time>
      </trkpt>
      <trkpt lat="49.17233" lon="2.00176">
        <ele>164.53</ele>
        <time>2018-07-01T12:05:27Z</time>
      </trkpt>
      <trkpt lat="49.17219" lon="2.00177">
        <ele>164.31</ele>
        <time>2018-07-01T12:05:43Z</time>
      </trkpt>
      <trkpt lat="49.17217" lon="2.00182">
        <ele>164.82</ele>
        <time>2018-07-01T12:06:02Z</time>
      </trkpt>
      <trkpt lat="49.17215" lon="2.00185">
        <ele>164.54</ele>
        <time>2018-07-01T12:06:14Z</time>
      </trkpt>
      <trkpt lat="49.17214" lon="2.00184">
        <ele>164.6</ele>
        <time>2018-07-01T12:06:41Z</time>
      </trkpt>
      <trkpt lat="49.17214" lon="2.00178">
        <ele>164.94</ele>
        <time>2018-07-01T12:07:09Z</time>
      </trkpt>
      <trkpt lat="49.17212" lon="2.00179">
        <ele>164.73</ele>
        <time>2018-07-01T12:07:35Z</time>
      </trkpt>
      <trkpt lat="49.17212" lon="2.00172">
        <ele>164.42</ele>
        <time>2018-07-01T12:08:02Z</time>
      </trkpt>
      <trkpt lat="49.17213" lon="2.00172">
        <ele>164.74</ele>
        <time>2018-07-01T12:08:11Z</time>
      </trkpt>
      <trkpt lat="49.17213" lon="2.00179">
        <ele>165.32</ele>
        <time>2018-07-01T12:08:36Z</time>
      </trkpt>
      <trkpt lat="49.17212" lon="2.00176">
        <ele>164.84</ele>
        <time>2018-07-01T12:09:00Z</time>
      </trkpt>
      <trkpt lat="49.17212" lon="2.00178">
        <ele>164.45</ele>
        <time>2018-07-01T12:09:30Z</time>
      </trkpt>
      <trkpt lat="49.17209" lon="2.00183">
        <ele>165.31</ele>
        <time>2018-07-01T12:10:00Z</time>
      </trkpt>
      <trkpt lat="49.1721" lon="2.00185">
        <ele>164.81</ele>
        <time>2018-07-01T12:10:24Z</time>
      </trkpt>
      <trkpt lat="49.1721" lon="2.00184">
        <ele>164.63</ele>
        <time>2018-07-01T12:10:49Z</time>
      </trkpt>
      <trkpt lat="49.17203" lon="2.00182">
        <ele>164.54</ele>
        <time>2018-07-01T12:11:09Z</time>
      </trkpt>
      <trkpt lat="49.172" lon="2.00179">
        <ele>164.54</ele>
        <time>2018-07-01T12:11:26Z</time>
      </trkpt>
      <trkpt lat="49.17208" lon="2.00185">
        <ele>164.16</ele>
        <time>2018-07-01T12:11:51Z</time>
      </trkpt>
      <trkpt lat="49.17198" lon="2.00183">
        <ele>163.75</ele>
        <time>2018-07-01T12:12:04Z</time>
      </trkpt>
      <trkpt lat="49.17198" lon="2.00179">
        <ele>164.22</ele>
        <time>2018-07-01T12:12:29Z</time>
      </trkpt>
      <trkpt lat="49.17202" lon="2.00182">
        <ele>164.38</ele>
        <time>2018-07-01T12:12:53Z</time>
      </trkpt>
      <trkpt lat="49.17201" lon="2.00178">
        <ele>164.13</ele>
        <time>2018-07-01T12:13:30Z</time>
      </trkpt>
      <trkpt lat="49.172" lon="2.00181">
        <ele>163.95</ele>
        <time>2018-07-01T12:13:57Z</time>
      </trkpt>
      <trkpt lat="49.17202" lon="2.00175">
        <ele>164.52</ele>
        <time>2018-07-01T12:14:23Z</time>
      </trkpt>
      <trkpt lat="49.17205" lon="2.00178">
        <ele>164.51</ele>
        <time>2018-07-01T12:14:48Z</time>
      </trkpt>
      <trkpt lat="49.17205" lon="2.00181">
        <ele>164.72</ele>
        <time>2018-07-01T12:15:13Z</time>
      </trkpt>
      <trkpt lat="49.17207" lon="2.00184">
        <ele>164.35</ele>
        <time>2018-07-01T12:15:43Z</time>
      </trkpt>
      <trkpt lat="49.17207" lon="2.00183">
        <ele>165.03</ele>
        <time>2018-07-01T12:15:47Z</time>
      </trkpt>
      <trkpt lat="49.17199" lon="2.00181">
        <ele>163.32</ele>
        <time>2018-07-01T12:15:53Z</time>
      </trkpt>
      <trkpt lat="49.17192" lon="2.00179">
        <ele>162.99</ele>
        <time>2018-07-01T12:15:58Z</time>
      </trkpt>
      <trkpt lat="49.1717" lon="2.00173">
        <ele>161.84</ele>
        <time>2018-07-01T12:16:15Z</time>
      </trkpt>
      <trkpt lat="49.17152" lon="2.00165">
        <ele>161.28</ele>
        <time>2018-07-01T12:16:31Z</time>
      </trkpt>
      <trkpt lat="49.1715" lon="2.00156">
        <ele>161.49</ele>
        <time>2018-07-01T12:16:59Z</time>
      </trkpt>
      <trkpt lat="49.1714" lon="2.00154">
        <ele>161.3</ele>
        <time>2018-07-01T12:17:14Z</time>
      </trkpt>
      <trkpt lat="49.17128" lon="2.00154">
        <ele>160.06</ele>
        <time>2018-07-01T12:17:31Z</time>
      </trkpt>
      <trkpt lat="49.17126" lon="2.00154">
        <ele>159.93</ele>
        <time>2018-07-01T12:17:33Z</time>
      </trkpt>
      <trkpt lat="49.17121" lon="2.00154">
        <ele>160.43</ele>
        <time>2018-07-01T12:17:39Z</time>
      </trkpt>
      <trkpt lat="49.17117" lon="2.0015">
        <ele>159.62</ele>
        <time>2018-07-01T12:17:43Z</time>
      </trkpt>
      <trkpt lat="49.17098" lon="2.00143">
        <ele>158.29</ele>
        <time>2018-07-01T12:18:00Z</time>
      </trkpt>
      <trkpt lat="49.1709" lon="2.00141">
        <ele>158</ele>
        <time>2018-07-01T12:18:09Z</time>
      </trkpt>
      <trkpt lat="49.17073" lon="2.00137">
        <ele>155.93</ele>
        <time>2018-07-01T12:18:25Z</time>
      </trkpt>
      <trkpt lat="49.17057" lon="2.00133">
        <ele>153.64</ele>
        <time>2018-07-01T12:18:40Z</time>
      </trkpt>
      <trkpt lat="49.17054" lon="2.00135">
        <ele>154.48</ele>
        <time>2018-07-01T12:18:42Z</time>
      </trkpt>
      <trkpt lat="49.17024" lon="2.00127">
        <ele>152.21</ele>
        <time>2018-07-01T12:19:07Z</time>
      </trkpt>
      <trkpt lat="49.17008" lon="2.00121">
        <ele>150.16</ele>
        <time>2018-07-01T12:19:23Z</time>
      </trkpt>
      <trkpt lat="49.17" lon="2.00119">
        <ele>149.79</ele>
        <time>2018-07-01T12:19:33Z</time>
      </trkpt>
      <trkpt lat="49.16984" lon="2.00118">
        <ele>148.22</ele>
        <time>2018-07-01T12:19:46Z</time>
      </trkpt>
      <trkpt lat="49.16979" lon="2.00115">
        <ele>148.03</ele>
        <time>2018-07-01T12:19:50Z</time>
      </trkpt>
      <trkpt lat="49.16962" lon="2.00112">
        <ele>146.41</ele>
        <time>2018-07-01T12:20:03Z</time>
      </trkpt>
      <trkpt lat="49.16944" lon="2.00109">
        <ele>144.55</ele>
        <time>2018-07-01T12:20:16Z</time>
      </trkpt>
      <trkpt lat="49.16929" lon="2.00106">
        <ele>143.96</ele>
        <time>2018-07-01T12:20:29Z</time>
      </trkpt>
      <trkpt lat="49.16914" lon="2.00098">
        <ele>143.26</ele>
        <time>2018-07-01T12:20:42Z</time>
      </trkpt>
      <trkpt lat="49.16898" lon="2.00094">
        <ele>142.38</ele>
        <time>2018-07-01T12:20:58Z</time>
      </trkpt>
      <trkpt lat="49.16881" lon="2.00088">
        <ele>141.67</ele>
        <time>2018-07-01T12:21:13Z</time>
      </trkpt>
      <trkpt lat="49.1688" lon="2.00092">
        <ele>141.79</ele>
        <time>2018-07-01T12:21:28Z</time>
      </trkpt>
      <trkpt lat="49.16873" lon="2.00081">
        <ele>140.39</ele>
        <time>2018-07-01T12:21:44Z</time>
      </trkpt>
      <trkpt lat="49.16866" lon="2.00081">
        <ele>140.14</ele>
        <time>2018-07-01T12:21:56Z</time>
      </trkpt>
      <trkpt lat="49.16857" lon="2.00083">
        <ele>139.39</ele>
        <time>2018-07-01T12:22:07Z</time>
      </trkpt>
      <trkpt lat="49.16849" lon="2.0008">
        <ele>139.25</ele>
        <time>2018-07-01T12:22:13Z</time>
      </trkpt>
      <trkpt lat="49.16834" lon="2.00072">
        <ele>138.31</ele>
        <time>2018-07-01T12:22:27Z</time>
      </trkpt>
      <trkpt lat="49.16827" lon="2.00064">
        <ele>137.87</ele>
        <time>2018-07-01T12:22:32Z</time>
      </trkpt>
      <trkpt lat="49.16798" lon="2.00044">
        <ele>135.95</ele>
        <time>2018-07-01T12:22:56Z</time>
      </trkpt>
      <trkpt lat="49.16775" lon="2.00035">
        <ele>134.61</ele>
        <time>2018-07-01T12:23:14Z</time>
      </trkpt>
      <trkpt lat="49.16755" lon="2.00035">
        <ele>132.9</ele>
        <time>2018-07-01T12:23:30Z</time>
      </trkpt>
      <trkpt lat="49.16735" lon="2.00041">
        <ele>132.03</ele>
        <time>2018-07-01T12:23:47Z</time>
      </trkpt>
      <trkpt lat="49.16721" lon="2.00044">
        <ele>131.96</ele>
        <time>2018-07-01T12:24:01Z</time>
      </trkpt>
      <trkpt lat="49.16704" lon="2.00052">
        <ele>132.07</ele>
        <time>2018-07-01T12:24:17Z</time>
      </trkpt>
      <trkpt lat="49.16691" lon="2.00056">
        <ele>132.42</ele>
        <time>2018-07-01T12:24:32Z</time>
      </trkpt>
      <trkpt lat="49.16683" lon="2.00061">
        <ele>132.54</ele>
        <time>2018-07-01T12:24:43Z</time>
      </trkpt>
      <trkpt lat="49.16663" lon="2.0007">
        <ele>132.98</ele>
        <time>2018-07-01T12:25:03Z</time>
      </trkpt>
      <trkpt lat="49.16646" lon="2.00081">
        <ele>134.47</ele>
        <time>2018-07-01T12:25:22Z</time>
      </trkpt>
      <trkpt lat="49.16645" lon="2.00082">
        <ele>134.47</ele>
        <time>2018-07-01T12:25:23Z</time>
      </trkpt>
      <trkpt lat="49.16631" lon="2.00084">
        <ele>135.51</ele>
        <time>2018-07-01T12:25:36Z</time>
      </trkpt>
      <trkpt lat="49.16625" lon="2.00084">
        <ele>135.88</ele>
        <time>2018-07-01T12:25:41Z</time>
      </trkpt>
      <trkpt lat="49.16612" lon="2.00084">
        <ele>137.22</ele>
        <time>2018-07-01T12:25:54Z</time>
      </trkpt>
      <trkpt lat="49.16604" lon="2.00079">
        <ele>137.23</ele>
        <time>2018-07-01T12:26:08Z</time>
      </trkpt>
      <trkpt lat="49.16599" lon="2.00065">
        <ele>136.78</ele>
        <time>2018-07-01T12:26:21Z</time>
      </trkpt>
      <trkpt lat="49.16598" lon="2.00049">
        <ele>137.27</ele>
        <time>2018-07-01T12:26:41Z</time>
      </trkpt>
      <trkpt lat="49.16607" lon="2.00048">
        <ele>137.62</ele>
        <time>2018-07-01T12:27:06Z</time>
      </trkpt>
      <trkpt lat="49.16602" lon="2.00044">
        <ele>137.11</ele>
        <time>2018-07-01T12:27:27Z</time>
      </trkpt>
      <trkpt lat="49.16599" lon="2.00037">
        <ele>137.45</ele>
        <time>2018-07-01T12:27:38Z</time>
      </trkpt>
      <trkpt lat="49.16596" lon="2.00014">
        <ele>137.97</ele>
        <time>2018-07-01T12:27:51Z</time>
      </trkpt>
      <trkpt lat="49.16591" lon="2.00002">
        <ele>138.57</ele>
        <time>2018-07-01T12:28:00Z</time>
      </trkpt>
      <trkpt lat="49.16588" lon="1.99965">
        <ele>139.35</ele>
        <time>2018-07-01T12:28:21Z</time>
      </trkpt>
      <trkpt lat="49.16589" lon="1.99959">
        <ele>139.58</ele>
        <time>2018-07-01T12:28:31Z</time>
      </trkpt>
      <trkpt lat="49.16592" lon="1.9995">
        <ele>139.55</ele>
        <time>2018-07-01T12:28:41Z</time>
      </trkpt>
      <trkpt lat="49.16589" lon="1.99929">
        <ele>140.68</ele>
        <time>2018-07-01T12:28:56Z</time>
      </trkpt>
      <trkpt lat="49.16586" lon="1.99905">
        <ele>141.47</ele>
        <time>2018-07-01T12:29:10Z</time>
      </trkpt>
      <trkpt lat="49.16578" lon="1.99894">
        <ele>141.36</ele>
        <time>2018-07-01T12:29:20Z</time>
      </trkpt>
      <trkpt lat="49.16574" lon="1.99892">
        <ele>142.56</ele>
        <time>2018-07-01T12:29:36Z</time>
      </trkpt>
      <trkpt lat="49.16574" lon="1.99893">
        <ele>142.41</ele>
        <time>2018-07-01T12:30:02Z</time>
      </trkpt>
      <trkpt lat="49.16576" lon="1.99895">
        <ele>141.05</ele>
        <time>2018-07-01T12:30:33Z</time>
      </trkpt>
      <trkpt lat="49.16575" lon="1.99894">
        <ele>142.79</ele>
        <time>2018-07-01T12:30:38Z</time>
      </trkpt>
      <trkpt lat="49.16573" lon="1.99892">
        <ele>142.27</ele>
        <time>2018-07-01T12:30:56Z</time>
      </trkpt>
      <trkpt lat="49.16573" lon="1.99891">
        <ele>142.09</ele>
        <time>2018-07-01T12:31:16Z</time>
      </trkpt>
      <trkpt lat="49.16573" lon="1.99892">
        <ele>142.82</ele>
        <time>2018-07-01T12:31:39Z</time>
      </trkpt>
      <trkpt lat="49.16578" lon="1.9989">
        <ele>142.89</ele>
        <time>2018-07-01T12:31:56Z</time>
      </trkpt>
      <trkpt lat="49.16579" lon="1.9989">
        <ele>142.72</ele>
        <time>2018-07-01T12:32:18Z</time>
      </trkpt>
      <trkpt lat="49.16576" lon="1.99891">
        <ele>142.6</ele>
        <time>2018-07-01T12:32:40Z</time>
      </trkpt>
      <trkpt lat="49.16576" lon="1.99892">
        <ele>142.28</ele>
        <time>2018-07-01T12:33:08Z</time>
      </trkpt>
      <trkpt lat="49.16577" lon="1.99892">
        <ele>143.38</ele>
        <time>2018-07-01T12:33:41Z</time>
      </trkpt>
      <trkpt lat="49.16578" lon="1.99891">
        <ele>143.17</ele>
        <time>2018-07-01T12:34:06Z</time>
      </trkpt>
      <trkpt lat="49.16575" lon="1.99891">
        <ele>143.72</ele>
        <time>2018-07-01T12:34:31Z</time>
      </trkpt>
      <trkpt lat="49.16574" lon="1.99892">
        <ele>143.46</ele>
        <time>2018-07-01T12:34:56Z</time>
      </trkpt>
      <trkpt lat="49.16575" lon="1.99893">
        <ele>143.54</ele>
        <time>2018-07-01T12:35:27Z</time>
      </trkpt>
      <trkpt lat="49.16574" lon="1.99894">
        <ele>143.81</ele>
        <time>2018-07-01T12:35:57Z</time>
      </trkpt>
      <trkpt lat="49.16575" lon="1.99895">
        <ele>144.06</ele>
        <time>2018-07-01T12:36:24Z</time>
      </trkpt>
      <trkpt lat="49.16579" lon="1.99894">
        <ele>144.31</ele>
        <time>2018-07-01T12:36:42Z</time>
      </trkpt>
      <trkpt lat="49.16586" lon="1.99886">
        <ele>143.91</ele>
        <time>2018-07-01T12:36:55Z</time>
      </trkpt>
      <trkpt lat="49.16586" lon="1.99883">
        <ele>144.39</ele>
        <time>2018-07-01T12:37:08Z</time>
      </trkpt>
      <trkpt lat="49.16584" lon="1.99879">
        <ele>145.21</ele>
        <time>2018-07-01T12:37:24Z</time>
      </trkpt>
      <trkpt lat="49.16584" lon="1.99885">
        <ele>144.54</ele>
        <time>2018-07-01T12:37:41Z</time>
      </trkpt>
      <trkpt lat="49.16583" lon="1.99891">
        <ele>144.58</ele>
        <time>2018-07-01T12:37:57Z</time>
      </trkpt>
      <trkpt lat="49.16581" lon="1.99894">
        <ele>144.16</ele>
        <time>2018-07-01T12:38:25Z</time>
      </trkpt>
      <trkpt lat="49.16578" lon="1.99896">
        <ele>144.26</ele>
        <time>2018-07-01T12:38:42Z</time>
      </trkpt>
      <trkpt lat="49.16582" lon="1.99892">
        <ele>144.6</ele>
        <time>2018-07-01T12:38:55Z</time>
      </trkpt>
      <trkpt lat="49.16583" lon="1.99889">
        <ele>144.44</ele>
        <time>2018-07-01T12:39:00Z</time>
      </trkpt>
      <trkpt lat="49.16585" lon="1.99879">
        <ele>144.74</ele>
        <time>2018-07-01T12:39:08Z</time>
      </trkpt>
      <trkpt lat="49.16584" lon="1.99864">
        <ele>145.8</ele>
        <time>2018-07-01T12:39:17Z</time>
      </trkpt>
      <trkpt lat="49.16581" lon="1.99854">
        <ele>146.06</ele>
        <time>2018-07-01T12:39:23Z</time>
      </trkpt>
      <trkpt lat="49.16582" lon="1.99848">
        <ele>146.36</ele>
        <time>2018-07-01T12:39:27Z</time>
      </trkpt>
      <trkpt lat="49.16581" lon="1.99842">
        <ele>146.31</ele>
        <time>2018-07-01T12:39:31Z</time>
      </trkpt>
      <trkpt lat="49.16579" lon="1.99832">
        <ele>146.45</ele>
        <time>2018-07-01T12:39:38Z</time>
      </trkpt>
      <trkpt lat="49.16577" lon="1.99826">
        <ele>147.71</ele>
        <time>2018-07-01T12:39:43Z</time>
      </trkpt>
      <trkpt lat="49.16575" lon="1.99823">
        <ele>147.95</ele>
        <time>2018-07-01T12:39:46Z</time>
      </trkpt>
      <trkpt lat="49.16573" lon="1.99821">
        <ele>147.94</ele>
        <time>2018-07-01T12:39:48Z</time>
      </trkpt>
      <trkpt lat="49.16558" lon="1.99806">
        <ele>149.09</ele>
        <time>2018-07-01T12:40:06Z</time>
      </trkpt>
      <trkpt lat="49.16543" lon="1.9979">
        <ele>150.98</ele>
        <time>2018-07-01T12:40:22Z</time>
      </trkpt>
      <trkpt lat="49.16518" lon="1.99769">
        <ele>152.73</ele>
        <time>2018-07-01T12:40:46Z</time>
      </trkpt>
      <trkpt lat="49.16495" lon="1.99751">
        <ele>154.94</ele>
        <time>2018-07-01T12:41:09Z</time>
      </trkpt>
      <trkpt lat="49.1647" lon="1.99736">
        <ele>157.05</ele>
        <time>2018-07-01T12:41:34Z</time>
      </trkpt>
      <trkpt lat="49.16456" lon="1.99728">
        <ele>158.29</ele>
        <time>2018-07-01T12:41:49Z</time>
      </trkpt>
      <trkpt lat="49.16441" lon="1.99719">
        <ele>159.21</ele>
        <time>2018-07-01T12:42:04Z</time>
      </trkpt>
      <trkpt lat="49.16431" lon="1.99714">
        <ele>159.17</ele>
        <time>2018-07-01T12:42:23Z</time>
      </trkpt>
      <trkpt lat="49.1642" lon="1.99707">
        <ele>160.84</ele>
        <time>2018-07-01T12:42:35Z</time>
      </trkpt>
      <trkpt lat="49.16402" lon="1.997">
        <ele>161.1</ele>
        <time>2018-07-01T12:42:50Z</time>
      </trkpt>
      <trkpt lat="49.16384" lon="1.99695">
        <ele>162.24</ele>
        <time>2018-07-01T12:43:06Z</time>
      </trkpt>
      <trkpt lat="49.16367" lon="1.99695">
        <ele>163.08</ele>
        <time>2018-07-01T12:43:22Z</time>
      </trkpt>
      <trkpt lat="49.16342" lon="1.99698">
        <ele>162.99</ele>
        <time>2018-07-01T12:43:40Z</time>
      </trkpt>
      <trkpt lat="49.16324" lon="1.99706">
        <ele>163.81</ele>
        <time>2018-07-01T12:43:57Z</time>
      </trkpt>
      <trkpt lat="49.16302" lon="1.99712">
        <ele>163.53</ele>
        <time>2018-07-01T12:44:13Z</time>
      </trkpt>
      <trkpt lat="49.16282" lon="1.99721">
        <ele>163.16</ele>
        <time>2018-07-01T12:44:30Z</time>
      </trkpt>
      <trkpt lat="49.16255" lon="1.99731">
        <ele>163.66</ele>
        <time>2018-07-01T12:44:53Z</time>
      </trkpt>
      <trkpt lat="49.1623" lon="1.99745">
        <ele>166.2</ele>
        <time>2018-07-01T12:45:16Z</time>
      </trkpt>
      <trkpt lat="49.16212" lon="1.99755">
        <ele>167.67</ele>
        <time>2018-07-01T12:45:33Z</time>
      </trkpt>
      <trkpt lat="49.16197" lon="1.99762">
        <ele>169.29</ele>
        <time>2018-07-01T12:45:46Z</time>
      </trkpt>
      <trkpt lat="49.16183" lon="1.99769">
        <ele>170.56</ele>
        <time>2018-07-01T12:45:59Z</time>
      </trkpt>
      <trkpt lat="49.16182" lon="1.9977">
        <ele>170.59</ele>
        <time>2018-07-01T12:46:00Z</time>
      </trkpt>
      <trkpt lat="49.16172" lon="1.99775">
        <ele>171.7</ele>
        <time>2018-07-01T12:46:17Z</time>
      </trkpt>
      <trkpt lat="49.16161" lon="1.99774">
        <ele>172.06</ele>
        <time>2018-07-01T12:46:38Z</time>
      </trkpt>
      <trkpt lat="49.16158" lon="1.99776">
        <ele>171.6</ele>
        <time>2018-07-01T12:46:58Z</time>
      </trkpt>
      <trkpt lat="49.16159" lon="1.99764">
        <ele>171.78</ele>
        <time>2018-07-01T12:47:32Z</time>
      </trkpt>
      <trkpt lat="49.16161" lon="1.99774">
        <ele>171.38</ele>
        <time>2018-07-01T12:48:00Z</time>
      </trkpt>
      <trkpt lat="49.16161" lon="1.99777">
        <ele>171.5</ele>
        <time>2018-07-01T12:48:05Z</time>
      </trkpt>
      <trkpt lat="49.1616" lon="1.99771">
        <ele>171.49</ele>
        <time>2018-07-01T12:48:37Z</time>
      </trkpt>
      <trkpt lat="49.16154" lon="1.99764">
        <ele>170.99</ele>
        <time>2018-07-01T12:49:10Z</time>
      </trkpt>
      <trkpt lat="49.16149" lon="1.99757">
        <ele>171.07</ele>
        <time>2018-07-01T12:49:35Z</time>
      </trkpt>
      <trkpt lat="49.16142" lon="1.99758">
        <ele>171.39</ele>
        <time>2018-07-01T12:50:09Z</time>
      </trkpt>
      <trkpt lat="49.16143" lon="1.99757">
        <ele>171.05</ele>
        <time>2018-07-01T12:50:27Z</time>
      </trkpt>
      <trkpt lat="49.16137" lon="1.99753">
        <ele>171.71</ele>
        <time>2018-07-01T12:50:54Z</time>
      </trkpt>
      <trkpt lat="49.16128" lon="1.99753">
        <ele>171.16</ele>
        <time>2018-07-01T12:51:25Z</time>
      </trkpt>
      <trkpt lat="49.16123" lon="1.99752">
        <ele>172.1</ele>
        <time>2018-07-01T12:51:53Z</time>
      </trkpt>
      <trkpt lat="49.16121" lon="1.99738">
        <ele>171.91</ele>
        <time>2018-07-01T12:52:18Z</time>
      </trkpt>
      <trkpt lat="49.16113" lon="1.99724">
        <ele>172.3</ele>
        <time>2018-07-01T12:52:37Z</time>
      </trkpt>
      <trkpt lat="49.16102" lon="1.9971">
        <ele>171.38</ele>
        <time>2018-07-01T12:52:55Z</time>
      </trkpt>
      <trkpt lat="49.16087" lon="1.997">
        <ele>170.02</ele>
        <time>2018-07-01T12:53:18Z</time>
      </trkpt>
      <trkpt lat="49.16064" lon="1.99689">
        <ele>168.84</ele>
        <time>2018-07-01T12:53:40Z</time>
      </trkpt>
      <trkpt lat="49.16052" lon="1.99685">
        <ele>168.68</ele>
        <time>2018-07-01T12:53:52Z</time>
      </trkpt>
      <trkpt lat="49.16033" lon="1.99682">
        <ele>169.01</ele>
        <time>2018-07-01T12:54:07Z</time>
      </trkpt>
      <trkpt lat="49.16017" lon="1.99675">
        <ele>169.5</ele>
        <time>2018-07-01T12:54:24Z</time>
      </trkpt>
      <trkpt lat="49.16015" lon="1.99673">
        <ele>169.92</ele>
        <time>2018-07-01T12:54:26Z</time>
      </trkpt>
      <trkpt lat="49.15992" lon="1.99661">
        <ele>169.83</ele>
        <time>2018-07-01T12:54:41Z</time>
      </trkpt>
      <trkpt lat="49.15966" lon="1.99644">
        <ele>171.32</ele>
        <time>2018-07-01T12:55:02Z</time>
      </trkpt>
      <trkpt lat="49.15949" lon="1.99627">
        <ele>172.92</ele>
        <time>2018-07-01T12:55:22Z</time>
      </trkpt>
      <trkpt lat="49.15931" lon="1.99618">
        <ele>174.48</ele>
        <time>2018-07-01T12:55:41Z</time>
      </trkpt>
      <trkpt lat="49.15907" lon="1.99605">
        <ele>176.26</ele>
        <time>2018-07-01T12:56:03Z</time>
      </trkpt>
      <trkpt lat="49.15877" lon="1.99592">
        <ele>177.69</ele>
        <time>2018-07-01T12:56:23Z</time>
      </trkpt>
      <trkpt lat="49.1586" lon="1.99585">
        <ele>178.73</ele>
        <time>2018-07-01T12:56:38Z</time>
      </trkpt>
      <trkpt lat="49.15848" lon="1.99587">
        <ele>180</ele>
        <time>2018-07-01T12:56:52Z</time>
      </trkpt>
      <trkpt lat="49.15847" lon="1.99588">
        <ele>180.29</ele>
        <time>2018-07-01T12:56:54Z</time>
      </trkpt>
      <trkpt lat="49.15825" lon="1.99585">
        <ele>181.61</ele>
        <time>2018-07-01T12:57:13Z</time>
      </trkpt>
      <trkpt lat="49.15802" lon="1.9958">
        <ele>184.07</ele>
        <time>2018-07-01T12:57:33Z</time>
      </trkpt>
      <trkpt lat="49.15796" lon="1.9958">
        <ele>184.27</ele>
        <time>2018-07-01T12:57:40Z</time>
      </trkpt>
      <trkpt lat="49.15792" lon="1.99579">
        <ele>184.62</ele>
        <time>2018-07-01T12:57:46Z</time>
      </trkpt>
      <trkpt lat="49.15768" lon="1.99566">
        <ele>186.59</ele>
        <time>2018-07-01T12:58:08Z</time>
      </trkpt>
      <trkpt lat="49.15742" lon="1.9955">
        <ele>186.99</ele>
        <time>2018-07-01T12:58:32Z</time>
      </trkpt>
      <trkpt lat="49.15723" lon="1.99554">
        <ele>187.18</ele>
        <time>2018-07-01T12:58:55Z</time>
      </trkpt>
      <trkpt lat="49.15714" lon="1.99549">
        <ele>187.88</ele>
        <time>2018-07-01T12:58:59Z</time>
      </trkpt>
      <trkpt lat="49.1571" lon="1.99549">
        <ele>187.25</ele>
        <time>2018-07-01T12:59:26Z</time>
      </trkpt>
      <trkpt lat="49.15711" lon="1.99549">
        <ele>187.25</ele>
        <time>2018-07-01T12:59:28Z</time>
      </trkpt>
      <trkpt lat="49.15712" lon="1.99553">
        <ele>187.67</ele>
        <time>2018-07-01T12:59:55Z</time>
      </trkpt>
      <trkpt lat="49.15715" lon="1.9955">
        <ele>187.55</ele>
        <time>2018-07-01T13:00:18Z</time>
      </trkpt>
      <trkpt lat="49.15717" lon="1.99548">
        <ele>187.21</ele>
        <time>2018-07-01T13:00:27Z</time>
      </trkpt>
      <trkpt lat="49.15709" lon="1.99548">
        <ele>186.85</ele>
        <time>2018-07-01T13:00:53Z</time>
      </trkpt>
      <trkpt lat="49.15708" lon="1.99551">
        <ele>187.49</ele>
        <time>2018-07-01T13:01:18Z</time>
      </trkpt>
      <trkpt lat="49.1571" lon="1.99552">
        <ele>187.09</ele>
        <time>2018-07-01T13:01:42Z</time>
      </trkpt>
      <trkpt lat="49.15698" lon="1.99572">
        <ele>187.32</ele>
        <time>2018-07-01T13:01:59Z</time>
      </trkpt>
      <trkpt lat="49.15686" lon="1.99606">
        <ele>187.79</ele>
        <time>2018-07-01T13:02:21Z</time>
      </trkpt>
      <trkpt lat="49.15671" lon="1.99631">
        <ele>187.77</ele>
        <time>2018-07-01T13:02:38Z</time>
      </trkpt>
      <trkpt lat="49.15663" lon="1.99657">
        <ele>187.33</ele>
        <time>2018-07-01T13:02:58Z</time>
      </trkpt>
      <trkpt lat="49.15656" lon="1.99678">
        <ele>187.55</ele>
        <time>2018-07-01T13:03:18Z</time>
      </trkpt>
      <trkpt lat="49.15637" lon="1.99708">
        <ele>187.62</ele>
        <time>2018-07-01T13:03:37Z</time>
      </trkpt>
      <trkpt lat="49.1564" lon="1.99713">
        <ele>187.23</ele>
        <time>2018-07-01T13:04:00Z</time>
      </trkpt>
      <trkpt lat="49.1564" lon="1.9972">
        <ele>186.91</ele>
        <time>2018-07-01T13:04:20Z</time>
      </trkpt>
      <trkpt lat="49.15626" lon="1.99739">
        <ele>187.05</ele>
        <time>2018-07-01T13:04:35Z</time>
      </trkpt>
      <trkpt lat="49.15611" lon="1.99764">
        <ele>187.08</ele>
        <time>2018-07-01T13:04:53Z</time>
      </trkpt>
      <trkpt lat="49.156" lon="1.9978">
        <ele>186.9</ele>
        <time>2018-07-01T13:05:05Z</time>
      </trkpt>
      <trkpt lat="49.15593" lon="1.99788">
        <ele>186.66</ele>
        <time>2018-07-01T13:05:17Z</time>
      </trkpt>
      <trkpt lat="49.1559" lon="1.99787">
        <ele>186.54</ele>
        <time>2018-07-01T13:05:21Z</time>
      </trkpt>
      <trkpt lat="49.15588" lon="1.99793">
        <ele>186.52</ele>
        <time>2018-07-01T13:05:24Z</time>
      </trkpt>
      <trkpt lat="49.15584" lon="1.99802">
        <ele>186.66</ele>
        <time>2018-07-01T13:05:32Z</time>
      </trkpt>
      <trkpt lat="49.15573" lon="1.99822">
        <ele>186.34</ele>
        <time>2018-07-01T13:05:53Z</time>
      </trkpt>
      <trkpt lat="49.15564" lon="1.99835">
        <ele>186.5</ele>
        <time>2018-07-01T13:06:07Z</time>
      </trkpt>
      <trkpt lat="49.15553" lon="1.99854">
        <ele>186.03</ele>
        <time>2018-07-01T13:06:19Z</time>
      </trkpt>
      <trkpt lat="49.15544" lon="1.99872">
        <ele>186.26</ele>
        <time>2018-07-01T13:06:33Z</time>
      </trkpt>
      <trkpt lat="49.15537" lon="1.99891">
        <ele>186.24</ele>
        <time>2018-07-01T13:06:47Z</time>
      </trkpt>
      <trkpt lat="49.15532" lon="1.99899">
        <ele>185.94</ele>
        <time>2018-07-01T13:06:55Z</time>
      </trkpt>
      <trkpt lat="49.1553" lon="1.99902">
        <ele>186.22</ele>
        <time>2018-07-01T13:06:58Z</time>
      </trkpt>
      <trkpt lat="49.1552" lon="1.99924">
        <ele>186.7</ele>
        <time>2018-07-01T13:07:10Z</time>
      </trkpt>
      <trkpt lat="49.15513" lon="1.99941">
        <ele>186.51</ele>
        <time>2018-07-01T13:07:23Z</time>
      </trkpt>
      <trkpt lat="49.15501" lon="1.99969">
        <ele>187.19</ele>
        <time>2018-07-01T13:07:38Z</time>
      </trkpt>
      <trkpt lat="49.15488" lon="1.99999">
        <ele>186.43</ele>
        <time>2018-07-01T13:07:57Z</time>
      </trkpt>
      <trkpt lat="49.1548" lon="2.00015">
        <ele>186.41</ele>
        <time>2018-07-01T13:08:08Z</time>
      </trkpt>
      <trkpt lat="49.15465" lon="2.00038">
        <ele>187.31</ele>
        <time>2018-07-01T13:08:29Z</time>
      </trkpt>
      <trkpt lat="49.15461" lon="2.00043">
        <ele>186.98</ele>
        <time>2018-07-01T13:08:34Z</time>
      </trkpt>
      <trkpt lat="49.1545" lon="2.00059">
        <ele>186.97</ele>
        <time>2018-07-01T13:08:46Z</time>
      </trkpt>
      <trkpt lat="49.15435" lon="2.00085">
        <ele>186.46</ele>
        <time>2018-07-01T13:09:04Z</time>
      </trkpt>
      <trkpt lat="49.15418" lon="2.00109">
        <ele>186.28</ele>
        <time>2018-07-01T13:09:25Z</time>
      </trkpt>
      <trkpt lat="49.15404" lon="2.00134">
        <ele>186.17</ele>
        <time>2018-07-01T13:09:43Z</time>
      </trkpt>
      <trkpt lat="49.15394" lon="2.00146">
        <ele>186.61</ele>
        <time>2018-07-01T13:09:59Z</time>
      </trkpt>
      <trkpt lat="49.15379" lon="2.00171">
        <ele>186.42</ele>
        <time>2018-07-01T13:10:20Z</time>
      </trkpt>
      <trkpt lat="49.15366" lon="2.0019">
        <ele>186.32</ele>
        <time>2018-07-01T13:10:39Z</time>
      </trkpt>
      <trkpt lat="49.15349" lon="2.00218">
        <ele>185.72</ele>
        <time>2018-07-01T13:11:00Z</time>
      </trkpt>
      <trkpt lat="49.15338" lon="2.00238">
        <ele>185.04</ele>
        <time>2018-07-01T13:11:16Z</time>
      </trkpt>
      <trkpt lat="49.15324" lon="2.00267">
        <ele>184.93</ele>
        <time>2018-07-01T13:11:35Z</time>
      </trkpt>
      <trkpt lat="49.15315" lon="2.00293">
        <ele>184.11</ele>
        <time>2018-07-01T13:11:57Z</time>
      </trkpt>
      <trkpt lat="49.15298" lon="2.00317">
        <ele>183.57</ele>
        <time>2018-07-01T13:12:18Z</time>
      </trkpt>
      <trkpt lat="49.15282" lon="2.00353">
        <ele>182.83</ele>
        <time>2018-07-01T13:12:37Z</time>
      </trkpt>
      <trkpt lat="49.15278" lon="2.00372">
        <ele>182.74</ele>
        <time>2018-07-01T13:12:47Z</time>
      </trkpt>
      <trkpt lat="49.15261" lon="2.00392">
        <ele>182.33</ele>
        <time>2018-07-01T13:13:06Z</time>
      </trkpt>
      <trkpt lat="49.15258" lon="2.00394">
        <ele>182.4</ele>
        <time>2018-07-01T13:13:31Z</time>
      </trkpt>
      <trkpt lat="49.15248" lon="2.00404">
        <ele>181.39</ele>
        <time>2018-07-01T13:13:48Z</time>
      </trkpt>
      <trkpt lat="49.15248" lon="2.00402">
        <ele>181.63</ele>
        <time>2018-07-01T13:13:52Z</time>
      </trkpt>
      <trkpt lat="49.15236" lon="2.00425">
        <ele>181.42</ele>
        <time>2018-07-01T13:14:13Z</time>
      </trkpt>
      <trkpt lat="49.1523" lon="2.0044">
        <ele>180.21</ele>
        <time>2018-07-01T13:14:24Z</time>
      </trkpt>
      <trkpt lat="49.15219" lon="2.00457">
        <ele>179.93</ele>
        <time>2018-07-01T13:14:39Z</time>
      </trkpt>
      <trkpt lat="49.15204" lon="2.00484">
        <ele>180.13</ele>
        <time>2018-07-01T13:14:58Z</time>
      </trkpt>
      <trkpt lat="49.15192" lon="2.00505">
        <ele>179.68</ele>
        <time>2018-07-01T13:15:16Z</time>
      </trkpt>
      <trkpt lat="49.15179" lon="2.00529">
        <ele>179.15</ele>
        <time>2018-07-01T13:15:36Z</time>
      </trkpt>
      <trkpt lat="49.15163" lon="2.00557">
        <ele>178.61</ele>
        <time>2018-07-01T13:15:54Z</time>
      </trkpt>
      <trkpt lat="49.15151" lon="2.00576">
        <ele>178.41</ele>
        <time>2018-07-01T13:16:08Z</time>
      </trkpt>
      <trkpt lat="49.15138" lon="2.006">
        <ele>177.79</ele>
        <time>2018-07-01T13:16:25Z</time>
      </trkpt>
      <trkpt lat="49.15125" lon="2.00616">
        <ele>177.51</ele>
        <time>2018-07-01T13:16:40Z</time>
      </trkpt>
      <trkpt lat="49.15109" lon="2.00643">
        <ele>176.9</ele>
        <time>2018-07-01T13:17:00Z</time>
      </trkpt>
      <trkpt lat="49.15091" lon="2.00653">
        <ele>175.83</ele>
        <time>2018-07-01T13:17:15Z</time>
      </trkpt>
      <trkpt lat="49.15069" lon="2.00669">
        <ele>174.95</ele>
        <time>2018-07-01T13:17:37Z</time>
      </trkpt>
      <trkpt lat="49.15062" lon="2.00673">
        <ele>174.54</ele>
        <time>2018-07-01T13:17:43Z</time>
      </trkpt>
      <trkpt lat="49.15044" lon="2.00695">
        <ele>174.07</ele>
        <time>2018-07-01T13:17:59Z</time>
      </trkpt>
      <trkpt lat="49.15031" lon="2.00727">
        <ele>173.12</ele>
        <time>2018-07-01T13:18:21Z</time>
      </trkpt>
      <trkpt lat="49.15015" lon="2.00748">
        <ele>172.88</ele>
        <time>2018-07-01T13:18:37Z</time>
      </trkpt>
      <trkpt lat="49.15012" lon="2.0075">
        <ele>173.02</ele>
        <time>2018-07-01T13:18:40Z</time>
      </trkpt>
      <trkpt lat="49.14997" lon="2.00757">
        <ele>173.26</ele>
        <time>2018-07-01T13:18:55Z</time>
      </trkpt>
      <trkpt lat="49.14976" lon="2.00764">
        <ele>171.56</ele>
        <time>2018-07-01T13:19:11Z</time>
      </trkpt>
      <trkpt lat="49.1496" lon="2.00776">
        <ele>170.67</ele>
        <time>2018-07-01T13:19:26Z</time>
      </trkpt>
      <trkpt lat="49.14948" lon="2.0079">
        <ele>170.1</ele>
        <time>2018-07-01T13:19:41Z</time>
      </trkpt>
      <trkpt lat="49.14929" lon="2.00806">
        <ele>169.59</ele>
        <time>2018-07-01T13:20:00Z</time>
      </trkpt>
      <trkpt lat="49.14914" lon="2.0083">
        <ele>168.2</ele>
        <time>2018-07-01T13:20:19Z</time>
      </trkpt>
      <trkpt lat="49.14902" lon="2.00844">
        <ele>167.43</ele>
        <time>2018-07-01T13:20:32Z</time>
      </trkpt>
      <trkpt lat="49.14883" lon="2.00868">
        <ele>165.86</ele>
        <time>2018-07-01T13:20:53Z</time>
      </trkpt>
      <trkpt lat="49.1487" lon="2.00888">
        <ele>165.37</ele>
        <time>2018-07-01T13:21:11Z</time>
      </trkpt>
      <trkpt lat="49.14863" lon="2.00905">
        <ele>165.7</ele>
        <time>2018-07-01T13:21:29Z</time>
      </trkpt>
      <trkpt lat="49.14846" lon="2.00931">
        <ele>164.9</ele>
        <time>2018-07-01T13:21:45Z</time>
      </trkpt>
      <trkpt lat="49.14837" lon="2.00942">
        <ele>164.63</ele>
        <time>2018-07-01T13:22:08Z</time>
      </trkpt>
      <trkpt lat="49.14831" lon="2.00954">
        <ele>163.4</ele>
        <time>2018-07-01T13:22:27Z</time>
      </trkpt>
      <trkpt lat="49.14817" lon="2.00977">
        <ele>160.84</ele>
        <time>2018-07-01T13:22:48Z</time>
      </trkpt>
      <trkpt lat="49.14813" lon="2.00985">
        <ele>159.84</ele>
        <time>2018-07-01T13:22:55Z</time>
      </trkpt>
      <trkpt lat="49.14792" lon="2.01015">
        <ele>158.98</ele>
        <time>2018-07-01T13:23:18Z</time>
      </trkpt>
      <trkpt lat="49.14778" lon="2.01039">
        <ele>155.77</ele>
        <time>2018-07-01T13:23:38Z</time>
      </trkpt>
      <trkpt lat="49.14763" lon="2.01052">
        <ele>154.52</ele>
        <time>2018-07-01T13:23:55Z</time>
      </trkpt>
      <trkpt lat="49.14743" lon="2.0107">
        <ele>152.53</ele>
        <time>2018-07-01T13:24:15Z</time>
      </trkpt>
      <trkpt lat="49.14728" lon="2.01092">
        <ele>150.62</ele>
        <time>2018-07-01T13:24:35Z</time>
      </trkpt>
      <trkpt lat="49.14711" lon="2.01113">
        <ele>150.34</ele>
        <time>2018-07-01T13:24:52Z</time>
      </trkpt>
      <trkpt lat="49.147" lon="2.0113">
        <ele>149.6</ele>
        <time>2018-07-01T13:25:06Z</time>
      </trkpt>
      <trkpt lat="49.14683" lon="2.0115">
        <ele>148.65</ele>
        <time>2018-07-01T13:25:25Z</time>
      </trkpt>
      <trkpt lat="49.14679" lon="2.01155">
        <ele>148.33</ele>
        <time>2018-07-01T13:25:42Z</time>
      </trkpt>
      <trkpt lat="49.14677" lon="2.01154">
        <ele>148.65</ele>
        <time>2018-07-01T13:26:02Z</time>
      </trkpt>
      <trkpt lat="49.14677" lon="2.01154">
        <ele>149.2</ele>
        <time>2018-07-01T13:26:11Z</time>
      </trkpt>
      <trkpt lat="49.1468" lon="2.01152">
        <ele>148.71</ele>
        <time>2018-07-01T13:26:31Z</time>
      </trkpt>
      <trkpt lat="49.14678" lon="2.01155">
        <ele>149.12</ele>
        <time>2018-07-01T13:26:54Z</time>
      </trkpt>
      <trkpt lat="49.14681" lon="2.01154">
        <ele>149.31</ele>
        <time>2018-07-01T13:27:18Z</time>
      </trkpt>
      <trkpt lat="49.14682" lon="2.01154">
        <ele>149.59</ele>
        <time>2018-07-01T13:27:42Z</time>
      </trkpt>
      <trkpt lat="49.14682" lon="2.01154">
        <ele>149.55</ele>
        <time>2018-07-01T13:28:06Z</time>
      </trkpt>
      <trkpt lat="49.14684" lon="2.01157">
        <ele>150.13</ele>
        <time>2018-07-01T13:28:31Z</time>
      </trkpt>
      <trkpt lat="49.14683" lon="2.01158">
        <ele>149.93</ele>
        <time>2018-07-01T13:28:42Z</time>
      </trkpt>
      <trkpt lat="49.14682" lon="2.01163">
        <ele>149.77</ele>
        <time>2018-07-01T13:28:47Z</time>
      </trkpt>
      <trkpt lat="49.14671" lon="2.01168">
        <ele>149.23</ele>
        <time>2018-07-01T13:29:02Z</time>
      </trkpt>
      <trkpt lat="49.14656" lon="2.01174">
        <ele>149.09</ele>
        <time>2018-07-01T13:29:15Z</time>
      </trkpt>
      <trkpt lat="49.1464" lon="2.01188">
        <ele>148.92</ele>
        <time>2018-07-01T13:29:33Z</time>
      </trkpt>
      <trkpt lat="49.1463" lon="2.01197">
        <ele>148.61</ele>
        <time>2018-07-01T13:29:47Z</time>
      </trkpt>
      <trkpt lat="49.14611" lon="2.01219">
        <ele>148.09</ele>
        <time>2018-07-01T13:30:08Z</time>
      </trkpt>
      <trkpt lat="49.1459" lon="2.01246">
        <ele>147.04</ele>
        <time>2018-07-01T13:30:30Z</time>
      </trkpt>
      <trkpt lat="49.14582" lon="2.0126">
        <ele>146.97</ele>
        <time>2018-07-01T13:30:40Z</time>
      </trkpt>
      <trkpt lat="49.14571" lon="2.01285">
        <ele>146.53</ele>
        <time>2018-07-01T13:30:56Z</time>
      </trkpt>
      <trkpt lat="49.14561" lon="2.01314">
        <ele>145.24</ele>
        <time>2018-07-01T13:31:14Z</time>
      </trkpt>
      <trkpt lat="49.14561" lon="2.01316">
        <ele>145.24</ele>
        <time>2018-07-01T13:31:15Z</time>
      </trkpt>
      <trkpt lat="49.14552" lon="2.01339">
        <ele>144.96</ele>
        <time>2018-07-01T13:31:30Z</time>
      </trkpt>
      <trkpt lat="49.14548" lon="2.0135">
        <ele>144.2</ele>
        <time>2018-07-01T13:31:37Z</time>
      </trkpt>
      <trkpt lat="49.14538" lon="2.01373">
        <ele>143.67</ele>
        <time>2018-07-01T13:31:52Z</time>
      </trkpt>
      <trkpt lat="49.14532" lon="2.01396">
        <ele>142.68</ele>
        <time>2018-07-01T13:32:05Z</time>
      </trkpt>
      <trkpt lat="49.14529" lon="2.01403">
        <ele>142.95</ele>
        <time>2018-07-01T13:32:09Z</time>
      </trkpt>
      <trkpt lat="49.14517" lon="2.01434">
        <ele>141.79</ele>
        <time>2018-07-01T13:32:26Z</time>
      </trkpt>
      <trkpt lat="49.14499" lon="2.01466">
        <ele>141.4</ele>
        <time>2018-07-01T13:32:49Z</time>
      </trkpt>
      <trkpt lat="49.14483" lon="2.01484">
        <ele>140.85</ele>
        <time>2018-07-01T13:33:07Z</time>
      </trkpt>
      <trkpt lat="49.1447" lon="2.01503">
        <ele>139.82</ele>
        <time>2018-07-01T13:33:21Z</time>
      </trkpt>
      <trkpt lat="49.14454" lon="2.01525">
        <ele>140.43</ele>
        <time>2018-07-01T13:33:38Z</time>
      </trkpt>
      <trkpt lat="49.14437" lon="2.0155">
        <ele>140.57</ele>
        <time>2018-07-01T13:33:57Z</time>
      </trkpt>
      <trkpt lat="49.14419" lon="2.01578">
        <ele>140.64</ele>
        <time>2018-07-01T13:34:18Z</time>
      </trkpt>
      <trkpt lat="49.14403" lon="2.01601">
        <ele>140.57</ele>
        <time>2018-07-01T13:34:37Z</time>
      </trkpt>
      <trkpt lat="49.14396" lon="2.01611">
        <ele>139.83</ele>
        <time>2018-07-01T13:34:49Z</time>
      </trkpt>
      <trkpt lat="49.14379" lon="2.01638">
        <ele>140.1</ele>
        <time>2018-07-01T13:35:08Z</time>
      </trkpt>
      <trkpt lat="49.14365" lon="2.0166">
        <ele>139.78</ele>
        <time>2018-07-01T13:35:24Z</time>
      </trkpt>
      <trkpt lat="49.14353" lon="2.01679">
        <ele>140.27</ele>
        <time>2018-07-01T13:35:39Z</time>
      </trkpt>
      <trkpt lat="49.14334" lon="2.01713">
        <ele>140.78</ele>
        <time>2018-07-01T13:36:04Z</time>
      </trkpt>
      <trkpt lat="49.14325" lon="2.01736">
        <ele>141.31</ele>
        <time>2018-07-01T13:36:20Z</time>
      </trkpt>
      <trkpt lat="49.14313" lon="2.01771">
        <ele>142.55</ele>
        <time>2018-07-01T13:36:43Z</time>
      </trkpt>
      <trkpt lat="49.14312" lon="2.01776">
        <ele>142.3</ele>
        <time>2018-07-01T13:36:46Z</time>
      </trkpt>
      <trkpt lat="49.14306" lon="2.01816">
        <ele>143.34</ele>
        <time>2018-07-01T13:37:09Z</time>
      </trkpt>
      <trkpt lat="49.14312" lon="2.01856">
        <ele>144.04</ele>
        <time>2018-07-01T13:37:31Z</time>
      </trkpt>
      <trkpt lat="49.14316" lon="2.01874">
        <ele>144.28</ele>
        <time>2018-07-01T13:37:41Z</time>
      </trkpt>
      <trkpt lat="49.14316" lon="2.01885">
        <ele>144.73</ele>
        <time>2018-07-01T13:37:49Z</time>
      </trkpt>
      <trkpt lat="49.14319" lon="2.01902">
        <ele>144.37</ele>
        <time>2018-07-01T13:38:02Z</time>
      </trkpt>
      <trkpt lat="49.14319" lon="2.01908">
        <ele>144.5</ele>
        <time>2018-07-01T13:38:06Z</time>
      </trkpt>
      <trkpt lat="49.14317" lon="2.01925">
        <ele>145.47</ele>
        <time>2018-07-01T13:38:22Z</time>
      </trkpt>
      <trkpt lat="49.14312" lon="2.01951">
        <ele>145.55</ele>
        <time>2018-07-01T13:38:39Z</time>
      </trkpt>
      <trkpt lat="49.14306" lon="2.01976">
        <ele>145.69</ele>
        <time>2018-07-01T13:38:56Z</time>
      </trkpt>
      <trkpt lat="49.14305" lon="2.01981">
        <ele>145.2</ele>
        <time>2018-07-01T13:39:09Z</time>
      </trkpt>
      <trkpt lat="49.14303" lon="2.01987">
        <ele>145.79</ele>
        <time>2018-07-01T13:39:13Z</time>
      </trkpt>
      <trkpt lat="49.14295" lon="2.01997">
        <ele>145.5</ele>
        <time>2018-07-01T13:39:30Z</time>
      </trkpt>
      <trkpt lat="49.14293" lon="2.01999">
        <ele>145.79</ele>
        <time>2018-07-01T13:39:36Z</time>
      </trkpt>
      <trkpt lat="49.1429" lon="2.02003">
        <ele>145.97</ele>
        <time>2018-07-01T13:39:40Z</time>
      </trkpt>
      <trkpt lat="49.14284" lon="2.02017">
        <ele>147.07</ele>
        <time>2018-07-01T13:39:55Z</time>
      </trkpt>
      <trkpt lat="49.14272" lon="2.0203">
        <ele>147.2</ele>
        <time>2018-07-01T13:40:16Z</time>
      </trkpt>
      <trkpt lat="49.1427" lon="2.02034">
        <ele>147.07</ele>
        <time>2018-07-01T13:40:19Z</time>
      </trkpt>
      <trkpt lat="49.14257" lon="2.02054">
        <ele>147.7</ele>
        <time>2018-07-01T13:40:35Z</time>
      </trkpt>
      <trkpt lat="49.14253" lon="2.02057">
        <ele>147.39</ele>
        <time>2018-07-01T13:40:42Z</time>
      </trkpt>
      <trkpt lat="49.1425" lon="2.0206">
        <ele>147.45</ele>
        <time>2018-07-01T13:40:46Z</time>
      </trkpt>
      <trkpt lat="49.14244" lon="2.02068">
        <ele>147.87</ele>
        <time>2018-07-01T13:40:55Z</time>
      </trkpt>
      <trkpt lat="49.14242" lon="2.02075">
        <ele>148.25</ele>
        <time>2018-07-01T13:41:00Z</time>
      </trkpt>
      <trkpt lat="49.14239" lon="2.02082">
        <ele>147.97</ele>
        <time>2018-07-01T13:41:05Z</time>
      </trkpt>
      <trkpt lat="49.14239" lon="2.02086">
        <ele>148.1</ele>
        <time>2018-07-01T13:41:07Z</time>
      </trkpt>
      <trkpt lat="49.14235" lon="2.0211">
        <ele>148.68</ele>
        <time>2018-07-01T13:41:22Z</time>
      </trkpt>
      <trkpt lat="49.14234" lon="2.0212">
        <ele>148.8</ele>
        <time>2018-07-01T13:41:27Z</time>
      </trkpt>
      <trkpt lat="49.14239" lon="2.02145">
        <ele>148.21</ele>
        <time>2018-07-01T13:41:44Z</time>
      </trkpt>
      <trkpt lat="49.14241" lon="2.0215">
        <ele>148.29</ele>
        <time>2018-07-01T13:41:47Z</time>
      </trkpt>
      <trkpt lat="49.14254" lon="2.02169">
        <ele>147.33</ele>
        <time>2018-07-01T13:42:03Z</time>
      </trkpt>
    </trkseg>
  </trk>
</gpx>